<?xml version="1.0" encoding="UTF-8" standalone="no" ?>
<gpx xmlns="http://www.topografix.com/GPX/1/1" xmlns:xsi="http://www.w3.org/2001/XMLSchema-instance" xsi:schemaLocation="http://www.topografix.com/GPX/1/1 http://www.topografix.com/GPX/1/1/gpx.xsd" version="1.1" creator="VisuGPX - https://www.visugpx.com">
  <metadata>
    <name>Etape 3 - Variante pat Thorame</name>
  </metadata>
  <trk>
    <name><![CDATA[Etape 3 - Colle Saint Michel à Castellane]]></name>
    <trkseg>
      <trkpt lat="44.04716" lon="6.59384">
        <ele>1426.200876</ele>
        <time>2020-03-27T09:18:22.408Z</time>
      </trkpt>
      <trkpt lat="44.04685" lon="6.5934">
        <ele>1426.200876</ele>
        <time>2020-03-27T09:18:28.104Z</time>
      </trkpt>
      <trkpt lat="44.04682" lon="6.59331">
        <ele>1426.200876</ele>
        <time>2020-03-27T09:18:28.959Z</time>
      </trkpt>
      <trkpt lat="44.0468" lon="6.59319">
        <ele>1426.200876</ele>
        <time>2020-03-27T09:18:30.297Z</time>
      </trkpt>
      <trkpt lat="44.0468" lon="6.59305">
        <ele>1426.200876</ele>
        <time>2020-03-27T09:18:31.729Z</time>
      </trkpt>
      <trkpt lat="44.04675" lon="6.59303">
        <ele>1426.200876</ele>
        <time>2020-03-27T09:18:34.356Z</time>
      </trkpt>
      <trkpt lat="44.04648" lon="6.59283">
        <ele>1425.629972</ele>
        <time>2020-03-27T09:18:50.728Z</time>
      </trkpt>
      <trkpt lat="44.0464" lon="6.59278">
        <ele>1425.325821</ele>
        <time>2020-03-27T09:18:55.407Z</time>
      </trkpt>
      <trkpt lat="44.04633" lon="6.59273">
        <ele>1425.079245</ele>
        <time>2020-03-27T09:18:59.020Z</time>
      </trkpt>
      <trkpt lat="44.04586" lon="6.59207">
        <ele>1422.797905</ele>
        <time>2020-03-27T09:19:32.117Z</time>
      </trkpt>
      <trkpt lat="44.04559" lon="6.59158">
        <ele>1421.285177</ele>
        <time>2020-03-27T09:19:53.964Z</time>
      </trkpt>
      <trkpt lat="44.04557" lon="6.59141">
        <ele>1420.866182</ele>
        <time>2020-03-27T09:19:59.811Z</time>
      </trkpt>
      <trkpt lat="44.0456" lon="6.59122">
        <ele>1420.395322</ele>
        <time>2020-03-27T09:20:06.569Z</time>
      </trkpt>
      <trkpt lat="44.04562" lon="6.59106">
        <ele>1419.922737</ele>
        <time>2020-03-27T09:20:12.452Z</time>
      </trkpt>
      <trkpt lat="44.04564" lon="6.59084">
        <ele>1418.96507</ele>
        <time>2020-03-27T09:20:19.957Z</time>
      </trkpt>
      <trkpt lat="44.04571" lon="6.5898">
        <ele>1414.564042</ele>
        <time>2020-03-27T09:20:54.688Z</time>
      </trkpt>
      <trkpt lat="44.04564" lon="6.58912">
        <ele>1411.646297</ele>
        <time>2020-03-27T09:21:17.218Z</time>
      </trkpt>
      <trkpt lat="44.04539" lon="6.58894">
        <ele>1409.964185</ele>
        <time>2020-03-27T09:21:29.983Z</time>
      </trkpt>
      <trkpt lat="44.04523" lon="6.58864">
        <ele>1407.619896</ele>
        <time>2020-03-27T09:21:42.572Z</time>
      </trkpt>
      <trkpt lat="44.04518" lon="6.58838">
        <ele>1405.678588</ele>
        <time>2020-03-27T09:21:51.476Z</time>
      </trkpt>
      <trkpt lat="44.04525" lon="6.58811">
        <ele>1403.602477</ele>
        <time>2020-03-27T09:22:00.864Z</time>
      </trkpt>
      <trkpt lat="44.04524" lon="6.58797">
        <ele>1402.55021</ele>
        <time>2020-03-27T09:22:05.348Z</time>
      </trkpt>
      <trkpt lat="44.04515" lon="6.5875">
        <ele>1399.062007</ele>
        <time>2020-03-27T09:22:20.395Z</time>
      </trkpt>
      <trkpt lat="44.04512" lon="6.58743">
        <ele>1398.460146</ele>
        <time>2020-03-27T09:22:22.965Z</time>
      </trkpt>
      <trkpt lat="44.04499" lon="6.58737">
        <ele>1397.072596</ele>
        <time>2020-03-27T09:22:28.825Z</time>
      </trkpt>
      <trkpt lat="44.04504" lon="6.58723">
        <ele>1395.9813</ele>
        <time>2020-03-27T09:22:33.299Z</time>
      </trkpt>
      <trkpt lat="44.04529" lon="6.58703">
        <ele>1393.044692</ele>
        <time>2020-03-27T09:22:45.319Z</time>
      </trkpt>
      <trkpt lat="44.04536" lon="6.58678">
        <ele>1390.957799</ele>
        <time>2020-03-27T09:22:53.235Z</time>
      </trkpt>
      <trkpt lat="44.04536" lon="6.58664">
        <ele>1389.408014</ele>
        <time>2020-03-27T09:22:57.483Z</time>
      </trkpt>
      <trkpt lat="44.04567" lon="6.58663">
        <ele>1384.734186</ele>
        <time>2020-03-27T09:23:02.524Z</time>
      </trkpt>
      <trkpt lat="44.04594" lon="6.58667">
        <ele>1380.695569</ele>
        <time>2020-03-27T09:23:06.888Z</time>
      </trkpt>
      <trkpt lat="44.04648" lon="6.58683">
        <ele>1372.484866</ele>
        <time>2020-03-27T09:23:15.725Z</time>
      </trkpt>
      <trkpt lat="44.04681" lon="6.58639">
        <ele>1365.684207</ele>
        <time>2020-03-27T09:23:23.016Z</time>
      </trkpt>
      <trkpt lat="44.04719" lon="6.58613">
        <ele>1362.10242</ele>
        <time>2020-03-27T09:23:30.014Z</time>
      </trkpt>
      <trkpt lat="44.04718" lon="6.58579">
        <ele>1360.447228</ele>
        <time>2020-03-27T09:23:34.126Z</time>
      </trkpt>
      <trkpt lat="44.04742" lon="6.58518">
        <ele>1356.986592</ele>
        <time>2020-03-27T09:23:43.220Z</time>
      </trkpt>
      <trkpt lat="44.0475" lon="6.5846">
        <ele>1354.079961</ele>
        <time>2020-03-27T09:23:52.901Z</time>
      </trkpt>
      <trkpt lat="44.04746" lon="6.5845">
        <ele>1353.514075</ele>
        <time>2020-03-27T09:23:55.215Z</time>
      </trkpt>
      <trkpt lat="44.04757" lon="6.58316">
        <ele>1349.519472</ele>
        <time>2020-03-27T09:24:17.807Z</time>
      </trkpt>
      <trkpt lat="44.04725" lon="6.58309">
        <ele>1348.430053</ele>
        <time>2020-03-27T09:24:24.772Z</time>
      </trkpt>
      <trkpt lat="44.04736" lon="6.58276">
        <ele>1347.54911</ele>
        <time>2020-03-27T09:24:37.372Z</time>
      </trkpt>
      <trkpt lat="44.04748" lon="6.5824">
        <ele>1346.592993</ele>
        <time>2020-03-27T09:24:50.897Z</time>
      </trkpt>
      <trkpt lat="44.04746" lon="6.5821">
        <ele>1345.453059</ele>
        <time>2020-03-27T09:25:01.027Z</time>
      </trkpt>
      <trkpt lat="44.0475" lon="6.58171">
        <ele>1342.393485</ele>
        <time>2020-03-27T09:25:13.776Z</time>
      </trkpt>
      <trkpt lat="44.04766" lon="6.58082">
        <ele>1335.334052</ele>
        <time>2020-03-27T09:25:41.631Z</time>
      </trkpt>
      <trkpt lat="44.04771" lon="6.58043">
        <ele>1332.262358</ele>
        <time>2020-03-27T09:25:53.543Z</time>
      </trkpt>
      <trkpt lat="44.04758" lon="6.57954">
        <ele>1324.662776</ele>
        <time>2020-03-27T09:26:20.400Z</time>
      </trkpt>
      <trkpt lat="44.04711" lon="6.57863">
        <ele>1312.657454</ele>
        <time>2020-03-27T09:26:53.286Z</time>
      </trkpt>
      <trkpt lat="44.04677" lon="6.57812">
        <ele>1305.124743</ele>
        <time>2020-03-27T09:27:13.634Z</time>
      </trkpt>
      <trkpt lat="44.04651" lon="6.57754">
        <ele>1297.307892</ele>
        <time>2020-03-27T09:27:33.012Z</time>
      </trkpt>
      <trkpt lat="44.04646" lon="6.57673">
        <ele>1286.273157</ele>
        <time>2020-03-27T09:27:55.936Z</time>
      </trkpt>
      <trkpt lat="44.04626" lon="6.57615">
        <ele>1277.413874</ele>
        <time>2020-03-27T09:28:14.207Z</time>
      </trkpt>
      <trkpt lat="44.04615" lon="6.57529">
        <ele>1265.499067</ele>
        <time>2020-03-27T09:28:38.593Z</time>
      </trkpt>
      <trkpt lat="44.04593" lon="6.5746">
        <ele>1254.504404</ele>
        <time>2020-03-27T09:28:59.153Z</time>
      </trkpt>
      <trkpt lat="44.04587" lon="6.57419">
        <ele>1248.359275</ele>
        <time>2020-03-27T09:29:10.647Z</time>
      </trkpt>
      <trkpt lat="44.04585" lon="6.57372">
        <ele>1241.40541</ele>
        <time>2020-03-27T09:29:23.739Z</time>
      </trkpt>
      <trkpt lat="44.04596" lon="6.57346">
        <ele>1236.981773</ele>
        <time>2020-03-27T09:29:32.561Z</time>
      </trkpt>
      <trkpt lat="44.04599" lon="6.57338">
        <ele>1235.655248</ele>
        <time>2020-03-27T09:29:35.116Z</time>
      </trkpt>
      <trkpt lat="44.04605" lon="6.57334">
        <ele>1234.104711</ele>
        <time>2020-03-27T09:29:36.316Z</time>
      </trkpt>
      <trkpt lat="44.04608" lon="6.57322">
        <ele>1232.384076</ele>
        <time>2020-03-27T09:29:37.735Z</time>
      </trkpt>
      <trkpt lat="44.04605" lon="6.57303">
        <ele>1229.490102</ele>
        <time>2020-03-27T09:29:40.035Z</time>
      </trkpt>
      <trkpt lat="44.04603" lon="6.57293">
        <ele>1228.280249</ele>
        <time>2020-03-27T09:29:41.208Z</time>
      </trkpt>
      <trkpt lat="44.04588" lon="6.57259">
        <ele>1224.146331</ele>
        <time>2020-03-27T09:29:45.943Z</time>
      </trkpt>
      <trkpt lat="44.04509" lon="6.57231">
        <ele>1212.407446</ele>
        <time>2020-03-27T09:29:58.917Z</time>
      </trkpt>
      <trkpt lat="44.04483" lon="6.57187">
        <ele>1206.437503</ele>
        <time>2020-03-27T09:30:05.922Z</time>
      </trkpt>
      <trkpt lat="44.04426" lon="6.57174">
        <ele>1199.497746</ele>
        <time>2020-03-27T09:30:16.187Z</time>
      </trkpt>
      <trkpt lat="44.04351" lon="6.57123">
        <ele>1191.053685</ele>
        <time>2020-03-27T09:30:30.480Z</time>
      </trkpt>
      <trkpt lat="44.04299" lon="6.57063">
        <ele>1184.111454</ele>
        <time>2020-03-27T09:30:41.946Z</time>
      </trkpt>
      <trkpt lat="44.04297" lon="6.57012">
        <ele>1179.850785</ele>
        <time>2020-03-27T09:30:48.135Z</time>
      </trkpt>
      <trkpt lat="44.04263" lon="6.56964">
        <ele>1174.267558</ele>
        <time>2020-03-27T09:30:56.209Z</time>
      </trkpt>
      <trkpt lat="44.04215" lon="6.5693">
        <ele>1167.987534</ele>
        <time>2020-03-27T09:31:05.286Z</time>
      </trkpt>
      <trkpt lat="44.04136" lon="6.56848">
        <ele>1157.444986</ele>
        <time>2020-03-27T09:31:21.871Z</time>
      </trkpt>
      <trkpt lat="44.04098" lon="6.56841">
        <ele>1153.503488</ele>
        <time>2020-03-27T09:31:28.472Z</time>
      </trkpt>
      <trkpt lat="44.04081" lon="6.56844">
        <ele>1151.773592</ele>
        <time>2020-03-27T09:31:31.411Z</time>
      </trkpt>
      <trkpt lat="44.04068" lon="6.56816">
        <ele>1149.351624</ele>
        <time>2020-03-27T09:31:35.512Z</time>
      </trkpt>
      <trkpt lat="44.04041" lon="6.56807">
        <ele>1146.444718</ele>
        <time>2020-03-27T09:31:40.484Z</time>
      </trkpt>
      <trkpt lat="44.04019" lon="6.56816">
        <ele>1144.440363</ele>
        <time>2020-03-27T09:31:44.531Z</time>
      </trkpt>
      <trkpt lat="44.03994" lon="6.56804">
        <ele>1142.420814</ele>
        <time>2020-03-27T09:31:49.067Z</time>
      </trkpt>
      <trkpt lat="44.03919" lon="6.56814">
        <ele>1136.417411</ele>
        <time>2020-03-27T09:32:02.660Z</time>
      </trkpt>
      <trkpt lat="44.03874" lon="6.5678">
        <ele>1132.369855</ele>
        <time>2020-03-27T09:32:11.828Z</time>
      </trkpt>
      <trkpt lat="44.03857" lon="6.56788">
        <ele>1130.99851</ele>
        <time>2020-03-27T09:32:14.953Z</time>
      </trkpt>
      <trkpt lat="44.03801" lon="6.56767">
        <ele>1126.345605</ele>
        <time>2020-03-27T09:32:25.410Z</time>
      </trkpt>
      <trkpt lat="44.03759" lon="6.56767">
        <ele>1122.982895</ele>
        <time>2020-03-27T09:32:33.008Z</time>
      </trkpt>
      <trkpt lat="44.03738" lon="6.5675">
        <ele>1121.008512</ele>
        <time>2020-03-27T09:32:37.378Z</time>
      </trkpt>
      <trkpt lat="44.03715" lon="6.56751">
        <ele>1119.166587</ele>
        <time>2020-03-27T09:32:41.409Z</time>
      </trkpt>
      <trkpt lat="44.03707" lon="6.56746">
        <ele>1118.515273</ele>
        <time>2020-03-27T09:32:42.817Z</time>
      </trkpt>
      <trkpt lat="44.03717" lon="6.56699">
        <ele>1115.564219</ele>
        <time>2020-03-27T09:32:48.962Z</time>
      </trkpt>
      <trkpt lat="44.03694" lon="6.56676">
        <ele>1113.052982</ele>
        <time>2020-03-27T09:32:53.917Z</time>
      </trkpt>
      <trkpt lat="44.03664" lon="6.56673">
        <ele>1110.428606</ele>
        <time>2020-03-27T09:32:59.142Z</time>
      </trkpt>
      <trkpt lat="44.03638" lon="6.56646">
        <ele>1107.529198</ele>
        <time>2020-03-27T09:33:04.915Z</time>
      </trkpt>
      <trkpt lat="44.0364" lon="6.5663">
        <ele>1106.53511</ele>
        <time>2020-03-27T09:33:06.847Z</time>
      </trkpt>
      <trkpt lat="44.0378" lon="6.56665">
        <ele>1093.329192</ele>
        <time>2020-03-27T09:33:31.543Z</time>
      </trkpt>
      <trkpt lat="44.03817" lon="6.56668">
        <ele>1089.708698</ele>
        <time>2020-03-27T09:33:38.083Z</time>
      </trkpt>
      <trkpt lat="44.03828" lon="6.56661">
        <ele>1088.598345</ele>
        <time>2020-03-27T09:33:40.058Z</time>
      </trkpt>
      <trkpt lat="44.03824" lon="6.56651">
        <ele>1087.783985</ele>
        <time>2020-03-27T09:33:41.497Z</time>
      </trkpt>
      <trkpt lat="44.03804" lon="6.56642">
        <ele>1085.810575</ele>
        <time>2020-03-27T09:33:45.046Z</time>
      </trkpt>
      <trkpt lat="44.038" lon="6.56634">
        <ele>1085.056671</ele>
        <time>2020-03-27T09:33:46.380Z</time>
      </trkpt>
      <trkpt lat="44.03802" lon="6.56625">
        <ele>1084.404692</ele>
        <time>2020-03-27T09:33:47.523Z</time>
      </trkpt>
      <trkpt lat="44.0381" lon="6.56623">
        <ele>1083.667612</ele>
        <time>2020-03-27T09:33:48.837Z</time>
      </trkpt>
      <trkpt lat="44.0389" lon="6.56656">
        <ele>1074.201337</ele>
        <time>2020-03-27T09:34:02.963Z</time>
      </trkpt>
      <trkpt lat="44.03902" lon="6.56653">
        <ele>1072.784205</ele>
        <time>2020-03-27T09:34:05.030Z</time>
      </trkpt>
      <trkpt lat="44.03962" lon="6.56608">
        <ele>1065.018027</ele>
        <time>2020-03-27T09:34:16.480Z</time>
      </trkpt>
      <trkpt lat="44.03996" lon="6.56609">
        <ele>1061.183714</ele>
        <time>2020-03-27T09:34:22.212Z</time>
      </trkpt>
      <trkpt lat="44.04075" lon="6.56586">
        <ele>1052.261328</ele>
        <time>2020-03-27T09:34:35.769Z</time>
      </trkpt>
      <trkpt lat="44.04103" lon="6.56595">
        <ele>1049.030612</ele>
        <time>2020-03-27T09:34:40.717Z</time>
      </trkpt>
      <trkpt lat="44.0413" lon="6.56576">
        <ele>1045.678663</ele>
        <time>2020-03-27T09:34:45.876Z</time>
      </trkpt>
      <trkpt lat="44.04174" lon="6.56568">
        <ele>1040.649227</ele>
        <time>2020-03-27T09:34:53.414Z</time>
      </trkpt>
      <trkpt lat="44.04228" lon="6.56582">
        <ele>1034.499762</ele>
        <time>2020-03-27T09:35:02.488Z</time>
      </trkpt>
      <trkpt lat="44.04284" lon="6.56555">
        <ele>1027.855223</ele>
        <time>2020-03-27T09:35:12.387Z</time>
      </trkpt>
      <trkpt lat="44.04296" lon="6.56558">
        <ele>1026.451046</ele>
        <time>2020-03-27T09:35:14.475Z</time>
      </trkpt>
      <trkpt lat="44.04318" lon="6.56554">
        <ele>1024.009554</ele>
        <time>2020-03-27T09:35:18.191Z</time>
      </trkpt>
      <trkpt lat="44.04347" lon="6.56554">
        <ele>1021.628954</ele>
        <time>2020-03-27T09:35:23.302Z</time>
      </trkpt>
      <trkpt lat="44.0435" lon="6.56551">
        <ele>1021.341564</ele>
        <time>2020-03-27T09:35:23.981Z</time>
      </trkpt>
      <trkpt lat="44.04332" lon="6.56521">
        <ele>1019.466216</ele>
        <time>2020-03-27T09:35:26.785Z</time>
      </trkpt>
      <trkpt lat="44.04316" lon="6.56495">
        <ele>1017.834177</ele>
        <time>2020-03-27T09:35:29.161Z</time>
      </trkpt>
      <trkpt lat="44.04302" lon="6.56479">
        <ele>1016.640949</ele>
        <time>2020-03-27T09:35:30.973Z</time>
      </trkpt>
      <trkpt lat="44.04218" lon="6.56451">
        <ele>1010.977531</ele>
        <time>2020-03-27T09:35:40.177Z</time>
      </trkpt>
      <trkpt lat="44.04163" lon="6.56427">
        <ele>1010.409797</ele>
        <time>2020-03-27T09:35:48.140Z</time>
      </trkpt>
      <trkpt lat="44.04153" lon="6.56422">
        <ele>1010.30376</ele>
        <time>2020-03-27T09:35:49.754Z</time>
      </trkpt>
      <trkpt lat="44.04124" lon="6.56414">
        <ele>1010.01877</ele>
        <time>2020-03-27T09:35:54.775Z</time>
      </trkpt>
      <trkpt lat="44.041" lon="6.56414">
        <ele>1009.776653</ele>
        <time>2020-03-27T09:35:58.184Z</time>
      </trkpt>
      <trkpt lat="44.04035" lon="6.56435">
        <ele>1009.149625</ele>
        <time>2020-03-27T09:36:07.697Z</time>
      </trkpt>
      <trkpt lat="44.04003" lon="6.56438">
        <ele>1008.919756</ele>
        <time>2020-03-27T09:36:12.190Z</time>
      </trkpt>
      <trkpt lat="44.03987" lon="6.56436">
        <ele>1008.795922</ele>
        <time>2020-03-27T09:36:15.277Z</time>
      </trkpt>
      <trkpt lat="44.03981" lon="6.56435">
        <ele>1008.753777</ele>
        <time>2020-03-27T09:36:16.155Z</time>
      </trkpt>
      <trkpt lat="44.03975" lon="6.56433">
        <ele>1008.707137</ele>
        <time>2020-03-27T09:36:16.860Z</time>
      </trkpt>
      <trkpt lat="44.03949" lon="6.5642">
        <ele>1008.504191</ele>
        <time>2020-03-27T09:36:21.359Z</time>
      </trkpt>
      <trkpt lat="44.03911" lon="6.56387">
        <ele>1008.181814</ele>
        <time>2020-03-27T09:36:27.181Z</time>
      </trkpt>
      <trkpt lat="44.03877" lon="6.56374">
        <ele>1007.919812</ele>
        <time>2020-03-27T09:36:32.060Z</time>
      </trkpt>
      <trkpt lat="44.03794" lon="6.56369">
        <ele>1006.237715</ele>
        <time>2020-03-27T09:36:42.978Z</time>
      </trkpt>
      <trkpt lat="44.03732" lon="6.56376">
        <ele>1004.981953</ele>
        <time>2020-03-27T09:36:50.223Z</time>
      </trkpt>
      <trkpt lat="44.03714" lon="6.56362">
        <ele>1004.564776</ele>
        <time>2020-03-27T09:36:52.658Z</time>
      </trkpt>
      <trkpt lat="44.03709" lon="6.56351">
        <ele>1004.368415</ele>
        <time>2020-03-27T09:36:53.705Z</time>
      </trkpt>
      <trkpt lat="44.03708" lon="6.56337">
        <ele>1004.154755</ele>
        <time>2020-03-27T09:36:54.961Z</time>
      </trkpt>
      <trkpt lat="44.03714" lon="6.56311">
        <ele>1003.716763</ele>
        <time>2020-03-27T09:36:57.362Z</time>
      </trkpt>
      <trkpt lat="44.03715" lon="6.56308">
        <ele>1003.654836</ele>
        <time>2020-03-27T09:36:57.616Z</time>
      </trkpt>
      <trkpt lat="44.03736" lon="6.56249">
        <ele>1002.592399</ele>
        <time>2020-03-27T09:37:03.338Z</time>
      </trkpt>
      <trkpt lat="44.03739" lon="6.56233">
        <ele>1002.319876</ele>
        <time>2020-03-27T09:37:04.750Z</time>
      </trkpt>
      <trkpt lat="44.03727" lon="6.56217">
        <ele>1001.962106</ele>
        <time>2020-03-27T09:37:06.633Z</time>
      </trkpt>
      <trkpt lat="44.03693" lon="6.56211">
        <ele>1001.19092</ele>
        <time>2020-03-27T09:37:10.761Z</time>
      </trkpt>
      <trkpt lat="44.03655" lon="6.56186">
        <ele>1000.236582</ele>
        <time>2020-03-27T09:37:16.023Z</time>
      </trkpt>
      <trkpt lat="44.03618" lon="6.56116">
        <ele>999.923369</ele>
        <time>2020-03-27T09:37:24.802Z</time>
      </trkpt>
      <trkpt lat="44.03595" lon="6.56089">
        <ele>999.80199</ele>
        <time>2020-03-27T09:37:29.948Z</time>
      </trkpt>
      <trkpt lat="44.03581" lon="6.5608">
        <ele>999.739237</ele>
        <time>2020-03-27T09:37:32.505Z</time>
      </trkpt>
      <trkpt lat="44.03534" lon="6.56071">
        <ele>999.545139</ele>
        <time>2020-03-27T09:37:39.838Z</time>
      </trkpt>
      <trkpt lat="44.03486" lon="6.56054">
        <ele>999.273679</ele>
        <time>2020-03-27T09:37:47.031Z</time>
      </trkpt>
      <trkpt lat="44.03404" lon="6.56007">
        <ele>998.622732</ele>
        <time>2020-03-27T09:37:59.307Z</time>
      </trkpt>
      <trkpt lat="44.03334" lon="6.55981">
        <ele>998.120087</ele>
        <time>2020-03-27T09:38:09.069Z</time>
      </trkpt>
      <trkpt lat="44.03287" lon="6.55953">
        <ele>998.082453</ele>
        <time>2020-03-27T09:38:16.150Z</time>
      </trkpt>
      <trkpt lat="44.03261" lon="6.55924">
        <ele>998.057239</ele>
        <time>2020-03-27T09:38:21.254Z</time>
      </trkpt>
      <trkpt lat="44.03153" lon="6.55758">
        <ele>997.642722</ele>
        <time>2020-03-27T09:38:48.702Z</time>
      </trkpt>
      <trkpt lat="44.03098" lon="6.55695">
        <ele>997.28541</ele>
        <time>2020-03-27T09:38:58.898Z</time>
      </trkpt>
      <trkpt lat="44.03027" lon="6.55629">
        <ele>996.24308</ele>
        <time>2020-03-27T09:39:09.554Z</time>
      </trkpt>
      <trkpt lat="44.02953" lon="6.55544">
        <ele>994.494334</ele>
        <time>2020-03-27T09:39:21.112Z</time>
      </trkpt>
      <trkpt lat="44.02926" lon="6.55523">
        <ele>993.922968</ele>
        <time>2020-03-27T09:39:25.085Z</time>
      </trkpt>
      <trkpt lat="44.02884" lon="6.55504">
        <ele>993.947115</ele>
        <time>2020-03-27T09:39:31.075Z</time>
      </trkpt>
      <trkpt lat="44.02792" lon="6.55422">
        <ele>994.399491</ele>
        <time>2020-03-27T09:39:50.229Z</time>
      </trkpt>
      <trkpt lat="44.02742" lon="6.55389">
        <ele>994.916217</ele>
        <time>2020-03-27T09:40:03.146Z</time>
      </trkpt>
      <trkpt lat="44.02691" lon="6.55386">
        <ele>995.840779</ele>
        <time>2020-03-27T09:40:15.834Z</time>
      </trkpt>
      <trkpt lat="44.02609" lon="6.55413">
        <ele>997.325901</ele>
        <time>2020-03-27T09:40:35.026Z</time>
      </trkpt>
      <trkpt lat="44.02545" lon="6.55412">
        <ele>997.689734</ele>
        <time>2020-03-27T09:40:48.473Z</time>
      </trkpt>
      <trkpt lat="44.0239" lon="6.5543">
        <ele>997.170197</ele>
        <time>2020-03-27T09:41:10.853Z</time>
      </trkpt>
      <trkpt lat="44.02306" lon="6.55467">
        <ele>995.363363</ele>
        <time>2020-03-27T09:41:21.166Z</time>
      </trkpt>
      <trkpt lat="44.02236" lon="6.55531">
        <ele>994.021371</ele>
        <time>2020-03-27T09:41:31.155Z</time>
      </trkpt>
      <trkpt lat="44.0222" lon="6.55559">
        <ele>994.591783</ele>
        <time>2020-03-27T09:41:35.343Z</time>
      </trkpt>
      <trkpt lat="44.02207" lon="6.55572">
        <ele>994.947503</ele>
        <time>2020-03-27T09:41:37.251Z</time>
      </trkpt>
      <trkpt lat="44.02201" lon="6.55565">
        <ele>995.119533</ele>
        <time>2020-03-27T09:41:39.943Z</time>
      </trkpt>
      <trkpt lat="44.02167" lon="6.55561">
        <ele>995.860626</ele>
        <time>2020-03-27T09:41:46.323Z</time>
      </trkpt>
      <trkpt lat="44.02159" lon="6.5555">
        <ele>996.113279</ele>
        <time>2020-03-27T09:41:49.719Z</time>
      </trkpt>
      <trkpt lat="44.02186" lon="6.55403">
        <ele>1000.377768</ele>
        <time>2020-03-27T09:42:27.751Z</time>
      </trkpt>
      <trkpt lat="44.02218" lon="6.55313">
        <ele>1005.932188</ele>
        <time>2020-03-27T09:43:02.455Z</time>
      </trkpt>
      <trkpt lat="44.02246" lon="6.552">
        <ele>1012.809654</ele>
        <time>2020-03-27T09:43:46.639Z</time>
      </trkpt>
      <trkpt lat="44.02268" lon="6.55167">
        <ele>1015.787998</ele>
        <time>2020-03-27T09:44:03.364Z</time>
      </trkpt>
      <trkpt lat="44.0231" lon="6.5512">
        <ele>1020.797668</ele>
        <time>2020-03-27T09:44:31.557Z</time>
      </trkpt>
      <trkpt lat="44.02353" lon="6.55024">
        <ele>1028.291163</ele>
        <time>2020-03-27T09:45:14.375Z</time>
      </trkpt>
      <trkpt lat="44.02374" lon="6.55004">
        <ele>1030.719398</ele>
        <time>2020-03-27T09:45:28.065Z</time>
      </trkpt>
      <trkpt lat="44.02455" lon="6.54954">
        <ele>1039.138211</ele>
        <time>2020-03-27T09:46:15.493Z</time>
      </trkpt>
      <trkpt lat="44.02518" lon="6.54939">
        <ele>1045.252673</ele>
        <time>2020-03-27T09:46:50.226Z</time>
      </trkpt>
      <trkpt lat="44.02545" lon="6.54916">
        <ele>1048.090775</ele>
        <time>2020-03-27T09:47:07.151Z</time>
      </trkpt>
      <trkpt lat="44.02581" lon="6.548">
        <ele>1056.232261</ele>
        <time>2020-03-27T09:47:54.307Z</time>
      </trkpt>
      <trkpt lat="44.02622" lon="6.54767">
        <ele>1060.389253</ele>
        <time>2020-03-27T09:48:17.633Z</time>
      </trkpt>
      <trkpt lat="44.0266" lon="6.54757">
        <ele>1063.400355</ele>
        <time>2020-03-27T09:48:36.279Z</time>
      </trkpt>
      <trkpt lat="44.02709" lon="6.54713">
        <ele>1067.577517</ele>
        <time>2020-03-27T09:49:02.645Z</time>
      </trkpt>
      <trkpt lat="44.0274" lon="6.54696">
        <ele>1069.967856</ele>
        <time>2020-03-27T09:49:16.946Z</time>
      </trkpt>
      <trkpt lat="44.02757" lon="6.54683">
        <ele>1071.349571</ele>
        <time>2020-03-27T09:49:25.062Z</time>
      </trkpt>
      <trkpt lat="44.02812" lon="6.54617">
        <ele>1076.153887</ele>
        <time>2020-03-27T09:49:54.881Z</time>
      </trkpt>
      <trkpt lat="44.03024" lon="6.54515">
        <ele>1089.239092</ele>
        <time>2020-03-27T09:51:19.822Z</time>
      </trkpt>
      <trkpt lat="44.03061" lon="6.5445">
        <ele>1092.747511</ele>
        <time>2020-03-27T09:51:42.599Z</time>
      </trkpt>
      <trkpt lat="44.03126" lon="6.54432">
        <ele>1096.912029</ele>
        <time>2020-03-27T09:52:09.679Z</time>
      </trkpt>
      <trkpt lat="44.0313" lon="6.54411">
        <ele>1098.038033</ele>
        <time>2020-03-27T09:52:16.251Z</time>
      </trkpt>
      <trkpt lat="44.03104" lon="6.54349">
        <ele>1101.783036</ele>
        <time>2020-03-27T09:52:37.926Z</time>
      </trkpt>
      <trkpt lat="44.03104" lon="6.54327">
        <ele>1102.924042</ele>
        <time>2020-03-27T09:52:45.056Z</time>
      </trkpt>
      <trkpt lat="44.03124" lon="6.54289">
        <ele>1105.375977</ele>
        <time>2020-03-27T09:53:00.063Z</time>
      </trkpt>
      <trkpt lat="44.03145" lon="6.54222">
        <ele>1109.442101</ele>
        <time>2020-03-27T09:53:24.948Z</time>
      </trkpt>
      <trkpt lat="44.03241" lon="6.54155">
        <ele>1119.436154</ele>
        <time>2020-03-27T09:54:21.462Z</time>
      </trkpt>
      <trkpt lat="44.03296" lon="6.54039">
        <ele>1129.430538</ele>
        <time>2020-03-27T09:55:16.440Z</time>
      </trkpt>
      <trkpt lat="44.03391" lon="6.53986">
        <ele>1140.688255</ele>
        <time>2020-03-27T09:56:17.941Z</time>
      </trkpt>
      <trkpt lat="44.03408" lon="6.53953">
        <ele>1143.907103</ele>
        <time>2020-03-27T09:56:35.622Z</time>
      </trkpt>
      <trkpt lat="44.03423" lon="6.53906">
        <ele>1148.936181</ele>
        <time>2020-03-27T09:56:59.198Z</time>
      </trkpt>
      <trkpt lat="44.03422" lon="6.53895">
        <ele>1150.041048</ele>
        <time>2020-03-27T09:57:04.227Z</time>
      </trkpt>
      <trkpt lat="44.03402" lon="6.53856">
        <ele>1155.075523</ele>
        <time>2020-03-27T09:57:27.763Z</time>
      </trkpt>
      <trkpt lat="44.03398" lon="6.53809">
        <ele>1159.950766</ele>
        <time>2020-03-27T09:57:52.174Z</time>
      </trkpt>
      <trkpt lat="44.03401" lon="6.5375">
        <ele>1166.090205</ele>
        <time>2020-03-27T09:58:25.399Z</time>
      </trkpt>
      <trkpt lat="44.03453" lon="6.53659">
        <ele>1179.582485</ele>
        <time>2020-03-27T09:59:36.339Z</time>
      </trkpt>
      <trkpt lat="44.03478" lon="6.53583">
        <ele>1189.792945</ele>
        <time>2020-03-27T10:00:28.118Z</time>
      </trkpt>
      <trkpt lat="44.03505" lon="6.53536">
        <ele>1197.201502</ele>
        <time>2020-03-27T10:01:05.517Z</time>
      </trkpt>
      <trkpt lat="44.03513" lon="6.5351">
        <ele>1200.680102</ele>
        <time>2020-03-27T10:01:22.550Z</time>
      </trkpt>
      <trkpt lat="44.03512" lon="6.53478">
        <ele>1203.959928</ele>
        <time>2020-03-27T10:01:40.882Z</time>
      </trkpt>
      <trkpt lat="44.03518" lon="6.53461">
        <ele>1205.766092</ele>
        <time>2020-03-27T10:01:51.598Z</time>
      </trkpt>
      <trkpt lat="44.03541" lon="6.53429">
        <ele>1210.043074</ele>
        <time>2020-03-27T10:02:15.741Z</time>
      </trkpt>
      <trkpt lat="44.03613" lon="6.53364">
        <ele>1221.41819</ele>
        <time>2020-03-27T10:03:11.789Z</time>
      </trkpt>
      <trkpt lat="44.03633" lon="6.53323">
        <ele>1226.030487</ele>
        <time>2020-03-27T10:03:32.543Z</time>
      </trkpt>
      <trkpt lat="44.03665" lon="6.53222">
        <ele>1234.410698</ele>
        <time>2020-03-27T10:04:16.924Z</time>
      </trkpt>
      <trkpt lat="44.03691" lon="6.53163">
        <ele>1239.627299</ele>
        <time>2020-03-27T10:04:43.931Z</time>
      </trkpt>
      <trkpt lat="44.03722" lon="6.53135">
        <ele>1243.520674</ele>
        <time>2020-03-27T10:05:04.087Z</time>
      </trkpt>
      <trkpt lat="44.03754" lon="6.5312">
        <ele>1247.654607</ele>
        <time>2020-03-27T10:05:25.816Z</time>
      </trkpt>
      <trkpt lat="44.03822" lon="6.53054">
        <ele>1258.477049</ele>
        <time>2020-03-27T10:06:22.671Z</time>
      </trkpt>
      <trkpt lat="44.03863" lon="6.53053">
        <ele>1263.709418</ele>
        <time>2020-03-27T10:06:50.293Z</time>
      </trkpt>
      <trkpt lat="44.03881" lon="6.53061">
        <ele>1266.123794</ele>
        <time>2020-03-27T10:07:04.562Z</time>
      </trkpt>
      <trkpt lat="44.03887" lon="6.53063">
        <ele>1266.975315</ele>
        <time>2020-03-27T10:07:09.224Z</time>
      </trkpt>
      <trkpt lat="44.03895" lon="6.5306">
        <ele>1267.990281</ele>
        <time>2020-03-27T10:07:13.601Z</time>
      </trkpt>
      <trkpt lat="44.03906" lon="6.53057">
        <ele>1269.683392</ele>
        <time>2020-03-27T10:07:22.203Z</time>
      </trkpt>
      <trkpt lat="44.03926" lon="6.53043">
        <ele>1272.790478</ele>
        <time>2020-03-27T10:07:38.143Z</time>
      </trkpt>
      <trkpt lat="44.03958" lon="6.53018">
        <ele>1277.818615</ele>
        <time>2020-03-27T10:08:04.334Z</time>
      </trkpt>
      <trkpt lat="44.04007" lon="6.52947">
        <ele>1287.781642</ele>
        <time>2020-03-27T10:08:57.452Z</time>
      </trkpt>
      <trkpt lat="44.04023" lon="6.52899">
        <ele>1293.064748</ele>
        <time>2020-03-27T10:09:22.605Z</time>
      </trkpt>
      <trkpt lat="44.04051" lon="6.52858">
        <ele>1297.898273</ele>
        <time>2020-03-27T10:09:51.252Z</time>
      </trkpt>
      <trkpt lat="44.04134" lon="6.52763">
        <ele>1310.476437</ele>
        <time>2020-03-27T10:10:58.794Z</time>
      </trkpt>
      <trkpt lat="44.0414" lon="6.52747">
        <ele>1312.056345</ele>
        <time>2020-03-27T10:11:08.328Z</time>
      </trkpt>
      <trkpt lat="44.04143" lon="6.52736">
        <ele>1313.054595</ele>
        <time>2020-03-27T10:11:12.204Z</time>
      </trkpt>
      <trkpt lat="44.04156" lon="6.52714">
        <ele>1314.877912</ele>
        <time>2020-03-27T10:11:22.627Z</time>
      </trkpt>
      <trkpt lat="44.04185" lon="6.52681">
        <ele>1317.236853</ele>
        <time>2020-03-27T10:11:40.595Z</time>
      </trkpt>
      <trkpt lat="44.04211" lon="6.52625">
        <ele>1320.257118</ele>
        <time>2020-03-27T10:12:01.165Z</time>
      </trkpt>
      <trkpt lat="44.04236" lon="6.5259">
        <ele>1322.446959</ele>
        <time>2020-03-27T10:12:14.747Z</time>
      </trkpt>
      <trkpt lat="44.04254" lon="6.5256">
        <ele>1324.230242</ele>
        <time>2020-03-27T10:12:22.298Z</time>
      </trkpt>
      <trkpt lat="44.04264" lon="6.52554">
        <ele>1324.913779</ele>
        <time>2020-03-27T10:12:25.062Z</time>
      </trkpt>
      <trkpt lat="44.04315" lon="6.52541">
        <ele>1327.281643</ele>
        <time>2020-03-27T10:12:39.218Z</time>
      </trkpt>
      <trkpt lat="44.04351" lon="6.52542">
        <ele>1328.813339</ele>
        <time>2020-03-27T10:12:50.347Z</time>
      </trkpt>
      <trkpt lat="44.04355" lon="6.52528">
        <ele>1329.288668</ele>
        <time>2020-03-27T10:12:54.157Z</time>
      </trkpt>
      <trkpt lat="44.04351" lon="6.52523">
        <ele>1329.528848</ele>
        <time>2020-03-27T10:12:56.006Z</time>
      </trkpt>
      <trkpt lat="44.04331" lon="6.52523">
        <ele>1330.363549</ele>
        <time>2020-03-27T10:13:02.242Z</time>
      </trkpt>
      <trkpt lat="44.04313" lon="6.52511">
        <ele>1331.22098</ele>
        <time>2020-03-27T10:13:09.144Z</time>
      </trkpt>
      <trkpt lat="44.04304" lon="6.5249">
        <ele>1331.956886</ele>
        <time>2020-03-27T10:13:15.235Z</time>
      </trkpt>
      <trkpt lat="44.04308" lon="6.52459">
        <ele>1332.907858</ele>
        <time>2020-03-27T10:13:23.529Z</time>
      </trkpt>
      <trkpt lat="44.04328" lon="6.52417">
        <ele>1334.568493</ele>
        <time>2020-03-27T10:13:37.153Z</time>
      </trkpt>
      <trkpt lat="44.0444" lon="6.52296">
        <ele>1341.194605</ele>
        <time>2020-03-27T10:14:26.472Z</time>
      </trkpt>
      <trkpt lat="44.04459" lon="6.52249">
        <ele>1342.960095</ele>
        <time>2020-03-27T10:14:35.308Z</time>
      </trkpt>
      <trkpt lat="44.04469" lon="6.52252">
        <ele>1343.445478</ele>
        <time>2020-03-27T10:14:38.869Z</time>
      </trkpt>
      <trkpt lat="44.0447" lon="6.52262">
        <ele>1343.768478</ele>
        <time>2020-03-27T10:14:41.118Z</time>
      </trkpt>
      <trkpt lat="44.04436" lon="6.52348">
        <ele>1347.034324</ele>
        <time>2020-03-27T10:15:04.749Z</time>
      </trkpt>
      <trkpt lat="44.04396" lon="6.52386">
        <ele>1349.253554</ele>
        <time>2020-03-27T10:15:21.077Z</time>
      </trkpt>
      <trkpt lat="44.04395" lon="6.52395">
        <ele>1349.552222</ele>
        <time>2020-03-27T10:15:23.049Z</time>
      </trkpt>
      <trkpt lat="44.04405" lon="6.52394">
        <ele>1350.259902</ele>
        <time>2020-03-27T10:15:28.698Z</time>
      </trkpt>
      <trkpt lat="44.04416" lon="6.52396">
        <ele>1351.123713</ele>
        <time>2020-03-27T10:15:33.252Z</time>
      </trkpt>
      <trkpt lat="44.04431" lon="6.52378">
        <ele>1352.78768</ele>
        <time>2020-03-27T10:15:40.846Z</time>
      </trkpt>
      <trkpt lat="44.04439" lon="6.52372">
        <ele>1353.549276</ele>
        <time>2020-03-27T10:15:45.872Z</time>
      </trkpt>
      <trkpt lat="44.04452" lon="6.52361">
        <ele>1354.761942</ele>
        <time>2020-03-27T10:15:51.670Z</time>
      </trkpt>
      <trkpt lat="44.04484" lon="6.52336">
        <ele>1357.813153</ele>
        <time>2020-03-27T10:16:10.620Z</time>
      </trkpt>
      <trkpt lat="44.045" lon="6.52319">
        <ele>1359.489783</ele>
        <time>2020-03-27T10:16:21.648Z</time>
      </trkpt>
      <trkpt lat="44.04521" lon="6.52308">
        <ele>1361.40049</ele>
        <time>2020-03-27T10:16:33.710Z</time>
      </trkpt>
      <trkpt lat="44.0454" lon="6.52291">
        <ele>1363.232918</ele>
        <time>2020-03-27T10:16:48.093Z</time>
      </trkpt>
      <trkpt lat="44.04571" lon="6.52271">
        <ele>1365.910402</ele>
        <time>2020-03-27T10:17:10.360Z</time>
      </trkpt>
      <trkpt lat="44.0459" lon="6.52263">
        <ele>1367.329705</ele>
        <time>2020-03-27T10:17:21.815Z</time>
      </trkpt>
      <trkpt lat="44.04605" lon="6.52255">
        <ele>1368.518584</ele>
        <time>2020-03-27T10:17:31.223Z</time>
      </trkpt>
      <trkpt lat="44.04612" lon="6.52252">
        <ele>1369.03304</ele>
        <time>2020-03-27T10:17:35.612Z</time>
      </trkpt>
      <trkpt lat="44.04646" lon="6.52234">
        <ele>1371.671298</ele>
        <time>2020-03-27T10:17:56.231Z</time>
      </trkpt>
      <trkpt lat="44.04735" lon="6.52167">
        <ele>1378.493784</ele>
        <time>2020-03-27T10:18:45.651Z</time>
      </trkpt>
      <trkpt lat="44.04907" lon="6.52053">
        <ele>1386.449595</ele>
        <time>2020-03-27T10:20:03.416Z</time>
      </trkpt>
      <trkpt lat="44.0499" lon="6.52003">
        <ele>1390.044981</ele>
        <time>2020-03-27T10:20:41.015Z</time>
      </trkpt>
      <trkpt lat="44.05067" lon="6.51968">
        <ele>1393.238215</ele>
        <time>2020-03-27T10:21:14.645Z</time>
      </trkpt>
      <trkpt lat="44.05141" lon="6.51911">
        <ele>1396.624989</ele>
        <time>2020-03-27T10:21:48.878Z</time>
      </trkpt>
      <trkpt lat="44.0515" lon="6.51913">
        <ele>1397.019257</ele>
        <time>2020-03-27T10:21:53.109Z</time>
      </trkpt>
      <trkpt lat="44.05213" lon="6.51878">
        <ele>1399.733537</ele>
        <time>2020-03-27T10:22:20.874Z</time>
      </trkpt>
      <trkpt lat="44.05248" lon="6.51865">
        <ele>1401.638629</ele>
        <time>2020-03-27T10:22:36.411Z</time>
      </trkpt>
      <trkpt lat="44.05279" lon="6.51867">
        <ele>1403.273528</ele>
        <time>2020-03-27T10:22:50.507Z</time>
      </trkpt>
      <trkpt lat="44.05289" lon="6.51842">
        <ele>1404.39337</ele>
        <time>2020-03-27T10:23:00.896Z</time>
      </trkpt>
      <trkpt lat="44.05364" lon="6.51803">
        <ele>1408.605673</ele>
        <time>2020-03-27T10:23:38.119Z</time>
      </trkpt>
      <trkpt lat="44.05392" lon="6.51792">
        <ele>1410.581626</ele>
        <time>2020-03-27T10:23:52.672Z</time>
      </trkpt>
      <trkpt lat="44.05421" lon="6.51787">
        <ele>1412.808269</ele>
        <time>2020-03-27T10:24:08.389Z</time>
      </trkpt>
      <trkpt lat="44.05516" lon="6.51703">
        <ele>1421.522386</ele>
        <time>2020-03-27T10:25:13.394Z</time>
      </trkpt>
      <trkpt lat="44.05537" lon="6.51699">
        <ele>1423.184002</ele>
        <time>2020-03-27T10:25:26.114Z</time>
      </trkpt>
      <trkpt lat="44.05578" lon="6.51663">
        <ele>1427.822308</ele>
        <time>2020-03-27T10:25:56.254Z</time>
      </trkpt>
      <trkpt lat="44.05601" lon="6.51664">
        <ele>1430.063524</ele>
        <time>2020-03-27T10:26:11.125Z</time>
      </trkpt>
      <trkpt lat="44.05604" lon="6.51655">
        <ele>1430.791651</ele>
        <time>2020-03-27T10:26:15.827Z</time>
      </trkpt>
      <trkpt lat="44.05593" lon="6.51638">
        <ele>1432.394543</ele>
        <time>2020-03-27T10:26:27.660Z</time>
      </trkpt>
      <trkpt lat="44.05573" lon="6.51622">
        <ele>1434.52814</ele>
        <time>2020-03-27T10:26:42.066Z</time>
      </trkpt>
      <trkpt lat="44.05565" lon="6.51616">
        <ele>1435.436277</ele>
        <time>2020-03-27T10:26:49.211Z</time>
      </trkpt>
      <trkpt lat="44.05517" lon="6.51571">
        <ele>1440.952629</ele>
        <time>2020-03-27T10:27:25.681Z</time>
      </trkpt>
      <trkpt lat="44.05516" lon="6.5156">
        <ele>1441.641472</ele>
        <time>2020-03-27T10:27:31.914Z</time>
      </trkpt>
      <trkpt lat="44.05672" lon="6.51536">
        <ele>1455.664908</ele>
        <time>2020-03-27T10:29:07.467Z</time>
      </trkpt>
      <trkpt lat="44.05709" lon="6.51536">
        <ele>1458.544748</ele>
        <time>2020-03-27T10:29:28.239Z</time>
      </trkpt>
      <trkpt lat="44.05772" lon="6.51551">
        <ele>1463.420276</ele>
        <time>2020-03-27T10:30:05.275Z</time>
      </trkpt>
      <trkpt lat="44.05786" lon="6.51552">
        <ele>1464.454145</ele>
        <time>2020-03-27T10:30:12.329Z</time>
      </trkpt>
      <trkpt lat="44.05786" lon="6.51541">
        <ele>1465.017536</ele>
        <time>2020-03-27T10:30:16.194Z</time>
      </trkpt>
      <trkpt lat="44.05775" lon="6.51487">
        <ele>1468.115665</ele>
        <time>2020-03-27T10:30:39.402Z</time>
      </trkpt>
      <trkpt lat="44.05767" lon="6.51445">
        <ele>1470.271296</ele>
        <time>2020-03-27T10:30:55.465Z</time>
      </trkpt>
      <trkpt lat="44.05757" lon="6.51433">
        <ele>1470.84814</ele>
        <time>2020-03-27T10:31:02.997Z</time>
      </trkpt>
      <trkpt lat="44.05702" lon="6.51394">
        <ele>1473.637935</ele>
        <time>2020-03-27T10:31:31.672Z</time>
      </trkpt>
      <trkpt lat="44.05691" lon="6.51378">
        <ele>1474.370238</ele>
        <time>2020-03-27T10:31:39.905Z</time>
      </trkpt>
      <trkpt lat="44.05649" lon="6.51315">
        <ele>1477.17119</ele>
        <time>2020-03-27T10:32:03.953Z</time>
      </trkpt>
      <trkpt lat="44.05619" lon="6.51257">
        <ele>1478.379161</ele>
        <time>2020-03-27T10:32:20.722Z</time>
      </trkpt>
      <trkpt lat="44.05544" lon="6.51212">
        <ele>1479.136696</ele>
        <time>2020-03-27T10:32:44.359Z</time>
      </trkpt>
      <trkpt lat="44.05516" lon="6.51213">
        <ele>1479.38867</ele>
        <time>2020-03-27T10:32:51.645Z</time>
      </trkpt>
      <trkpt lat="44.05386" lon="6.51163">
        <ele>1479.872404</ele>
        <time>2020-03-27T10:33:26.937Z</time>
      </trkpt>
      <trkpt lat="44.05292" lon="6.51143">
        <ele>1479.993271</ele>
        <time>2020-03-27T10:33:51.118Z</time>
      </trkpt>
      <trkpt lat="44.05243" lon="6.5116">
        <ele>1480.088771</ele>
        <time>2020-03-27T10:34:04.063Z</time>
      </trkpt>
      <trkpt lat="44.05119" lon="6.51184">
        <ele>1480.414524</ele>
        <time>2020-03-27T10:34:36.685Z</time>
      </trkpt>
      <trkpt lat="44.05063" lon="6.51182">
        <ele>1481.369373</ele>
        <time>2020-03-27T10:34:52.490Z</time>
      </trkpt>
      <trkpt lat="44.05029" lon="6.51196">
        <ele>1481.973089</ele>
        <time>2020-03-27T10:35:03.446Z</time>
      </trkpt>
      <trkpt lat="44.04926" lon="6.51151">
        <ele>1484.374918</ele>
        <time>2020-03-27T10:35:41.455Z</time>
      </trkpt>
      <trkpt lat="44.04814" lon="6.51174">
        <ele>1488.909922</ele>
        <time>2020-03-27T10:36:29.785Z</time>
      </trkpt>
      <trkpt lat="44.04796" lon="6.51161">
        <ele>1489.721027</ele>
        <time>2020-03-27T10:36:38.971Z</time>
      </trkpt>
      <trkpt lat="44.04683" lon="6.5117">
        <ele>1493.888317</ele>
        <time>2020-03-27T10:37:28.434Z</time>
      </trkpt>
      <trkpt lat="44.04644" lon="6.51187">
        <ele>1495.365533</ele>
        <time>2020-03-27T10:37:44.350Z</time>
      </trkpt>
      <trkpt lat="44.04576" lon="6.51166">
        <ele>1497.284818</ele>
        <time>2020-03-27T10:38:08.395Z</time>
      </trkpt>
      <trkpt lat="44.04559" lon="6.51174">
        <ele>1497.493752</ele>
        <time>2020-03-27T10:38:14.026Z</time>
      </trkpt>
      <trkpt lat="44.04528" lon="6.51204">
        <ele>1497.930447</ele>
        <time>2020-03-27T10:38:25.263Z</time>
      </trkpt>
      <trkpt lat="44.04423" lon="6.51284">
        <ele>1499.575183</ele>
        <time>2020-03-27T10:38:58.388Z</time>
      </trkpt>
      <trkpt lat="44.04411" lon="6.51304">
        <ele>1500.05421</ele>
        <time>2020-03-27T10:39:03.968Z</time>
      </trkpt>
      <trkpt lat="44.04398" lon="6.5134">
        <ele>1500.796011</ele>
        <time>2020-03-27T10:39:13.083Z</time>
      </trkpt>
      <trkpt lat="44.0438" lon="6.51369">
        <ele>1501.498882</ele>
        <time>2020-03-27T10:39:22.160Z</time>
      </trkpt>
      <trkpt lat="44.04364" lon="6.51384">
        <ele>1501.987303</ele>
        <time>2020-03-27T10:39:28.941Z</time>
      </trkpt>
      <trkpt lat="44.04243" lon="6.51433">
        <ele>1507.846277</ele>
        <time>2020-03-27T10:40:23.213Z</time>
      </trkpt>
      <trkpt lat="44.04142" lon="6.51436">
        <ele>1514.818943</ele>
        <time>2020-03-27T10:41:17.339Z</time>
      </trkpt>
      <trkpt lat="44.04116" lon="6.51418">
        <ele>1517.187467</ele>
        <time>2020-03-27T10:41:38.434Z</time>
      </trkpt>
      <trkpt lat="44.04067" lon="6.51365">
        <ele>1523.663973</ele>
        <time>2020-03-27T10:42:22.153Z</time>
      </trkpt>
      <trkpt lat="44.04006" lon="6.51383">
        <ele>1530.130109</ele>
        <time>2020-03-27T10:43:02.969Z</time>
      </trkpt>
      <trkpt lat="44.04001" lon="6.5138">
        <ele>1530.625845</ele>
        <time>2020-03-27T10:43:08.068Z</time>
      </trkpt>
      <trkpt lat="44.03994" lon="6.51369">
        <ele>1531.777685</ele>
        <time>2020-03-27T10:43:16.408Z</time>
      </trkpt>
      <trkpt lat="44.0399" lon="6.51356">
        <ele>1532.824255</ele>
        <time>2020-03-27T10:43:21.935Z</time>
      </trkpt>
      <trkpt lat="44.03989" lon="6.51301">
        <ele>1536.464836</ele>
        <time>2020-03-27T10:43:48.003Z</time>
      </trkpt>
      <trkpt lat="44.03963" lon="6.51212">
        <ele>1542.023638</ele>
        <time>2020-03-27T10:44:32.355Z</time>
      </trkpt>
      <trkpt lat="44.03909" lon="6.51169">
        <ele>1547.066034</ele>
        <time>2020-03-27T10:45:06.660Z</time>
      </trkpt>
      <trkpt lat="44.03886" lon="6.51176">
        <ele>1548.910997</ele>
        <time>2020-03-27T10:45:17.018Z</time>
      </trkpt>
      <trkpt lat="44.03827" lon="6.51256">
        <ele>1553.257029</ele>
        <time>2020-03-27T10:45:53.279Z</time>
      </trkpt>
      <trkpt lat="44.03787" lon="6.51358">
        <ele>1557.496963</ele>
        <time>2020-03-27T10:46:29.431Z</time>
      </trkpt>
      <trkpt lat="44.03783" lon="6.51388">
        <ele>1558.746026</ele>
        <time>2020-03-27T10:46:40.139Z</time>
      </trkpt>
      <trkpt lat="44.03779" lon="6.51408">
        <ele>1559.957871</ele>
        <time>2020-03-27T10:46:47.994Z</time>
      </trkpt>
      <trkpt lat="44.03773" lon="6.51435">
        <ele>1561.649372</ele>
        <time>2020-03-27T10:46:58.286Z</time>
      </trkpt>
      <trkpt lat="44.03757" lon="6.51475">
        <ele>1564.405784</ele>
        <time>2020-03-27T10:47:16.426Z</time>
      </trkpt>
      <trkpt lat="44.03737" lon="6.51516">
        <ele>1567.359197</ele>
        <time>2020-03-27T10:47:37.284Z</time>
      </trkpt>
      <trkpt lat="44.03715" lon="6.51547">
        <ele>1569.973969</ele>
        <time>2020-03-27T10:47:57.321Z</time>
      </trkpt>
      <trkpt lat="44.03654" lon="6.51585">
        <ele>1576.150505</ele>
        <time>2020-03-27T10:48:42.474Z</time>
      </trkpt>
      <trkpt lat="44.03622" lon="6.51648">
        <ele>1582.010794</ele>
        <time>2020-03-27T10:49:21.963Z</time>
      </trkpt>
      <trkpt lat="44.03594" lon="6.51668">
        <ele>1585.321839</ele>
        <time>2020-03-27T10:49:44.536Z</time>
      </trkpt>
      <trkpt lat="44.03544" lon="6.51687">
        <ele>1590.824836</ele>
        <time>2020-03-27T10:50:18.905Z</time>
      </trkpt>
      <trkpt lat="44.03496" lon="6.51696">
        <ele>1595.067828</ele>
        <time>2020-03-27T10:50:49.424Z</time>
      </trkpt>
      <trkpt lat="44.03458" lon="6.51721">
        <ele>1598.473468</ele>
        <time>2020-03-27T10:51:15.279Z</time>
      </trkpt>
      <trkpt lat="44.03417" lon="6.51722">
        <ele>1601.718681</ele>
        <time>2020-03-27T10:51:38.505Z</time>
      </trkpt>
      <trkpt lat="44.0339" lon="6.51735">
        <ele>1603.942215</ele>
        <time>2020-03-27T10:51:53.740Z</time>
      </trkpt>
      <trkpt lat="44.03366" lon="6.51761">
        <ele>1606.392515</ele>
        <time>2020-03-27T10:52:09.868Z</time>
      </trkpt>
      <trkpt lat="44.03354" lon="6.51783">
        <ele>1607.606212</ele>
        <time>2020-03-27T10:52:20.212Z</time>
      </trkpt>
      <trkpt lat="44.03225" lon="6.51907">
        <ele>1615.837087</ele>
        <time>2020-03-27T10:53:32.134Z</time>
      </trkpt>
      <trkpt lat="44.03195" lon="6.5191">
        <ele>1617.251619</ele>
        <time>2020-03-27T10:53:45.047Z</time>
      </trkpt>
      <trkpt lat="44.03142" lon="6.51944">
        <ele>1619.774131</ele>
        <time>2020-03-27T10:54:09.245Z</time>
      </trkpt>
      <trkpt lat="44.03103" lon="6.51946">
        <ele>1621.454982</ele>
        <time>2020-03-27T10:54:25.441Z</time>
      </trkpt>
      <trkpt lat="44.03083" lon="6.51955">
        <ele>1622.382505</ele>
        <time>2020-03-27T10:54:34.490Z</time>
      </trkpt>
      <trkpt lat="44.03038" lon="6.52">
        <ele>1624.924668</ele>
        <time>2020-03-27T10:54:58.514Z</time>
      </trkpt>
      <trkpt lat="44.03002" lon="6.52047">
        <ele>1627.443788</ele>
        <time>2020-03-27T10:55:20.716Z</time>
      </trkpt>
      <trkpt lat="44.0299" lon="6.52054">
        <ele>1628.124215</ele>
        <time>2020-03-27T10:55:26.868Z</time>
      </trkpt>
      <trkpt lat="44.02935" lon="6.5213">
        <ele>1632.055518</ele>
        <time>2020-03-27T10:56:03.049Z</time>
      </trkpt>
      <trkpt lat="44.029" lon="6.5214">
        <ele>1633.90638</ele>
        <time>2020-03-27T10:56:19.669Z</time>
      </trkpt>
      <trkpt lat="44.02867" lon="6.5216">
        <ele>1635.904179</ele>
        <time>2020-03-27T10:56:36.428Z</time>
      </trkpt>
      <trkpt lat="44.02705" lon="6.52211">
        <ele>1646.215542</ele>
        <time>2020-03-27T10:57:55.380Z</time>
      </trkpt>
      <trkpt lat="44.02673" lon="6.52256">
        <ele>1650.087185</ele>
        <time>2020-03-27T10:58:21.234Z</time>
      </trkpt>
      <trkpt lat="44.02641" lon="6.52255">
        <ele>1652.880701</ele>
        <time>2020-03-27T10:58:41.165Z</time>
      </trkpt>
      <trkpt lat="44.02612" lon="6.52263">
        <ele>1655.419492</ele>
        <time>2020-03-27T10:58:59.713Z</time>
      </trkpt>
      <trkpt lat="44.02591" lon="6.52287">
        <ele>1657.762374</ele>
        <time>2020-03-27T10:59:17.240Z</time>
      </trkpt>
      <trkpt lat="44.0258" lon="6.52281">
        <ele>1658.778533</ele>
        <time>2020-03-27T10:59:26.226Z</time>
      </trkpt>
      <trkpt lat="44.02546" lon="6.52274">
        <ele>1663.029012</ele>
        <time>2020-03-27T10:59:50.680Z</time>
      </trkpt>
      <trkpt lat="44.0242" lon="6.5227">
        <ele>1678.63774</ele>
        <time>2020-03-27T11:01:28.961Z</time>
      </trkpt>
      <trkpt lat="44.02225" lon="6.52222">
        <ele>1702.345061</ele>
        <time>2020-03-27T11:03:55.837Z</time>
      </trkpt>
      <trkpt lat="44.02134" lon="6.52233">
        <ele>1709.993567</ele>
        <time>2020-03-27T11:04:55.325Z</time>
      </trkpt>
      <trkpt lat="44.021" lon="6.52249">
        <ele>1712.940666</ele>
        <time>2020-03-27T11:05:15.838Z</time>
      </trkpt>
      <trkpt lat="44.02032" lon="6.52294">
        <ele>1717.79404</ele>
        <time>2020-03-27T11:05:53.225Z</time>
      </trkpt>
      <trkpt lat="44.01957" lon="6.52356">
        <ele>1719.126264</ele>
        <time>2020-03-27T11:06:22.381Z</time>
      </trkpt>
      <trkpt lat="44.01927" lon="6.52387">
        <ele>1719.6915</ele>
        <time>2020-03-27T11:06:31.668Z</time>
      </trkpt>
      <trkpt lat="44.01915" lon="6.52403">
        <ele>1719.955999</ele>
        <time>2020-03-27T11:06:35.881Z</time>
      </trkpt>
      <trkpt lat="44.01917" lon="6.52418">
        <ele>1720.125993</ele>
        <time>2020-03-27T11:06:38.246Z</time>
      </trkpt>
      <trkpt lat="44.01937" lon="6.52474">
        <ele>1719.541692</ele>
        <time>2020-03-27T11:06:48.178Z</time>
      </trkpt>
      <trkpt lat="44.01939" lon="6.52512">
        <ele>1719.05255</ele>
        <time>2020-03-27T11:06:53.820Z</time>
      </trkpt>
      <trkpt lat="44.01882" lon="6.5268">
        <ele>1717.314007</ele>
        <time>2020-03-27T11:07:23.158Z</time>
      </trkpt>
      <trkpt lat="44.01867" lon="6.52711">
        <ele>1717.76973</ele>
        <time>2020-03-27T11:07:29.991Z</time>
      </trkpt>
      <trkpt lat="44.01832" lon="6.52736">
        <ele>1718.429343</ele>
        <time>2020-03-27T11:07:41.610Z</time>
      </trkpt>
      <trkpt lat="44.01817" lon="6.5276">
        <ele>1718.806106</ele>
        <time>2020-03-27T11:07:48.854Z</time>
      </trkpt>
      <trkpt lat="44.01788" lon="6.52784">
        <ele>1719.381771</ele>
        <time>2020-03-27T11:08:01.154Z</time>
      </trkpt>
      <trkpt lat="44.0167" lon="6.52839">
        <ele>1725.15356</ele>
        <time>2020-03-27T11:08:57.895Z</time>
      </trkpt>
      <trkpt lat="44.01641" lon="6.52867">
        <ele>1727.243917</ele>
        <time>2020-03-27T11:09:15.976Z</time>
      </trkpt>
      <trkpt lat="44.01542" lon="6.52904">
        <ele>1733.651077</ele>
        <time>2020-03-27T11:10:11.213Z</time>
      </trkpt>
      <trkpt lat="44.01489" lon="6.52909">
        <ele>1737.211699</ele>
        <time>2020-03-27T11:10:41.010Z</time>
      </trkpt>
      <trkpt lat="44.01314" lon="6.52906">
        <ele>1746.280607</ele>
        <time>2020-03-27T11:12:07.126Z</time>
      </trkpt>
      <trkpt lat="44.01258" lon="6.52902">
        <ele>1748.401304</ele>
        <time>2020-03-27T11:12:27.187Z</time>
      </trkpt>
      <trkpt lat="44.01258" lon="6.52902">
        <ele>1748.401304</ele>
        <time>2020-03-27T11:12:27.310Z</time>
      </trkpt>
      <trkpt lat="44.01229" lon="6.529">
        <ele>1749.480742</ele>
        <time>2020-03-27T11:12:35.415Z</time>
      </trkpt>
      <trkpt lat="44.01118" lon="6.52872">
        <ele>1749.50571</ele>
        <time>2020-03-27T11:13:03.557Z</time>
      </trkpt>
      <trkpt lat="44.01085" lon="6.52867">
        <ele>1749.481745</ele>
        <time>2020-03-27T11:13:11.604Z</time>
      </trkpt>
      <trkpt lat="44.01029" lon="6.5283">
        <ele>1749.167856</ele>
        <time>2020-03-27T11:13:26.969Z</time>
      </trkpt>
      <trkpt lat="44.00989" lon="6.52813">
        <ele>1748.702386</ele>
        <time>2020-03-27T11:13:36.955Z</time>
      </trkpt>
      <trkpt lat="44.01016" lon="6.5281">
        <ele>1748.404155</ele>
        <time>2020-03-27T11:13:43.374Z</time>
      </trkpt>
      <trkpt lat="44.01059" lon="6.52792">
        <ele>1747.90617</ele>
        <time>2020-03-27T11:13:53.765Z</time>
      </trkpt>
      <trkpt lat="44.01106" lon="6.52791">
        <ele>1747.162851</ele>
        <time>2020-03-27T11:14:04.347Z</time>
      </trkpt>
      <trkpt lat="44.01163" lon="6.52766">
        <ele>1744.633617</ele>
        <time>2020-03-27T11:14:17.134Z</time>
      </trkpt>
      <trkpt lat="44.01255" lon="6.52702">
        <ele>1740.314358</ele>
        <time>2020-03-27T11:14:36.841Z</time>
      </trkpt>
      <trkpt lat="44.01277" lon="6.527">
        <ele>1739.096864</ele>
        <time>2020-03-27T11:14:40.951Z</time>
      </trkpt>
      <trkpt lat="44.01279" lon="6.52689">
        <ele>1738.577475</ele>
        <time>2020-03-27T11:14:42.407Z</time>
      </trkpt>
      <trkpt lat="44.01225" lon="6.5265">
        <ele>1734.600463</ele>
        <time>2020-03-27T11:14:53.599Z</time>
      </trkpt>
      <trkpt lat="44.01149" lon="6.5261">
        <ele>1729.268227</ele>
        <time>2020-03-27T11:15:08.466Z</time>
      </trkpt>
      <trkpt lat="44.01134" lon="6.52593">
        <ele>1728.011405</ele>
        <time>2020-03-27T11:15:11.912Z</time>
      </trkpt>
      <trkpt lat="44.01107" lon="6.52535">
        <ele>1724.0219</ele>
        <time>2020-03-27T11:15:21.028Z</time>
      </trkpt>
      <trkpt lat="44.00992" lon="6.52441">
        <ele>1713.249984</ele>
        <time>2020-03-27T11:15:44.859Z</time>
      </trkpt>
      <trkpt lat="44.00934" lon="6.52383">
        <ele>1706.331141</ele>
        <time>2020-03-27T11:15:57.173Z</time>
      </trkpt>
      <trkpt lat="44.00879" lon="6.5234">
        <ele>1700.156811</ele>
        <time>2020-03-27T11:16:08.112Z</time>
      </trkpt>
      <trkpt lat="44.00873" lon="6.52294">
        <ele>1696.855209</ele>
        <time>2020-03-27T11:16:13.842Z</time>
      </trkpt>
      <trkpt lat="44.00839" lon="6.52261">
        <ele>1692.555656</ele>
        <time>2020-03-27T11:16:20.788Z</time>
      </trkpt>
      <trkpt lat="44.00819" lon="6.52254">
        <ele>1690.287177</ele>
        <time>2020-03-27T11:16:24.337Z</time>
      </trkpt>
      <trkpt lat="44.00795" lon="6.52232">
        <ele>1687.269667</ele>
        <time>2020-03-27T11:16:29.122Z</time>
      </trkpt>
      <trkpt lat="44.00772" lon="6.5222">
        <ele>1684.657807</ele>
        <time>2020-03-27T11:16:33.416Z</time>
      </trkpt>
      <trkpt lat="44.00769" lon="6.52212">
        <ele>1683.973274</ele>
        <time>2020-03-27T11:16:34.435Z</time>
      </trkpt>
      <trkpt lat="44.00623" lon="6.52193">
        <ele>1669.824763</ele>
        <time>2020-03-27T11:16:59.533Z</time>
      </trkpt>
      <trkpt lat="44.00613" lon="6.52187">
        <ele>1668.914047</ele>
        <time>2020-03-27T11:17:01.301Z</time>
      </trkpt>
      <trkpt lat="44.00615" lon="6.52172">
        <ele>1667.974749</ele>
        <time>2020-03-27T11:17:03.227Z</time>
      </trkpt>
      <trkpt lat="44.0073" lon="6.52086">
        <ele>1658.122578</ele>
        <time>2020-03-27T11:17:27.145Z</time>
      </trkpt>
      <trkpt lat="44.00831" lon="6.52084">
        <ele>1652.354948</ele>
        <time>2020-03-27T11:17:46.521Z</time>
      </trkpt>
      <trkpt lat="44.00946" lon="6.52092">
        <ele>1644.829965</ele>
        <time>2020-03-27T11:18:08.193Z</time>
      </trkpt>
      <trkpt lat="44.00991" lon="6.52144">
        <ele>1640.918932</ele>
        <time>2020-03-27T11:18:18.827Z</time>
      </trkpt>
      <trkpt lat="44.00995" lon="6.5213">
        <ele>1640.228235</ele>
        <time>2020-03-27T11:18:20.672Z</time>
      </trkpt>
      <trkpt lat="44.00969" lon="6.5207">
        <ele>1635.629433</ele>
        <time>2020-03-27T11:18:29.617Z</time>
      </trkpt>
      <trkpt lat="44.00937" lon="6.52024">
        <ele>1630.567291</ele>
        <time>2020-03-27T11:18:37.687Z</time>
      </trkpt>
      <trkpt lat="44.00839" lon="6.51988">
        <ele>1619.489634</ele>
        <time>2020-03-27T11:18:54.688Z</time>
      </trkpt>
      <trkpt lat="44.00799" lon="6.5195">
        <ele>1612.43775</ele>
        <time>2020-03-27T11:19:02.478Z</time>
      </trkpt>
      <trkpt lat="44.00741" lon="6.5192">
        <ele>1603.173432</ele>
        <time>2020-03-27T11:19:12.482Z</time>
      </trkpt>
      <trkpt lat="44.00705" lon="6.51875">
        <ele>1595.889547</ele>
        <time>2020-03-27T11:19:20.338Z</time>
      </trkpt>
      <trkpt lat="44.00672" lon="6.51848">
        <ele>1590.795494</ele>
        <time>2020-03-27T11:19:26.384Z</time>
      </trkpt>
      <trkpt lat="44.00654" lon="6.5184">
        <ele>1588.623793</ele>
        <time>2020-03-27T11:19:29.465Z</time>
      </trkpt>
      <trkpt lat="44.00611" lon="6.51832">
        <ele>1583.59745</ele>
        <time>2020-03-27T11:19:36.656Z</time>
      </trkpt>
      <trkpt lat="44.00601" lon="6.51838">
        <ele>1582.396079</ele>
        <time>2020-03-27T11:19:38.394Z</time>
      </trkpt>
      <trkpt lat="44.00549" lon="6.51916">
        <ele>1573.691035</ele>
        <time>2020-03-27T11:19:51.535Z</time>
      </trkpt>
      <trkpt lat="44.00542" lon="6.51938">
        <ele>1571.758409</ele>
        <time>2020-03-27T11:19:54.738Z</time>
      </trkpt>
      <trkpt lat="44.00492" lon="6.51958">
        <ele>1568.766237</ele>
        <time>2020-03-27T11:20:04.182Z</time>
      </trkpt>
      <trkpt lat="44.00407" lon="6.51972">
        <ele>1563.76529</ele>
        <time>2020-03-27T11:20:20.678Z</time>
      </trkpt>
      <trkpt lat="44.00347" lon="6.52">
        <ele>1559.610649</ele>
        <time>2020-03-27T11:20:32.932Z</time>
      </trkpt>
      <trkpt lat="44.00321" lon="6.52027">
        <ele>1556.987752</ele>
        <time>2020-03-27T11:20:39.076Z</time>
      </trkpt>
      <trkpt lat="44.00242" lon="6.52028">
        <ele>1550.639045</ele>
        <time>2020-03-27T11:20:53.256Z</time>
      </trkpt>
      <trkpt lat="44.00068" lon="6.52001">
        <ele>1532.315024</ele>
        <time>2020-03-27T11:21:22.553Z</time>
      </trkpt>
      <trkpt lat="43.99997" lon="6.51979">
        <ele>1524.35741</ele>
        <time>2020-03-27T11:21:34.685Z</time>
      </trkpt>
      <trkpt lat="43.99942" lon="6.51974">
        <ele>1518.836459</ele>
        <time>2020-03-27T11:21:44.245Z</time>
      </trkpt>
      <trkpt lat="43.99912" lon="6.51981">
        <ele>1515.847627</ele>
        <time>2020-03-27T11:21:49.440Z</time>
      </trkpt>
      <trkpt lat="43.99909" lon="6.51976">
        <ele>1515.403047</ele>
        <time>2020-03-27T11:21:50.205Z</time>
      </trkpt>
      <trkpt lat="43.99912" lon="6.51964">
        <ele>1514.530566</ele>
        <time>2020-03-27T11:21:51.733Z</time>
      </trkpt>
      <trkpt lat="43.99954" lon="6.5196">
        <ele>1510.32867</ele>
        <time>2020-03-27T11:21:59.152Z</time>
      </trkpt>
      <trkpt lat="43.99995" lon="6.51937">
        <ele>1506.226297</ele>
        <time>2020-03-27T11:22:06.934Z</time>
      </trkpt>
      <trkpt lat="44.00068" lon="6.51895">
        <ele>1498.91488</ele>
        <time>2020-03-27T11:22:20.965Z</time>
      </trkpt>
      <trkpt lat="44.00136" lon="6.51875">
        <ele>1492.541688</ele>
        <time>2020-03-27T11:22:32.861Z</time>
      </trkpt>
      <trkpt lat="44.00193" lon="6.51868">
        <ele>1486.157733</ele>
        <time>2020-03-27T11:22:42.534Z</time>
      </trkpt>
      <trkpt lat="44.0024" lon="6.51841">
        <ele>1480.364306</ele>
        <time>2020-03-27T11:22:51.143Z</time>
      </trkpt>
      <trkpt lat="44.00281" lon="6.51836">
        <ele>1475.704258</ele>
        <time>2020-03-27T11:22:58.002Z</time>
      </trkpt>
      <trkpt lat="44.00297" lon="6.51782">
        <ele>1471.043711</ele>
        <time>2020-03-27T11:23:04.973Z</time>
      </trkpt>
      <trkpt lat="44.00322" lon="6.51747">
        <ele>1467.580523</ele>
        <time>2020-03-27T11:23:10.928Z</time>
      </trkpt>
      <trkpt lat="44.0035" lon="6.51735">
        <ele>1464.750138</ele>
        <time>2020-03-27T11:23:15.853Z</time>
      </trkpt>
      <trkpt lat="44.00426" lon="6.51738">
        <ele>1457.430381</ele>
        <time>2020-03-27T11:23:28.944Z</time>
      </trkpt>
      <trkpt lat="44.00434" lon="6.51711">
        <ele>1455.429285</ele>
        <time>2020-03-27T11:23:32.606Z</time>
      </trkpt>
      <trkpt lat="44.00434" lon="6.5168">
        <ele>1454.022199</ele>
        <time>2020-03-27T11:23:36.716Z</time>
      </trkpt>
      <trkpt lat="44.00466" lon="6.51559">
        <ele>1452.520737</ele>
        <time>2020-03-27T11:23:54.941Z</time>
      </trkpt>
      <trkpt lat="44.00492" lon="6.51504">
        <ele>1451.746772</ele>
        <time>2020-03-27T11:24:09.020Z</time>
      </trkpt>
      <trkpt lat="44.00514" lon="6.51488">
        <ele>1451.342182</ele>
        <time>2020-03-27T11:24:19.579Z</time>
      </trkpt>
      <trkpt lat="44.00601" lon="6.51503">
        <ele>1456.352757</ele>
        <time>2020-03-27T11:25:05.032Z</time>
      </trkpt>
      <trkpt lat="44.00668" lon="6.51466">
        <ele>1460.770442</ele>
        <time>2020-03-27T11:25:45.815Z</time>
      </trkpt>
      <trkpt lat="44.00684" lon="6.51467">
        <ele>1461.771179</ele>
        <time>2020-03-27T11:25:54.540Z</time>
      </trkpt>
      <trkpt lat="44.00704" lon="6.51481">
        <ele>1462.194068</ele>
        <time>2020-03-27T11:26:05.467Z</time>
      </trkpt>
      <trkpt lat="44.0075" lon="6.51597">
        <ele>1461.474179</ele>
        <time>2020-03-27T11:26:38.732Z</time>
      </trkpt>
      <trkpt lat="44.00763" lon="6.51608">
        <ele>1461.360005</ele>
        <time>2020-03-27T11:26:41.938Z</time>
      </trkpt>
      <trkpt lat="44.00862" lon="6.51576">
        <ele>1456.405023</ele>
        <time>2020-03-27T11:26:59.962Z</time>
      </trkpt>
      <trkpt lat="44.00878" lon="6.51555">
        <ele>1454.136974</ele>
        <time>2020-03-27T11:27:03.807Z</time>
      </trkpt>
      <trkpt lat="44.00897" lon="6.51487">
        <ele>1448.96297</ele>
        <time>2020-03-27T11:27:12.539Z</time>
      </trkpt>
      <trkpt lat="44.00907" lon="6.51475">
        <ele>1447.682574</ele>
        <time>2020-03-27T11:27:14.704Z</time>
      </trkpt>
      <trkpt lat="44.00963" lon="6.51435">
        <ele>1441.849247</ele>
        <time>2020-03-27T11:27:25.438Z</time>
      </trkpt>
      <trkpt lat="44.00988" lon="6.51425">
        <ele>1439.93914</ele>
        <time>2020-03-27T11:27:30.063Z</time>
      </trkpt>
      <trkpt lat="44.01037" lon="6.51432">
        <ele>1436.409479</ele>
        <time>2020-03-27T11:27:38.929Z</time>
      </trkpt>
      <trkpt lat="44.01053" lon="6.51441">
        <ele>1435.219539</ele>
        <time>2020-03-27T11:27:42.084Z</time>
      </trkpt>
      <trkpt lat="44.01067" lon="6.51454">
        <ele>1434.016533</ele>
        <time>2020-03-27T11:27:45.318Z</time>
      </trkpt>
      <trkpt lat="44.01081" lon="6.51488">
        <ele>1432.007208</ele>
        <time>2020-03-27T11:27:50.826Z</time>
      </trkpt>
      <trkpt lat="44.0111" lon="6.51513">
        <ele>1429.426672</ele>
        <time>2020-03-27T11:27:57.565Z</time>
      </trkpt>
      <trkpt lat="44.0115" lon="6.5151">
        <ele>1426.09335</ele>
        <time>2020-03-27T11:28:05.129Z</time>
      </trkpt>
      <trkpt lat="44.01177" lon="6.515">
        <ele>1423.75088</ele>
        <time>2020-03-27T11:28:10.304Z</time>
      </trkpt>
      <trkpt lat="44.01213" lon="6.51513">
        <ele>1420.687325</ele>
        <time>2020-03-27T11:28:16.843Z</time>
      </trkpt>
      <trkpt lat="44.01215" lon="6.51505">
        <ele>1420.214587</ele>
        <time>2020-03-27T11:28:17.826Z</time>
      </trkpt>
      <trkpt lat="44.01211" lon="6.51498">
        <ele>1419.650862</ele>
        <time>2020-03-27T11:28:18.995Z</time>
      </trkpt>
      <trkpt lat="44.01142" lon="6.51471">
        <ele>1412.812909</ele>
        <time>2020-03-27T11:28:31.081Z</time>
      </trkpt>
      <trkpt lat="44.01122" lon="6.51471">
        <ele>1410.091785</ele>
        <time>2020-03-27T11:28:34.451Z</time>
      </trkpt>
      <trkpt lat="44.01109" lon="6.51457">
        <ele>1407.980708</ele>
        <time>2020-03-27T11:28:37.009Z</time>
      </trkpt>
      <trkpt lat="44.01093" lon="6.51403">
        <ele>1402.310291</ele>
        <time>2020-03-27T11:28:43.892Z</time>
      </trkpt>
      <trkpt lat="44.01029" lon="6.51299">
        <ele>1389.432766</ele>
        <time>2020-03-27T11:28:59.996Z</time>
      </trkpt>
      <trkpt lat="44.01005" lon="6.51283">
        <ele>1386.486771</ele>
        <time>2020-03-27T11:29:04.364Z</time>
      </trkpt>
      <trkpt lat="44.00981" lon="6.51279">
        <ele>1383.761648</ele>
        <time>2020-03-27T11:29:08.464Z</time>
      </trkpt>
      <trkpt lat="44.00935" lon="6.51291">
        <ele>1378.505749</ele>
        <time>2020-03-27T11:29:16.469Z</time>
      </trkpt>
      <trkpt lat="44.00914" lon="6.51305">
        <ele>1376.015519</ele>
        <time>2020-03-27T11:29:20.303Z</time>
      </trkpt>
      <trkpt lat="44.0087" lon="6.513">
        <ele>1371.037514</ele>
        <time>2020-03-27T11:29:28.009Z</time>
      </trkpt>
      <trkpt lat="44.00834" lon="6.51325">
        <ele>1366.891208</ele>
        <time>2020-03-27T11:29:35.093Z</time>
      </trkpt>
      <trkpt lat="44.00825" lon="6.51315">
        <ele>1365.728999</ele>
        <time>2020-03-27T11:29:37.066Z</time>
      </trkpt>
      <trkpt lat="44.00825" lon="6.51179">
        <ele>1355.735589</ele>
        <time>2020-03-27T11:29:53.783Z</time>
      </trkpt>
      <trkpt lat="44.0081" lon="6.5113">
        <ele>1351.624507</ele>
        <time>2020-03-27T11:30:00.281Z</time>
      </trkpt>
      <trkpt lat="44.00787" lon="6.51109">
        <ele>1348.1778</ele>
        <time>2020-03-27T11:30:04.848Z</time>
      </trkpt>
      <trkpt lat="44.00726" lon="6.51086">
        <ele>1340.094032</ele>
        <time>2020-03-27T11:30:15.491Z</time>
      </trkpt>
      <trkpt lat="44.00699" lon="6.51085">
        <ele>1336.775376</ele>
        <time>2020-03-27T11:30:19.820Z</time>
      </trkpt>
      <trkpt lat="44.00609" lon="6.51102">
        <ele>1324.521304</ele>
        <time>2020-03-27T11:30:34.738Z</time>
      </trkpt>
      <trkpt lat="44.00601" lon="6.51096">
        <ele>1323.233697</ele>
        <time>2020-03-27T11:30:36.167Z</time>
      </trkpt>
      <trkpt lat="44.00591" lon="6.51046">
        <ele>1317.722249</ele>
        <time>2020-03-27T11:30:42.278Z</time>
      </trkpt>
      <trkpt lat="44.00581" lon="6.51036">
        <ele>1316.014619</ele>
        <time>2020-03-27T11:30:44.161Z</time>
      </trkpt>
      <trkpt lat="44.00531" lon="6.51011">
        <ele>1308.253451</ele>
        <time>2020-03-27T11:30:52.769Z</time>
      </trkpt>
      <trkpt lat="44.00436" lon="6.50996">
        <ele>1297.07374</ele>
        <time>2020-03-27T11:31:08.475Z</time>
      </trkpt>
      <trkpt lat="44.00231" lon="6.51246">
        <ele>1275.082897</ele>
        <time>2020-03-27T11:31:57.320Z</time>
      </trkpt>
      <trkpt lat="44.00186" lon="6.51379">
        <ele>1271.036025</ele>
        <time>2020-03-27T11:32:20.527Z</time>
      </trkpt>
      <trkpt lat="44.00177" lon="6.51388">
        <ele>1270.690121</ele>
        <time>2020-03-27T11:32:23.006Z</time>
      </trkpt>
      <trkpt lat="44.00152" lon="6.51374">
        <ele>1269.882716</ele>
        <time>2020-03-27T11:32:28.757Z</time>
      </trkpt>
      <trkpt lat="44.00132" lon="6.51348">
        <ele>1269.033921</ele>
        <time>2020-03-27T11:32:34.766Z</time>
      </trkpt>
      <trkpt lat="44.00072" lon="6.51357">
        <ele>1265.961121</ele>
        <time>2020-03-27T11:32:46.688Z</time>
      </trkpt>
      <trkpt lat="44.00064" lon="6.51373">
        <ele>1264.856254</ele>
        <time>2020-03-27T11:32:49.528Z</time>
      </trkpt>
      <trkpt lat="44.00042" lon="6.51374">
        <ele>1263.196818</ele>
        <time>2020-03-27T11:32:53.640Z</time>
      </trkpt>
      <trkpt lat="43.99988" lon="6.51393">
        <ele>1259.03446</ele>
        <time>2020-03-27T11:33:03.555Z</time>
      </trkpt>
      <trkpt lat="43.99927" lon="6.5138">
        <ele>1254.276829</ele>
        <time>2020-03-27T11:33:14.179Z</time>
      </trkpt>
      <trkpt lat="43.99903" lon="6.51386">
        <ele>1251.606523</ele>
        <time>2020-03-27T11:33:18.185Z</time>
      </trkpt>
      <trkpt lat="43.99881" lon="6.51377">
        <ele>1249.007196</ele>
        <time>2020-03-27T11:33:22.086Z</time>
      </trkpt>
      <trkpt lat="43.99835" lon="6.51371">
        <ele>1243.912153</ele>
        <time>2020-03-27T11:33:29.748Z</time>
      </trkpt>
      <trkpt lat="43.99819" lon="6.51362">
        <ele>1241.993965</ele>
        <time>2020-03-27T11:33:32.637Z</time>
      </trkpt>
      <trkpt lat="43.99788" lon="6.51331">
        <ele>1237.631914</ele>
        <time>2020-03-27T11:33:39.233Z</time>
      </trkpt>
      <trkpt lat="43.99751" lon="6.5132">
        <ele>1233.693157</ele>
        <time>2020-03-27T11:33:45.469Z</time>
      </trkpt>
      <trkpt lat="43.99642" lon="6.51328">
        <ele>1223.858585</ele>
        <time>2020-03-27T11:34:04.340Z</time>
      </trkpt>
      <trkpt lat="43.99566" lon="6.51343">
        <ele>1217.339393</ele>
        <time>2020-03-27T11:34:18.343Z</time>
      </trkpt>
      <trkpt lat="43.99498" lon="6.5133">
        <ele>1213.256178</ele>
        <time>2020-03-27T11:34:30.639Z</time>
      </trkpt>
      <trkpt lat="43.99406" lon="6.51266">
        <ele>1207.111421</ele>
        <time>2020-03-27T11:34:50.628Z</time>
      </trkpt>
      <trkpt lat="43.99405" lon="6.5126">
        <ele>1206.889218</ele>
        <time>2020-03-27T11:34:51.390Z</time>
      </trkpt>
      <trkpt lat="43.99385" lon="6.51238">
        <ele>1205.689002</ele>
        <time>2020-03-27T11:34:56.587Z</time>
      </trkpt>
      <trkpt lat="43.99294" lon="6.51222">
        <ele>1201.325354</ele>
        <time>2020-03-27T11:35:14.351Z</time>
      </trkpt>
      <trkpt lat="43.99277" lon="6.51227">
        <ele>1200.510392</ele>
        <time>2020-03-27T11:35:17.884Z</time>
      </trkpt>
      <trkpt lat="43.98917" lon="6.51212">
        <ele>1182.24048</ele>
        <time>2020-03-27T11:36:27.274Z</time>
      </trkpt>
      <trkpt lat="43.98863" lon="6.51247">
        <ele>1178.732677</ele>
        <time>2020-03-27T11:36:38.513Z</time>
      </trkpt>
      <trkpt lat="43.98789" lon="6.51246">
        <ele>1173.85352</ele>
        <time>2020-03-27T11:36:52.249Z</time>
      </trkpt>
      <trkpt lat="43.9871" lon="6.51326">
        <ele>1166.779199</ele>
        <time>2020-03-27T11:37:09.912Z</time>
      </trkpt>
      <trkpt lat="43.98658" lon="6.51432">
        <ele>1157.063502</ele>
        <time>2020-03-27T11:37:26.273Z</time>
      </trkpt>
      <trkpt lat="43.986" lon="6.51476">
        <ele>1150.12704</ele>
        <time>2020-03-27T11:37:37.301Z</time>
      </trkpt>
      <trkpt lat="43.98573" lon="6.51484">
        <ele>1145.09231</ele>
        <time>2020-03-27T11:37:41.725Z</time>
      </trkpt>
      <trkpt lat="43.98485" lon="6.51475">
        <ele>1128.172716</ele>
        <time>2020-03-27T11:37:55.660Z</time>
      </trkpt>
      <trkpt lat="43.9847" lon="6.51486">
        <ele>1125.019206</ele>
        <time>2020-03-27T11:37:58.215Z</time>
      </trkpt>
      <trkpt lat="43.9844" lon="6.51462">
        <ele>1118.518534</ele>
        <time>2020-03-27T11:38:11.325Z</time>
      </trkpt>
      <trkpt lat="43.98443" lon="6.51473">
        <ele>1116.977088</ele>
        <time>2020-03-27T11:38:12.584Z</time>
      </trkpt>
      <trkpt lat="43.98453" lon="6.51513">
        <ele>1110.55772</ele>
        <time>2020-03-27T11:38:17.368Z</time>
      </trkpt>
      <trkpt lat="43.98471" lon="6.51655">
        <ele>1088.059528</ele>
        <time>2020-03-27T11:38:33.443Z</time>
      </trkpt>
      <trkpt lat="43.98462" lon="6.51717">
        <ele>1078.229616</ele>
        <time>2020-03-27T11:38:40.514Z</time>
      </trkpt>
      <trkpt lat="43.98452" lon="6.51751">
        <ele>1072.979103</ele>
        <time>2020-03-27T11:38:44.669Z</time>
      </trkpt>
      <trkpt lat="43.9843" lon="6.51782">
        <ele>1067.03429</ele>
        <time>2020-03-27T11:38:49.583Z</time>
      </trkpt>
      <trkpt lat="43.98374" lon="6.51829">
        <ele>1054.434448</ele>
        <time>2020-03-27T11:38:59.998Z</time>
      </trkpt>
      <trkpt lat="43.9836" lon="6.51876">
        <ele>1047.484837</ele>
        <time>2020-03-27T11:39:05.755Z</time>
      </trkpt>
      <trkpt lat="43.9833" lon="6.51936">
        <ele>1037.721962</ele>
        <time>2020-03-27T11:39:14.103Z</time>
      </trkpt>
      <trkpt lat="43.98326" lon="6.51961">
        <ele>1034.543994</ele>
        <time>2020-03-27T11:39:16.942Z</time>
      </trkpt>
      <trkpt lat="43.98317" lon="6.51972">
        <ele>1032.380725</ele>
        <time>2020-03-27T11:39:18.868Z</time>
      </trkpt>
      <trkpt lat="43.98333" lon="6.51985">
        <ele>1029.059979</ele>
        <time>2020-03-27T11:39:21.847Z</time>
      </trkpt>
      <trkpt lat="43.98349" lon="6.51985">
        <ele>1026.07538</ele>
        <time>2020-03-27T11:39:24.512Z</time>
      </trkpt>
      <trkpt lat="43.98372" lon="6.51974">
        <ele>1021.879779</ele>
        <time>2020-03-27T11:39:28.282Z</time>
      </trkpt>
      <trkpt lat="43.98418" lon="6.51977">
        <ele>1013.591895</ele>
        <time>2020-03-27T11:39:35.703Z</time>
      </trkpt>
      <trkpt lat="43.98409" lon="6.52024">
        <ele>1007.659056</ele>
        <time>2020-03-27T11:39:41.193Z</time>
      </trkpt>
      <trkpt lat="43.98398" lon="6.52043">
        <ele>1004.700867</ele>
        <time>2020-03-27T11:39:44.102Z</time>
      </trkpt>
      <trkpt lat="43.98402" lon="6.52058">
        <ele>1002.816193</ele>
        <time>2020-03-27T11:39:45.945Z</time>
      </trkpt>
      <trkpt lat="43.98417" lon="6.52074">
        <ele>999.735354</ele>
        <time>2020-03-27T11:39:48.974Z</time>
      </trkpt>
      <trkpt lat="43.98428" lon="6.52111">
        <ele>995.025207</ele>
        <time>2020-03-27T11:39:53.626Z</time>
      </trkpt>
      <trkpt lat="43.98426" lon="6.52144">
        <ele>991.177456</ele>
        <time>2020-03-27T11:39:57.481Z</time>
      </trkpt>
      <trkpt lat="43.98408" lon="6.52192">
        <ele>984.953727</ele>
        <time>2020-03-27T11:40:03.773Z</time>
      </trkpt>
      <trkpt lat="43.98363" lon="6.52207">
        <ele>978.48274</ele>
        <time>2020-03-27T11:40:08.276Z</time>
      </trkpt>
      <trkpt lat="43.98296" lon="6.52241">
        <ele>970.126059</ele>
        <time>2020-03-27T11:40:15.307Z</time>
      </trkpt>
      <trkpt lat="43.98276" lon="6.52246">
        <ele>967.704689</ele>
        <time>2020-03-27T11:40:17.340Z</time>
      </trkpt>
      <trkpt lat="43.98265" lon="6.5226">
        <ele>965.970344</ele>
        <time>2020-03-27T11:40:18.847Z</time>
      </trkpt>
      <trkpt lat="43.98266" lon="6.52278">
        <ele>964.428685</ele>
        <time>2020-03-27T11:40:20.188Z</time>
      </trkpt>
      <trkpt lat="43.9825" lon="6.52291">
        <ele>962.220575</ele>
        <time>2020-03-27T11:40:22.131Z</time>
      </trkpt>
      <trkpt lat="43.98232" lon="6.5228">
        <ele>960.017862</ele>
        <time>2020-03-27T11:40:24.089Z</time>
      </trkpt>
      <trkpt lat="43.98225" lon="6.52288">
        <ele>959.271957</ele>
        <time>2020-03-27T11:40:25.050Z</time>
      </trkpt>
      <trkpt lat="43.98215" lon="6.5227">
        <ele>957.944039</ele>
        <time>2020-03-27T11:40:26.848Z</time>
      </trkpt>
      <trkpt lat="43.98206" lon="6.52259">
        <ele>956.989554</ele>
        <time>2020-03-27T11:40:28.052Z</time>
      </trkpt>
      <trkpt lat="43.98189" lon="6.52237">
        <ele>955.092289</ele>
        <time>2020-03-27T11:40:30.582Z</time>
      </trkpt>
      <trkpt lat="43.98182" lon="6.52228">
        <ele>954.377432</ele>
        <time>2020-03-27T11:40:31.485Z</time>
      </trkpt>
      <trkpt lat="43.98123" lon="6.52204">
        <ele>949.412239</ele>
        <time>2020-03-27T11:40:38.004Z</time>
      </trkpt>
      <trkpt lat="43.98075" lon="6.52159">
        <ele>944.866976</ele>
        <time>2020-03-27T11:40:44.106Z</time>
      </trkpt>
      <trkpt lat="43.98036" lon="6.52098">
        <ele>940.52579</ele>
        <time>2020-03-27T11:40:50.454Z</time>
      </trkpt>
      <trkpt lat="43.98008" lon="6.52044">
        <ele>937.039625</ele>
        <time>2020-03-27T11:40:55.503Z</time>
      </trkpt>
      <trkpt lat="43.97989" lon="6.52023">
        <ele>935.243718</ele>
        <time>2020-03-27T11:40:58.165Z</time>
      </trkpt>
      <trkpt lat="43.97963" lon="6.51994">
        <ele>932.81203</ele>
        <time>2020-03-27T11:41:01.715Z</time>
      </trkpt>
      <trkpt lat="43.97932" lon="6.51959">
        <ele>930.034582</ele>
        <time>2020-03-27T11:41:06.006Z</time>
      </trkpt>
      <trkpt lat="43.97928" lon="6.51953">
        <ele>929.625363</ele>
        <time>2020-03-27T11:41:06.589Z</time>
      </trkpt>
      <trkpt lat="43.97839" lon="6.51867">
        <ele>922.079539</ele>
        <time>2020-03-27T11:41:18.189Z</time>
      </trkpt>
      <trkpt lat="43.9781" lon="6.51869">
        <ele>920.086911</ele>
        <time>2020-03-27T11:41:21.446Z</time>
      </trkpt>
      <trkpt lat="43.97793" lon="6.5187">
        <ele>919.265578</ele>
        <time>2020-03-27T11:41:23.234Z</time>
      </trkpt>
      <trkpt lat="43.97673" lon="6.51777">
        <ele>913.123593</ele>
        <time>2020-03-27T11:41:38.116Z</time>
      </trkpt>
      <trkpt lat="43.97625" lon="6.5174">
        <ele>911.216947</ele>
        <time>2020-03-27T11:41:44.459Z</time>
      </trkpt>
      <trkpt lat="43.97619" lon="6.51735">
        <ele>911.048443</ele>
        <time>2020-03-27T11:41:45.322Z</time>
      </trkpt>
      <trkpt lat="43.97536" lon="6.51672">
        <ele>908.809329</ele>
        <time>2020-03-27T11:41:56.789Z</time>
      </trkpt>
      <trkpt lat="43.97527" lon="6.51665">
        <ele>908.559477</ele>
        <time>2020-03-27T11:41:58.089Z</time>
      </trkpt>
      <trkpt lat="43.97507" lon="6.5165">
        <ele>908.013104</ele>
        <time>2020-03-27T11:42:01.016Z</time>
      </trkpt>
      <trkpt lat="43.97341" lon="6.51515">
        <ele>904.357163</ele>
        <time>2020-03-27T11:42:25.137Z</time>
      </trkpt>
      <trkpt lat="43.97182" lon="6.51382">
        <ele>900.678778</ele>
        <time>2020-03-27T11:42:48.091Z</time>
      </trkpt>
      <trkpt lat="43.97178" lon="6.51378">
        <ele>900.588987</ele>
        <time>2020-03-27T11:42:48.708Z</time>
      </trkpt>
      <trkpt lat="43.97152" lon="6.51351">
        <ele>900.008775</ele>
        <time>2020-03-27T11:42:52.730Z</time>
      </trkpt>
      <trkpt lat="43.97134" lon="6.5133">
        <ele>899.592123</ele>
        <time>2020-03-27T11:42:55.654Z</time>
      </trkpt>
      <trkpt lat="43.97119" lon="6.51307">
        <ele>899.209231</ele>
        <time>2020-03-27T11:42:58.391Z</time>
      </trkpt>
      <trkpt lat="43.97117" lon="6.51303">
        <ele>899.138742</ele>
        <time>2020-03-27T11:42:58.883Z</time>
      </trkpt>
      <trkpt lat="43.97102" lon="6.51279">
        <ele>898.735809</ele>
        <time>2020-03-27T11:43:01.738Z</time>
      </trkpt>
      <trkpt lat="43.97092" lon="6.51259">
        <ele>898.419774</ele>
        <time>2020-03-27T11:43:04.077Z</time>
      </trkpt>
      <trkpt lat="43.97085" lon="6.51243">
        <ele>898.178258</ele>
        <time>2020-03-27T11:43:05.786Z</time>
      </trkpt>
      <trkpt lat="43.97075" lon="6.51219">
        <ele>897.833078</ele>
        <time>2020-03-27T11:43:08.413Z</time>
      </trkpt>
      <trkpt lat="43.9706" lon="6.51179">
        <ele>897.327198</ele>
        <time>2020-03-27T11:43:12.662Z</time>
      </trkpt>
      <trkpt lat="43.97047" lon="6.5112">
        <ele>896.764934</ele>
        <time>2020-03-27T11:43:18.285Z</time>
      </trkpt>
      <trkpt lat="43.97046" lon="6.51114">
        <ele>896.704088</ele>
        <time>2020-03-27T11:43:18.838Z</time>
      </trkpt>
      <trkpt lat="43.97044" lon="6.51102">
        <ele>896.593904</ele>
        <time>2020-03-27T11:43:20.011Z</time>
      </trkpt>
      <trkpt lat="43.97042" lon="6.51084">
        <ele>896.428643</ele>
        <time>2020-03-27T11:43:21.728Z</time>
      </trkpt>
      <trkpt lat="43.97028" lon="6.51086">
        <ele>896.250148</ele>
        <time>2020-03-27T11:43:23.535Z</time>
      </trkpt>
      <trkpt lat="43.96999" lon="6.51091">
        <ele>895.888022</ele>
        <time>2020-03-27T11:43:27.715Z</time>
      </trkpt>
      <trkpt lat="43.96986" lon="6.51092">
        <ele>895.720404</ele>
        <time>2020-03-27T11:43:29.518Z</time>
      </trkpt>
      <trkpt lat="43.96971" lon="6.51091">
        <ele>895.535323</ele>
        <time>2020-03-27T11:43:31.852Z</time>
      </trkpt>
      <trkpt lat="43.96963" lon="6.51089">
        <ele>895.431501</ele>
        <time>2020-03-27T11:43:33.091Z</time>
      </trkpt>
      <trkpt lat="43.96961" lon="6.51088">
        <ele>895.399019</ele>
        <time>2020-03-27T11:43:33.403Z</time>
      </trkpt>
      <trkpt lat="43.9692" lon="6.5106">
        <ele>894.926187</ele>
        <time>2020-03-27T11:43:40.209Z</time>
      </trkpt>
      <trkpt lat="43.96835" lon="6.50968">
        <ele>893.927107</ele>
        <time>2020-03-27T11:43:55.934Z</time>
      </trkpt>
      <trkpt lat="43.96827" lon="6.5096">
        <ele>893.831002</ele>
        <time>2020-03-27T11:43:57.442Z</time>
      </trkpt>
      <trkpt lat="43.96824" lon="6.50956">
        <ele>893.79152</ele>
        <time>2020-03-27T11:43:57.984Z</time>
      </trkpt>
      <trkpt lat="43.96812" lon="6.50946">
        <ele>893.662411</ele>
        <time>2020-03-27T11:43:59.969Z</time>
      </trkpt>
      <trkpt lat="43.96783" lon="6.50931">
        <ele>893.299454</ele>
        <time>2020-03-27T11:44:04.154Z</time>
      </trkpt>
      <trkpt lat="43.96746" lon="6.50906">
        <ele>892.719395</ele>
        <time>2020-03-27T11:44:09.907Z</time>
      </trkpt>
      <trkpt lat="43.96739" lon="6.50899">
        <ele>892.602322</ele>
        <time>2020-03-27T11:44:11.022Z</time>
      </trkpt>
      <trkpt lat="43.96731" lon="6.5089">
        <ele>892.45712</ele>
        <time>2020-03-27T11:44:12.516Z</time>
      </trkpt>
      <trkpt lat="43.96728" lon="6.50887">
        <ele>892.39914</ele>
        <time>2020-03-27T11:44:13.048Z</time>
      </trkpt>
      <trkpt lat="43.96711" lon="6.50876">
        <ele>892.138076</ele>
        <time>2020-03-27T11:44:15.674Z</time>
      </trkpt>
      <trkpt lat="43.96679" lon="6.50855">
        <ele>891.645534</ele>
        <time>2020-03-27T11:44:20.545Z</time>
      </trkpt>
      <trkpt lat="43.96676" lon="6.50853">
        <ele>891.602016</ele>
        <time>2020-03-27T11:44:20.931Z</time>
      </trkpt>
      <trkpt lat="43.966" lon="6.508">
        <ele>890.680346</ele>
        <time>2020-03-27T11:44:32.418Z</time>
      </trkpt>
      <trkpt lat="43.96545" lon="6.50758">
        <ele>890.171167</ele>
        <time>2020-03-27T11:44:41.858Z</time>
      </trkpt>
      <trkpt lat="43.96544" lon="6.50756">
        <ele>890.158248</ele>
        <time>2020-03-27T11:44:42.120Z</time>
      </trkpt>
      <trkpt lat="43.96536" lon="6.50751">
        <ele>890.092088</ele>
        <time>2020-03-27T11:44:43.475Z</time>
      </trkpt>
      <trkpt lat="43.96516" lon="6.50734">
        <ele>889.903965</ele>
        <time>2020-03-27T11:44:48.074Z</time>
      </trkpt>
      <trkpt lat="43.96514" lon="6.50732">
        <ele>889.881485</ele>
        <time>2020-03-27T11:44:48.510Z</time>
      </trkpt>
      <trkpt lat="43.965" lon="6.50722">
        <ele>889.754124</ele>
        <time>2020-03-27T11:44:51.084Z</time>
      </trkpt>
      <trkpt lat="43.96481" lon="6.50709">
        <ele>889.587394</ele>
        <time>2020-03-27T11:44:54.168Z</time>
      </trkpt>
      <trkpt lat="43.96471" lon="6.50699">
        <ele>889.455349</ele>
        <time>2020-03-27T11:44:56.100Z</time>
      </trkpt>
      <trkpt lat="43.96462" lon="6.50689">
        <ele>889.340387</ele>
        <time>2020-03-27T11:44:57.731Z</time>
      </trkpt>
      <trkpt lat="43.96454" lon="6.5068">
        <ele>889.23395</ele>
        <time>2020-03-27T11:44:59.165Z</time>
      </trkpt>
      <trkpt lat="43.96456" lon="6.50677">
        <ele>889.205283</ele>
        <time>2020-03-27T11:44:59.555Z</time>
      </trkpt>
      <trkpt lat="43.96457" lon="6.50674">
        <ele>889.17592</ele>
        <time>2020-03-27T11:44:59.924Z</time>
      </trkpt>
      <trkpt lat="43.96458" lon="6.5067">
        <ele>889.146472</ele>
        <time>2020-03-27T11:45:00.331Z</time>
      </trkpt>
      <trkpt lat="43.96457" lon="6.50666">
        <ele>889.115251</ele>
        <time>2020-03-27T11:45:00.766Z</time>
      </trkpt>
      <trkpt lat="43.96456" lon="6.50662">
        <ele>889.083866</ele>
        <time>2020-03-27T11:45:01.171Z</time>
      </trkpt>
      <trkpt lat="43.96453" lon="6.50659">
        <ele>889.052233</ele>
        <time>2020-03-27T11:45:01.628Z</time>
      </trkpt>
      <trkpt lat="43.9645" lon="6.50657">
        <ele>889.014052</ele>
        <time>2020-03-27T11:45:02.124Z</time>
      </trkpt>
      <trkpt lat="43.96446" lon="6.50657">
        <ele>888.975341</ele>
        <time>2020-03-27T11:45:02.618Z</time>
      </trkpt>
      <trkpt lat="43.96442" lon="6.50659">
        <ele>888.930014</ele>
        <time>2020-03-27T11:45:03.194Z</time>
      </trkpt>
      <trkpt lat="43.96439" lon="6.50663">
        <ele>888.883576</ele>
        <time>2020-03-27T11:45:03.767Z</time>
      </trkpt>
      <trkpt lat="43.9643" lon="6.50665">
        <ele>888.788382</ele>
        <time>2020-03-27T11:45:04.989Z</time>
      </trkpt>
      <trkpt lat="43.96415" lon="6.5067">
        <ele>888.623243</ele>
        <time>2020-03-27T11:45:07.162Z</time>
      </trkpt>
      <trkpt lat="43.96383" lon="6.50673">
        <ele>888.293675</ele>
        <time>2020-03-27T11:45:11.351Z</time>
      </trkpt>
      <trkpt lat="43.96336" lon="6.50667">
        <ele>887.797951</ele>
        <time>2020-03-27T11:45:17.641Z</time>
      </trkpt>
      <trkpt lat="43.96319" lon="6.50665">
        <ele>887.557599</ele>
        <time>2020-03-27T11:45:19.915Z</time>
      </trkpt>
      <trkpt lat="43.96245" lon="6.50655">
        <ele>886.262937</ele>
        <time>2020-03-27T11:45:29.174Z</time>
      </trkpt>
      <trkpt lat="43.96171" lon="6.50644">
        <ele>884.948837</ele>
        <time>2020-03-27T11:45:38.466Z</time>
      </trkpt>
      <trkpt lat="43.96157" lon="6.50642">
        <ele>884.703726</ele>
        <time>2020-03-27T11:45:40.194Z</time>
      </trkpt>
      <trkpt lat="43.96154" lon="6.50642">
        <ele>884.6475</ele>
        <time>2020-03-27T11:45:40.582Z</time>
      </trkpt>
      <trkpt lat="43.96126" lon="6.50633">
        <ele>884.5132</ele>
        <time>2020-03-27T11:45:44.146Z</time>
      </trkpt>
      <trkpt lat="43.96101" lon="6.50631">
        <ele>884.46439</ele>
        <time>2020-03-27T11:45:47.380Z</time>
      </trkpt>
      <trkpt lat="43.9607" lon="6.50629">
        <ele>884.404152</ele>
        <time>2020-03-27T11:45:51.432Z</time>
      </trkpt>
      <trkpt lat="43.96059" lon="6.50628">
        <ele>884.383565</ele>
        <time>2020-03-27T11:45:52.849Z</time>
      </trkpt>
      <trkpt lat="43.96026" lon="6.50624">
        <ele>884.318131</ele>
        <time>2020-03-27T11:45:57.827Z</time>
      </trkpt>
      <trkpt lat="43.96006" lon="6.50627">
        <ele>884.279582</ele>
        <time>2020-03-27T11:46:00.673Z</time>
      </trkpt>
      <trkpt lat="43.95949" lon="6.5062">
        <ele>885.274072</ele>
        <time>2020-03-27T11:46:14.551Z</time>
      </trkpt>
      <trkpt lat="43.95941" lon="6.5062">
        <ele>885.630776</ele>
        <time>2020-03-27T11:46:16.319Z</time>
      </trkpt>
      <trkpt lat="43.95898" lon="6.5062">
        <ele>887.79082</ele>
        <time>2020-03-27T11:46:31.004Z</time>
      </trkpt>
      <trkpt lat="43.95896" lon="6.5062">
        <ele>887.875117</ele>
        <time>2020-03-27T11:46:32.028Z</time>
      </trkpt>
      <trkpt lat="43.95892" lon="6.5062">
        <ele>888.063918</ele>
        <time>2020-03-27T11:46:33.447Z</time>
      </trkpt>
      <trkpt lat="43.95886" lon="6.50621">
        <ele>888.362217</ele>
        <time>2020-03-27T11:46:36.413Z</time>
      </trkpt>
      <trkpt lat="43.95866" lon="6.50627">
        <ele>889.411869</ele>
        <time>2020-03-27T11:46:42.355Z</time>
      </trkpt>
      <trkpt lat="43.95864" lon="6.50628">
        <ele>889.516023</ele>
        <time>2020-03-27T11:46:43.613Z</time>
      </trkpt>
      <trkpt lat="43.95843" lon="6.50637">
        <ele>890.585873</ele>
        <time>2020-03-27T11:46:52.304Z</time>
      </trkpt>
      <trkpt lat="43.95831" lon="6.50624">
        <ele>891.333681</ele>
        <time>2020-03-27T11:47:00.030Z</time>
      </trkpt>
      <trkpt lat="43.95826" lon="6.50617">
        <ele>891.681047</ele>
        <time>2020-03-27T11:47:04.288Z</time>
      </trkpt>
      <trkpt lat="43.95822" lon="6.50613">
        <ele>891.935859</ele>
        <time>2020-03-27T11:47:07.616Z</time>
      </trkpt>
      <trkpt lat="43.95808" lon="6.50612">
        <ele>892.629781</ele>
        <time>2020-03-27T11:47:13.272Z</time>
      </trkpt>
      <trkpt lat="43.95804" lon="6.50618">
        <ele>892.921786</ele>
        <time>2020-03-27T11:47:16.437Z</time>
      </trkpt>
      <trkpt lat="43.95799" lon="6.50624">
        <ele>893.286728</ele>
        <time>2020-03-27T11:47:20.841Z</time>
      </trkpt>
      <trkpt lat="43.95778" lon="6.50653">
        <ele>895.377638</ele>
        <time>2020-03-27T11:47:36.007Z</time>
      </trkpt>
      <trkpt lat="43.95752" lon="6.50672">
        <ele>897.434921</ele>
        <time>2020-03-27T11:47:52.494Z</time>
      </trkpt>
      <trkpt lat="43.95722" lon="6.50686">
        <ele>899.721664</ele>
        <time>2020-03-27T11:48:10.489Z</time>
      </trkpt>
      <trkpt lat="43.95683" lon="6.50695">
        <ele>902.514893</ele>
        <time>2020-03-27T11:48:32.072Z</time>
      </trkpt>
      <trkpt lat="43.95597" lon="6.50746">
        <ele>909.327593</ele>
        <time>2020-03-27T11:49:20.508Z</time>
      </trkpt>
      <trkpt lat="43.95574" lon="6.50775">
        <ele>911.635205</ele>
        <time>2020-03-27T11:49:36.625Z</time>
      </trkpt>
      <trkpt lat="43.95514" lon="6.50822">
        <ele>916.777406</ele>
        <time>2020-03-27T11:50:15.990Z</time>
      </trkpt>
      <trkpt lat="43.95491" lon="6.50833">
        <ele>918.616357</ele>
        <time>2020-03-27T11:50:30.778Z</time>
      </trkpt>
      <trkpt lat="43.95449" lon="6.50844">
        <ele>922.053746</ele>
        <time>2020-03-27T11:50:56.351Z</time>
      </trkpt>
      <trkpt lat="43.95429" lon="6.50802">
        <ele>924.935574</ele>
        <time>2020-03-27T11:51:16.574Z</time>
      </trkpt>
      <trkpt lat="43.95417" lon="6.50791">
        <ele>926.119381</ele>
        <time>2020-03-27T11:51:23.877Z</time>
      </trkpt>
      <trkpt lat="43.95408" lon="6.50793">
        <ele>926.875717</ele>
        <time>2020-03-27T11:51:28.831Z</time>
      </trkpt>
      <trkpt lat="43.95404" lon="6.50803">
        <ele>927.51107</ele>
        <time>2020-03-27T11:51:37.079Z</time>
      </trkpt>
      <trkpt lat="43.95403" lon="6.50816">
        <ele>928.265003</ele>
        <time>2020-03-27T11:51:41.393Z</time>
      </trkpt>
      <trkpt lat="43.95398" lon="6.50834">
        <ele>929.371371</ele>
        <time>2020-03-27T11:51:47.244Z</time>
      </trkpt>
      <trkpt lat="43.95392" lon="6.50842">
        <ele>930.033122</ele>
        <time>2020-03-27T11:51:53.897Z</time>
      </trkpt>
      <trkpt lat="43.95382" lon="6.50854">
        <ele>931.09261</ele>
        <time>2020-03-27T11:52:01.766Z</time>
      </trkpt>
      <trkpt lat="43.95342" lon="6.5087">
        <ele>934.520425</ele>
        <time>2020-03-27T11:52:23.721Z</time>
      </trkpt>
      <trkpt lat="43.95337" lon="6.50865">
        <ele>935.118936</ele>
        <time>2020-03-27T11:52:25.830Z</time>
      </trkpt>
      <trkpt lat="43.95337" lon="6.50861">
        <ele>935.404429</ele>
        <time>2020-03-27T11:52:27.452Z</time>
      </trkpt>
      <trkpt lat="43.95336" lon="6.50855">
        <ele>935.780982</ele>
        <time>2020-03-27T11:52:30.844Z</time>
      </trkpt>
      <trkpt lat="43.95345" lon="6.50844">
        <ele>936.827142</ele>
        <time>2020-03-27T11:52:39.158Z</time>
      </trkpt>
      <trkpt lat="43.95354" lon="6.50838">
        <ele>937.717266</ele>
        <time>2020-03-27T11:52:43.390Z</time>
      </trkpt>
      <trkpt lat="43.95357" lon="6.50833">
        <ele>938.14375</ele>
        <time>2020-03-27T11:52:45.170Z</time>
      </trkpt>
      <trkpt lat="43.95366" lon="6.50815">
        <ele>939.536443</ele>
        <time>2020-03-27T11:52:58.690Z</time>
      </trkpt>
      <trkpt lat="43.95369" lon="6.50801">
        <ele>940.466387</ele>
        <time>2020-03-27T11:53:04.666Z</time>
      </trkpt>
      <trkpt lat="43.95367" lon="6.50783">
        <ele>941.6821</ele>
        <time>2020-03-27T11:53:09.798Z</time>
      </trkpt>
      <trkpt lat="43.95361" lon="6.50782">
        <ele>942.200674</ele>
        <time>2020-03-27T11:53:14.830Z</time>
      </trkpt>
      <trkpt lat="43.95358" lon="6.50781">
        <ele>942.44663</ele>
        <time>2020-03-27T11:53:16.833Z</time>
      </trkpt>
      <trkpt lat="43.95323" lon="6.50841">
        <ele>947.452428</ele>
        <time>2020-03-27T11:53:52.213Z</time>
      </trkpt>
      <trkpt lat="43.95318" lon="6.5085">
        <ele>948.182934</ele>
        <time>2020-03-27T11:53:56.223Z</time>
      </trkpt>
      <trkpt lat="43.95315" lon="6.50854">
        <ele>948.597162</ele>
        <time>2020-03-27T11:54:00.183Z</time>
      </trkpt>
      <trkpt lat="43.95301" lon="6.50856">
        <ele>949.792274</ele>
        <time>2020-03-27T11:54:10.558Z</time>
      </trkpt>
      <trkpt lat="43.95299" lon="6.50839">
        <ele>950.955229</ele>
        <time>2020-03-27T11:54:17.035Z</time>
      </trkpt>
      <trkpt lat="43.95305" lon="6.50829">
        <ele>951.820436</ele>
        <time>2020-03-27T11:54:23.023Z</time>
      </trkpt>
      <trkpt lat="43.95315" lon="6.50814">
        <ele>953.200125</ele>
        <time>2020-03-27T11:54:34.434Z</time>
      </trkpt>
      <trkpt lat="43.95317" lon="6.50794">
        <ele>954.562488</ele>
        <time>2020-03-27T11:54:40.891Z</time>
      </trkpt>
      <trkpt lat="43.95306" lon="6.5078">
        <ele>955.908218</ele>
        <time>2020-03-27T11:54:52.155Z</time>
      </trkpt>
      <trkpt lat="43.95278" lon="6.50781">
        <ele>958.541537</ele>
        <time>2020-03-27T11:55:08.997Z</time>
      </trkpt>
      <trkpt lat="43.95267" lon="6.50791">
        <ele>959.775178</ele>
        <time>2020-03-27T11:55:19.701Z</time>
      </trkpt>
      <trkpt lat="43.95261" lon="6.50809">
        <ele>961.099483</ele>
        <time>2020-03-27T11:55:26.341Z</time>
      </trkpt>
      <trkpt lat="43.95253" lon="6.50842">
        <ele>963.451357</ele>
        <time>2020-03-27T11:55:45.031Z</time>
      </trkpt>
      <trkpt lat="43.95247" lon="6.50845">
        <ele>964.011417</ele>
        <time>2020-03-27T11:55:47.836Z</time>
      </trkpt>
      <trkpt lat="43.95243" lon="6.50844">
        <ele>964.420675</ele>
        <time>2020-03-27T11:55:50.022Z</time>
      </trkpt>
      <trkpt lat="43.9524" lon="6.50843">
        <ele>964.669167</ele>
        <time>2020-03-27T11:55:51.574Z</time>
      </trkpt>
      <trkpt lat="43.95238" lon="6.50835">
        <ele>965.2223</ele>
        <time>2020-03-27T11:55:55.240Z</time>
      </trkpt>
      <trkpt lat="43.95242" lon="6.5081">
        <ele>966.875818</ele>
        <time>2020-03-27T11:56:08.270Z</time>
      </trkpt>
      <trkpt lat="43.95244" lon="6.50784">
        <ele>967.928546</ele>
        <time>2020-03-27T11:56:17.062Z</time>
      </trkpt>
      <trkpt lat="43.95247" lon="6.5075">
        <ele>969.3403</ele>
        <time>2020-03-27T11:56:30.070Z</time>
      </trkpt>
      <trkpt lat="43.95252" lon="6.50729">
        <ele>970.274728</ele>
        <time>2020-03-27T11:56:38.493Z</time>
      </trkpt>
      <trkpt lat="43.95254" lon="6.50724">
        <ele>970.469265</ele>
        <time>2020-03-27T11:56:40.635Z</time>
      </trkpt>
      <trkpt lat="43.95268" lon="6.50695">
        <ele>971.921914</ele>
        <time>2020-03-27T11:56:51.526Z</time>
      </trkpt>
      <trkpt lat="43.95267" lon="6.50694">
        <ele>971.952511</ele>
        <time>2020-03-27T11:56:51.872Z</time>
      </trkpt>
      <trkpt lat="43.95261" lon="6.50684">
        <ele>972.476017</ele>
        <time>2020-03-27T11:56:55.737Z</time>
      </trkpt>
      <trkpt lat="43.9522" lon="6.50751">
        <ele>976.079877</ele>
        <time>2020-03-27T11:57:23.849Z</time>
      </trkpt>
      <trkpt lat="43.95201" lon="6.50767">
        <ele>977.306813</ele>
        <time>2020-03-27T11:57:33.571Z</time>
      </trkpt>
      <trkpt lat="43.95184" lon="6.50786">
        <ele>978.425205</ele>
        <time>2020-03-27T11:57:43.098Z</time>
      </trkpt>
      <trkpt lat="43.95171" lon="6.50803">
        <ele>979.31822</ele>
        <time>2020-03-27T11:57:49.695Z</time>
      </trkpt>
      <trkpt lat="43.95162" lon="6.50817">
        <ele>980.010867</ele>
        <time>2020-03-27T11:57:55.790Z</time>
      </trkpt>
      <trkpt lat="43.95143" lon="6.5083">
        <ele>981.0886</ele>
        <time>2020-03-27T11:58:04.519Z</time>
      </trkpt>
      <trkpt lat="43.95125" lon="6.50833">
        <ele>982.012466</ele>
        <time>2020-03-27T11:58:13.027Z</time>
      </trkpt>
      <trkpt lat="43.95086" lon="6.50805">
        <ele>984.22925</ele>
        <time>2020-03-27T11:58:33.174Z</time>
      </trkpt>
      <trkpt lat="43.95054" lon="6.50797">
        <ele>985.850497</ele>
        <time>2020-03-27T11:58:48.440Z</time>
      </trkpt>
      <trkpt lat="43.95032" lon="6.5078">
        <ele>987.546452</ele>
        <time>2020-03-27T11:59:01.962Z</time>
      </trkpt>
      <trkpt lat="43.94993" lon="6.50775">
        <ele>990.389768</ele>
        <time>2020-03-27T11:59:23.743Z</time>
      </trkpt>
      <trkpt lat="43.94992" lon="6.50767">
        <ele>990.806308</ele>
        <time>2020-03-27T11:59:26.778Z</time>
      </trkpt>
      <trkpt lat="43.95" lon="6.50756">
        <ele>991.611689</ele>
        <time>2020-03-27T11:59:33.075Z</time>
      </trkpt>
      <trkpt lat="43.95025" lon="6.50756">
        <ele>993.445383</ele>
        <time>2020-03-27T11:59:46.699Z</time>
      </trkpt>
      <trkpt lat="43.95067" lon="6.50746">
        <ele>996.51457</ele>
        <time>2020-03-27T12:00:09.365Z</time>
      </trkpt>
      <trkpt lat="43.95077" lon="6.50744">
        <ele>997.283645</ele>
        <time>2020-03-27T12:00:16.587Z</time>
      </trkpt>
      <trkpt lat="43.95123" lon="6.50688">
        <ele>1002.072782</ele>
        <time>2020-03-27T12:00:50.142Z</time>
      </trkpt>
      <trkpt lat="43.9517" lon="6.50657">
        <ele>1006.435916</ele>
        <time>2020-03-27T12:01:21.769Z</time>
      </trkpt>
      <trkpt lat="43.95175" lon="6.50643">
        <ele>1007.351864</ele>
        <time>2020-03-27T12:01:27.731Z</time>
      </trkpt>
      <trkpt lat="43.95167" lon="6.50635">
        <ele>1008.170561</ele>
        <time>2020-03-27T12:01:33.344Z</time>
      </trkpt>
      <trkpt lat="43.9514" lon="6.50662">
        <ele>1010.937473</ele>
        <time>2020-03-27T12:01:53.523Z</time>
      </trkpt>
      <trkpt lat="43.95126" lon="6.50668">
        <ele>1012.14072</ele>
        <time>2020-03-27T12:02:01.527Z</time>
      </trkpt>
      <trkpt lat="43.95035" lon="6.50699">
        <ele>1020.921513</ele>
        <time>2020-03-27T12:02:59.099Z</time>
      </trkpt>
      <trkpt lat="43.94991" lon="6.50693">
        <ele>1025.141519</ele>
        <time>2020-03-27T12:03:28.842Z</time>
      </trkpt>
      <trkpt lat="43.94913" lon="6.50733">
        <ele>1032.904453</ele>
        <time>2020-03-27T12:04:23.818Z</time>
      </trkpt>
      <trkpt lat="43.94903" lon="6.50738">
        <ele>1033.708698</ele>
        <time>2020-03-27T12:04:31.749Z</time>
      </trkpt>
      <trkpt lat="43.94894" lon="6.50742">
        <ele>1034.465713</ele>
        <time>2020-03-27T12:04:38.222Z</time>
      </trkpt>
      <trkpt lat="43.94889" lon="6.50737">
        <ele>1034.926107</ele>
        <time>2020-03-27T12:04:41.584Z</time>
      </trkpt>
      <trkpt lat="43.9489" lon="6.50726">
        <ele>1035.50278</ele>
        <time>2020-03-27T12:04:45.513Z</time>
      </trkpt>
      <trkpt lat="43.94896" lon="6.50718">
        <ele>1036.177909</ele>
        <time>2020-03-27T12:04:51.134Z</time>
      </trkpt>
      <trkpt lat="43.94919" lon="6.50704">
        <ele>1038.172621</ele>
        <time>2020-03-27T12:05:06.436Z</time>
      </trkpt>
      <trkpt lat="43.94943" lon="6.50671">
        <ele>1040.764335</ele>
        <time>2020-03-27T12:05:25.716Z</time>
      </trkpt>
      <trkpt lat="43.94965" lon="6.50658">
        <ele>1042.679504</ele>
        <time>2020-03-27T12:05:39.456Z</time>
      </trkpt>
      <trkpt lat="43.94966" lon="6.50642">
        <ele>1043.584915</ele>
        <time>2020-03-27T12:05:45.114Z</time>
      </trkpt>
      <trkpt lat="43.94959" lon="6.50638">
        <ele>1044.129532</ele>
        <time>2020-03-27T12:05:47.910Z</time>
      </trkpt>
      <trkpt lat="43.94933" lon="6.50658">
        <ele>1045.68479</ele>
        <time>2020-03-27T12:06:03.376Z</time>
      </trkpt>
      <trkpt lat="43.94905" lon="6.50654">
        <ele>1045.934362</ele>
        <time>2020-03-27T12:06:12.938Z</time>
      </trkpt>
      <trkpt lat="43.949" lon="6.50657">
        <ele>1045.987993</ele>
        <time>2020-03-27T12:06:15.036Z</time>
      </trkpt>
      <trkpt lat="43.94837" lon="6.50693">
        <ele>1046.605425</ele>
        <time>2020-03-27T12:06:32.170Z</time>
      </trkpt>
      <trkpt lat="43.9477" lon="6.5076">
        <ele>1047.215577</ele>
        <time>2020-03-27T12:06:51.763Z</time>
      </trkpt>
      <trkpt lat="43.94758" lon="6.5076">
        <ele>1047.21842</ele>
        <time>2020-03-27T12:06:54.028Z</time>
      </trkpt>
      <trkpt lat="43.94741" lon="6.50755">
        <ele>1047.222541</ele>
        <time>2020-03-27T12:06:59.835Z</time>
      </trkpt>
      <trkpt lat="43.9469" lon="6.50726">
        <ele>1047.235385</ele>
        <time>2020-03-27T12:07:12.199Z</time>
      </trkpt>
      <trkpt lat="43.94624" lon="6.50703">
        <ele>1047.251108</ele>
        <time>2020-03-27T12:07:30.864Z</time>
      </trkpt>
      <trkpt lat="43.94594" lon="6.50699">
        <ele>1048.129797</ele>
        <time>2020-03-27T12:07:42.406Z</time>
      </trkpt>
      <trkpt lat="43.94579" lon="6.50695">
        <ele>1048.826226</ele>
        <time>2020-03-27T12:07:48.274Z</time>
      </trkpt>
      <trkpt lat="43.94503" lon="6.50647">
        <ele>1052.759669</ele>
        <time>2020-03-27T12:08:24.684Z</time>
      </trkpt>
      <trkpt lat="43.94439" lon="6.50587">
        <ele>1056.790568</ele>
        <time>2020-03-27T12:09:03.697Z</time>
      </trkpt>
      <trkpt lat="43.94394" lon="6.50534">
        <ele>1061.311683</ele>
        <time>2020-03-27T12:09:36.628Z</time>
      </trkpt>
      <trkpt lat="43.94367" lon="6.50515">
        <ele>1063.580934</ele>
        <time>2020-03-27T12:09:53.624Z</time>
      </trkpt>
      <trkpt lat="43.94294" lon="6.50473">
        <ele>1069.62138</ele>
        <time>2020-03-27T12:10:39.374Z</time>
      </trkpt>
      <trkpt lat="43.9421" lon="6.50466">
        <ele>1076.722902</ele>
        <time>2020-03-27T12:11:28.440Z</time>
      </trkpt>
      <trkpt lat="43.94119" lon="6.50428">
        <ele>1084.676528</ele>
        <time>2020-03-27T12:12:25.090Z</time>
      </trkpt>
      <trkpt lat="43.94074" lon="6.50388">
        <ele>1089.327931</ele>
        <time>2020-03-27T12:12:57.929Z</time>
      </trkpt>
      <trkpt lat="43.94" lon="6.50349">
        <ele>1096.115417</ele>
        <time>2020-03-27T12:13:46.012Z</time>
      </trkpt>
      <trkpt lat="43.93967" lon="6.50341">
        <ele>1098.987457</ele>
        <time>2020-03-27T12:14:06.190Z</time>
      </trkpt>
      <trkpt lat="43.93942" lon="6.50325">
        <ele>1101.159653</ele>
        <time>2020-03-27T12:14:22.277Z</time>
      </trkpt>
      <trkpt lat="43.93935" lon="6.50307">
        <ele>1102.199553</ele>
        <time>2020-03-27T12:14:30.545Z</time>
      </trkpt>
      <trkpt lat="43.93943" lon="6.50298">
        <ele>1102.938254</ele>
        <time>2020-03-27T12:14:35.998Z</time>
      </trkpt>
      <trkpt lat="43.93966" lon="6.50312">
        <ele>1104.75101</ele>
        <time>2020-03-27T12:14:49.583Z</time>
      </trkpt>
      <trkpt lat="43.93976" lon="6.50316">
        <ele>1105.505419</ele>
        <time>2020-03-27T12:14:54.821Z</time>
      </trkpt>
      <trkpt lat="43.94" lon="6.50308">
        <ele>1107.26558</ele>
        <time>2020-03-27T12:15:07.231Z</time>
      </trkpt>
      <trkpt lat="43.94016" lon="6.50293">
        <ele>1108.656764</ele>
        <time>2020-03-27T12:15:18.134Z</time>
      </trkpt>
      <trkpt lat="43.94038" lon="6.50254">
        <ele>1111.236534</ele>
        <time>2020-03-27T12:15:37.171Z</time>
      </trkpt>
      <trkpt lat="43.94044" lon="6.50241">
        <ele>1112.023429</ele>
        <time>2020-03-27T12:15:42.452Z</time>
      </trkpt>
      <trkpt lat="43.94043" lon="6.5022">
        <ele>1113.08989</ele>
        <time>2020-03-27T12:15:50.840Z</time>
      </trkpt>
      <trkpt lat="43.94032" lon="6.50213">
        <ele>1113.979402</ele>
        <time>2020-03-27T12:15:57.511Z</time>
      </trkpt>
      <trkpt lat="43.93985" lon="6.50241">
        <ele>1117.73842</ele>
        <time>2020-03-27T12:16:23.953Z</time>
      </trkpt>
      <trkpt lat="43.93977" lon="6.50238">
        <ele>1118.377425</ele>
        <time>2020-03-27T12:16:28.907Z</time>
      </trkpt>
      <trkpt lat="43.93973" lon="6.50228">
        <ele>1118.989965</ele>
        <time>2020-03-27T12:16:33.227Z</time>
      </trkpt>
      <trkpt lat="43.93978" lon="6.50216">
        <ele>1119.684059</ele>
        <time>2020-03-27T12:16:37.330Z</time>
      </trkpt>
      <trkpt lat="43.93995" lon="6.50206">
        <ele>1121.054749</ele>
        <time>2020-03-27T12:16:47.208Z</time>
      </trkpt>
      <trkpt lat="43.94031" lon="6.50144">
        <ele>1125.2539</ele>
        <time>2020-03-27T12:17:20.303Z</time>
      </trkpt>
      <trkpt lat="43.94031" lon="6.50132">
        <ele>1125.886118</ele>
        <time>2020-03-27T12:17:25.098Z</time>
      </trkpt>
      <trkpt lat="43.94021" lon="6.50127">
        <ele>1126.826748</ele>
        <time>2020-03-27T12:17:32.048Z</time>
      </trkpt>
      <trkpt lat="43.94003" lon="6.50158">
        <ele>1129.428005</ele>
        <time>2020-03-27T12:17:49.262Z</time>
      </trkpt>
      <trkpt lat="43.93988" lon="6.50166">
        <ele>1130.902563</ele>
        <time>2020-03-27T12:17:59.961Z</time>
      </trkpt>
      <trkpt lat="43.93965" lon="6.50162">
        <ele>1133.026661</ele>
        <time>2020-03-27T12:18:13.534Z</time>
      </trkpt>
      <trkpt lat="43.93948" lon="6.50165">
        <ele>1134.595967</ele>
        <time>2020-03-27T12:18:24.929Z</time>
      </trkpt>
      <trkpt lat="43.93942" lon="6.50164">
        <ele>1135.213465</ele>
        <time>2020-03-27T12:18:28.821Z</time>
      </trkpt>
      <trkpt lat="43.93938" lon="6.50155">
        <ele>1135.882901</ele>
        <time>2020-03-27T12:18:33.011Z</time>
      </trkpt>
      <trkpt lat="43.93944" lon="6.50146">
        <ele>1136.665907</ele>
        <time>2020-03-27T12:18:38.224Z</time>
      </trkpt>
      <trkpt lat="43.9398" lon="6.50142">
        <ele>1139.969871</ele>
        <time>2020-03-27T12:19:00.495Z</time>
      </trkpt>
      <trkpt lat="43.93997" lon="6.50117">
        <ele>1142.182188</ele>
        <time>2020-03-27T12:19:15.838Z</time>
      </trkpt>
      <trkpt lat="43.94019" lon="6.50045">
        <ele>1147.700233</ele>
        <time>2020-03-27T12:19:54.516Z</time>
      </trkpt>
      <trkpt lat="43.94023" lon="6.50004">
        <ele>1150.577212</ele>
        <time>2020-03-27T12:20:13.818Z</time>
      </trkpt>
      <trkpt lat="43.94045" lon="6.49933">
        <ele>1155.950187</ele>
        <time>2020-03-27T12:20:49.202Z</time>
      </trkpt>
      <trkpt lat="43.94044" lon="6.49918">
        <ele>1157.005912</ele>
        <time>2020-03-27T12:20:56.181Z</time>
      </trkpt>
      <trkpt lat="43.94039" lon="6.4991">
        <ele>1157.763344</ele>
        <time>2020-03-27T12:21:01.181Z</time>
      </trkpt>
      <trkpt lat="43.94032" lon="6.49912">
        <ele>1158.500454</ele>
        <time>2020-03-27T12:21:05.980Z</time>
      </trkpt>
      <trkpt lat="43.94004" lon="6.49962">
        <ele>1162.739415</ele>
        <time>2020-03-27T12:21:34.276Z</time>
      </trkpt>
      <trkpt lat="43.93992" lon="6.49969">
        <ele>1163.954752</ele>
        <time>2020-03-27T12:21:42.665Z</time>
      </trkpt>
      <trkpt lat="43.93955" lon="6.49968">
        <ele>1167.342395</ele>
        <time>2020-03-27T12:22:05.784Z</time>
      </trkpt>
      <trkpt lat="43.93938" lon="6.4996">
        <ele>1168.901215</ele>
        <time>2020-03-27T12:22:16.328Z</time>
      </trkpt>
      <trkpt lat="43.93884" lon="6.49912">
        <ele>1174.807485</ele>
        <time>2020-03-27T12:22:55.400Z</time>
      </trkpt>
      <trkpt lat="43.93875" lon="6.49899">
        <ele>1175.981391</ele>
        <time>2020-03-27T12:23:03.277Z</time>
      </trkpt>
      <trkpt lat="43.93872" lon="6.4986">
        <ele>1178.424365</ele>
        <time>2020-03-27T12:23:21.267Z</time>
      </trkpt>
      <trkpt lat="43.93888" lon="6.49804">
        <ele>1182.195264</ele>
        <time>2020-03-27T12:23:49.153Z</time>
      </trkpt>
      <trkpt lat="43.93884" lon="6.49778">
        <ele>1183.79654</ele>
        <time>2020-03-27T12:24:00.744Z</time>
      </trkpt>
      <trkpt lat="43.93859" lon="6.49766">
        <ele>1186.026501</ele>
        <time>2020-03-27T12:24:16.300Z</time>
      </trkpt>
      <trkpt lat="43.93838" lon="6.49773">
        <ele>1187.868489</ele>
        <time>2020-03-27T12:24:28.166Z</time>
      </trkpt>
      <trkpt lat="43.93813" lon="6.49783">
        <ele>1190.159022</ele>
        <time>2020-03-27T12:24:44.222Z</time>
      </trkpt>
      <trkpt lat="43.93799" lon="6.49782">
        <ele>1191.362543</ele>
        <time>2020-03-27T12:24:51.624Z</time>
      </trkpt>
      <trkpt lat="43.93796" lon="6.49782">
        <ele>1191.56916</ele>
        <time>2020-03-27T12:24:53.653Z</time>
      </trkpt>
      <trkpt lat="43.93766" lon="6.49773">
        <ele>1193.785817</ele>
        <time>2020-03-27T12:25:10.374Z</time>
      </trkpt>
      <trkpt lat="43.93755" lon="6.49778">
        <ele>1194.556425</ele>
        <time>2020-03-27T12:25:17.191Z</time>
      </trkpt>
      <trkpt lat="43.93757" lon="6.49795">
        <ele>1195.364078</ele>
        <time>2020-03-27T12:25:23.534Z</time>
      </trkpt>
      <trkpt lat="43.9378" lon="6.49797">
        <ele>1196.968453</ele>
        <time>2020-03-27T12:25:36.093Z</time>
      </trkpt>
      <trkpt lat="43.93798" lon="6.49814">
        <ele>1198.426641</ele>
        <time>2020-03-27T12:25:46.852Z</time>
      </trkpt>
      <trkpt lat="43.93799" lon="6.49825">
        <ele>1198.986552</ele>
        <time>2020-03-27T12:25:51.668Z</time>
      </trkpt>
      <trkpt lat="43.93791" lon="6.49849">
        <ele>1200.28298</ele>
        <time>2020-03-27T12:26:02.020Z</time>
      </trkpt>
      <trkpt lat="43.93777" lon="6.49862">
        <ele>1201.427996</ele>
        <time>2020-03-27T12:26:10.455Z</time>
      </trkpt>
      <trkpt lat="43.93687" lon="6.49921">
        <ele>1208.056979</ele>
        <time>2020-03-27T12:26:58.946Z</time>
      </trkpt>
      <trkpt lat="43.9364" lon="6.49945">
        <ele>1211.284572</ele>
        <time>2020-03-27T12:27:24.740Z</time>
      </trkpt>
      <trkpt lat="43.93608" lon="6.49982">
        <ele>1213.978066</ele>
        <time>2020-03-27T12:27:46.546Z</time>
      </trkpt>
      <trkpt lat="43.93597" lon="6.49987">
        <ele>1214.695671</ele>
        <time>2020-03-27T12:27:52.421Z</time>
      </trkpt>
      <trkpt lat="43.9359" lon="6.49978">
        <ele>1215.332897</ele>
        <time>2020-03-27T12:27:57.661Z</time>
      </trkpt>
      <trkpt lat="43.93591" lon="6.49969">
        <ele>1215.742933</ele>
        <time>2020-03-27T12:28:00.991Z</time>
      </trkpt>
      <trkpt lat="43.93613" lon="6.49947">
        <ele>1217.842748</ele>
        <time>2020-03-27T12:28:15.405Z</time>
      </trkpt>
      <trkpt lat="43.93659" lon="6.4987">
        <ele>1223.475527</ele>
        <time>2020-03-27T12:28:55.186Z</time>
      </trkpt>
      <trkpt lat="43.93663" lon="6.49853">
        <ele>1224.453786</ele>
        <time>2020-03-27T12:29:02.332Z</time>
      </trkpt>
      <trkpt lat="43.9366" lon="6.49842">
        <ele>1225.137735</ele>
        <time>2020-03-27T12:29:07.410Z</time>
      </trkpt>
      <trkpt lat="43.93652" lon="6.49838">
        <ele>1225.817848</ele>
        <time>2020-03-27T12:29:12.562Z</time>
      </trkpt>
      <trkpt lat="43.93639" lon="6.49868">
        <ele>1227.788575</ele>
        <time>2020-03-27T12:29:27.543Z</time>
      </trkpt>
      <trkpt lat="43.93626" lon="6.49884">
        <ele>1229.117551</ele>
        <time>2020-03-27T12:29:37.857Z</time>
      </trkpt>
      <trkpt lat="43.93594" lon="6.49896">
        <ele>1232.089461</ele>
        <time>2020-03-27T12:29:58.372Z</time>
      </trkpt>
      <trkpt lat="43.93557" lon="6.49927">
        <ele>1236.049205</ele>
        <time>2020-03-27T12:30:24.603Z</time>
      </trkpt>
      <trkpt lat="43.93531" lon="6.49959">
        <ele>1239.267818</ele>
        <time>2020-03-27T12:30:46.308Z</time>
      </trkpt>
      <trkpt lat="43.93481" lon="6.49989">
        <ele>1244.309889</ele>
        <time>2020-03-27T12:31:21.304Z</time>
      </trkpt>
      <trkpt lat="43.93444" lon="6.50027">
        <ele>1248.528553</ele>
        <time>2020-03-27T12:31:51.223Z</time>
      </trkpt>
      <trkpt lat="43.93438" lon="6.50047">
        <ele>1249.91938</ele>
        <time>2020-03-27T12:32:00.981Z</time>
      </trkpt>
      <trkpt lat="43.93429" lon="6.50051">
        <ele>1250.763711</ele>
        <time>2020-03-27T12:32:07.089Z</time>
      </trkpt>
      <trkpt lat="43.9342" lon="6.50048">
        <ele>1251.568486</ele>
        <time>2020-03-27T12:32:12.707Z</time>
      </trkpt>
      <trkpt lat="43.93418" lon="6.50039">
        <ele>1252.215493</ele>
        <time>2020-03-27T12:32:17.117Z</time>
      </trkpt>
      <trkpt lat="43.93462" lon="6.49935">
        <ele>1259.994423</ele>
        <time>2020-03-27T12:33:08.987Z</time>
      </trkpt>
      <trkpt lat="43.93461" lon="6.4992">
        <ele>1260.99779</ele>
        <time>2020-03-27T12:33:15.845Z</time>
      </trkpt>
      <trkpt lat="43.93452" lon="6.49903">
        <ele>1262.359373</ele>
        <time>2020-03-27T12:33:24.883Z</time>
      </trkpt>
      <trkpt lat="43.93439" lon="6.49896">
        <ele>1263.557273</ele>
        <time>2020-03-27T12:33:33.277Z</time>
      </trkpt>
      <trkpt lat="43.93423" lon="6.49896">
        <ele>1264.931676</ele>
        <time>2020-03-27T12:33:43.076Z</time>
      </trkpt>
      <trkpt lat="43.93406" lon="6.49915">
        <ele>1266.82806</ele>
        <time>2020-03-27T12:33:56.581Z</time>
      </trkpt>
      <trkpt lat="43.93391" lon="6.49942">
        <ele>1268.901618</ele>
        <time>2020-03-27T12:34:11.405Z</time>
      </trkpt>
      <trkpt lat="43.93346" lon="6.50102">
        <ele>1279.210193</ele>
        <time>2020-03-27T12:35:25.584Z</time>
      </trkpt>
      <trkpt lat="43.93345" lon="6.50116">
        <ele>1279.836796</ele>
        <time>2020-03-27T12:35:31.167Z</time>
      </trkpt>
      <trkpt lat="43.93353" lon="6.50144">
        <ele>1281.219492</ele>
        <time>2020-03-27T12:35:43.214Z</time>
      </trkpt>
      <trkpt lat="43.93378" lon="6.5017">
        <ele>1283.217855</ele>
        <time>2020-03-27T12:36:00.043Z</time>
      </trkpt>
      <trkpt lat="43.93374" lon="6.50185">
        <ele>1283.963677</ele>
        <time>2020-03-27T12:36:06.201Z</time>
      </trkpt>
      <trkpt lat="43.93363" lon="6.50187">
        <ele>1284.64586</ele>
        <time>2020-03-27T12:36:11.568Z</time>
      </trkpt>
      <trkpt lat="43.93329" lon="6.50165">
        <ele>1287.095323</ele>
        <time>2020-03-27T12:36:30.105Z</time>
      </trkpt>
      <trkpt lat="43.93298" lon="6.50173">
        <ele>1289.089548</ele>
        <time>2020-03-27T12:36:43.431Z</time>
      </trkpt>
      <trkpt lat="43.93281" lon="6.50163">
        <ele>1289.979285</ele>
        <time>2020-03-27T12:36:52.222Z</time>
      </trkpt>
      <trkpt lat="43.93274" lon="6.50151">
        <ele>1290.276061</ele>
        <time>2020-03-27T12:36:56.027Z</time>
      </trkpt>
      <trkpt lat="43.93271" lon="6.50117">
        <ele>1290.988274</ele>
        <time>2020-03-27T12:37:07.345Z</time>
      </trkpt>
      <trkpt lat="43.93284" lon="6.50055">
        <ele>1292.330107</ele>
        <time>2020-03-27T12:37:25.617Z</time>
      </trkpt>
      <trkpt lat="43.93272" lon="6.50018">
        <ele>1293.171582</ele>
        <time>2020-03-27T12:37:35.544Z</time>
      </trkpt>
      <trkpt lat="43.93268" lon="6.50011">
        <ele>1293.343326</ele>
        <time>2020-03-27T12:37:36.973Z</time>
      </trkpt>
      <trkpt lat="43.932" lon="6.50088">
        <ele>1295.470806</ele>
        <time>2020-03-27T12:38:04.432Z</time>
      </trkpt>
      <trkpt lat="43.93176" lon="6.50117">
        <ele>1296.043751</ele>
        <time>2020-03-27T12:38:14.810Z</time>
      </trkpt>
      <trkpt lat="43.93169" lon="6.50112">
        <ele>1296.178352</ele>
        <time>2020-03-27T12:38:16.463Z</time>
      </trkpt>
      <trkpt lat="43.93159" lon="6.50118">
        <ele>1296.377911</ele>
        <time>2020-03-27T12:38:20.532Z</time>
      </trkpt>
      <trkpt lat="43.93098" lon="6.5022">
        <ele>1298.081987</ele>
        <time>2020-03-27T12:38:52.682Z</time>
      </trkpt>
      <trkpt lat="43.93079" lon="6.50276">
        <ele>1299.072058</ele>
        <time>2020-03-27T12:39:07.101Z</time>
      </trkpt>
      <trkpt lat="43.93071" lon="6.50346">
        <ele>1300.198493</ele>
        <time>2020-03-27T12:39:26.516Z</time>
      </trkpt>
      <trkpt lat="43.93058" lon="6.5037">
        <ele>1300.681738</ele>
        <time>2020-03-27T12:39:34.571Z</time>
      </trkpt>
      <trkpt lat="43.93005" lon="6.50444">
        <ele>1301.933367</ele>
        <time>2020-03-27T12:40:00.157Z</time>
      </trkpt>
      <trkpt lat="43.9292" lon="6.50514">
        <ele>1300.99672</ele>
        <time>2020-03-27T12:40:25.480Z</time>
      </trkpt>
      <trkpt lat="43.92843" lon="6.50553">
        <ele>1299.766174</ele>
        <time>2020-03-27T12:40:42.444Z</time>
      </trkpt>
      <trkpt lat="43.92796" lon="6.50593">
        <ele>1297.344711</ele>
        <time>2020-03-27T12:40:53.192Z</time>
      </trkpt>
      <trkpt lat="43.92777" lon="6.50617">
        <ele>1296.244864</ele>
        <time>2020-03-27T12:40:58.159Z</time>
      </trkpt>
      <trkpt lat="43.9276" lon="6.50643">
        <ele>1295.126095</ele>
        <time>2020-03-27T12:41:03.210Z</time>
      </trkpt>
      <trkpt lat="43.9274" lon="6.50657">
        <ele>1294.165077</ele>
        <time>2020-03-27T12:41:07.329Z</time>
      </trkpt>
      <trkpt lat="43.92716" lon="6.50663">
        <ele>1293.078378</ele>
        <time>2020-03-27T12:41:12.250Z</time>
      </trkpt>
      <trkpt lat="43.92671" lon="6.50695">
        <ele>1291.167906</ele>
        <time>2020-03-27T12:41:22.050Z</time>
      </trkpt>
      <trkpt lat="43.92665" lon="6.50712">
        <ele>1290.658654</ele>
        <time>2020-03-27T12:41:24.991Z</time>
      </trkpt>
      <trkpt lat="43.92654" lon="6.50791">
        <ele>1288.565668</ele>
        <time>2020-03-27T12:41:36.321Z</time>
      </trkpt>
      <trkpt lat="43.92629" lon="6.50835">
        <ele>1287.106885</ele>
        <time>2020-03-27T12:41:44.874Z</time>
      </trkpt>
      <trkpt lat="43.92609" lon="6.50848">
        <ele>1286.304478</ele>
        <time>2020-03-27T12:41:49.692Z</time>
      </trkpt>
      <trkpt lat="43.92572" lon="6.50849">
        <ele>1285.401456</ele>
        <time>2020-03-27T12:41:57.639Z</time>
      </trkpt>
      <trkpt lat="43.92564" lon="6.50852">
        <ele>1285.237619</ele>
        <time>2020-03-27T12:41:59.280Z</time>
      </trkpt>
      <trkpt lat="43.9256" lon="6.50853">
        <ele>1285.148134</ele>
        <time>2020-03-27T12:42:00.196Z</time>
      </trkpt>
      <trkpt lat="43.92556" lon="6.50855">
        <ele>1285.064809</ele>
        <time>2020-03-27T12:42:00.985Z</time>
      </trkpt>
      <trkpt lat="43.9253" lon="6.50869">
        <ele>1284.459148</ele>
        <time>2020-03-27T12:42:07.382Z</time>
      </trkpt>
      <trkpt lat="43.9252" lon="6.50882">
        <ele>1284.177102</ele>
        <time>2020-03-27T12:42:10.260Z</time>
      </trkpt>
      <trkpt lat="43.92509" lon="6.5089">
        <ele>1283.91323</ele>
        <time>2020-03-27T12:42:13.173Z</time>
      </trkpt>
      <trkpt lat="43.92481" lon="6.50889">
        <ele>1283.315054</ele>
        <time>2020-03-27T12:42:19.422Z</time>
      </trkpt>
      <trkpt lat="43.92439" lon="6.50913">
        <ele>1282.349911</ele>
        <time>2020-03-27T12:42:29.627Z</time>
      </trkpt>
      <trkpt lat="43.92345" lon="6.50951">
        <ele>1278.844303</ele>
        <time>2020-03-27T12:42:49.717Z</time>
      </trkpt>
      <trkpt lat="43.92276" lon="6.50966">
        <ele>1276.222037</ele>
        <time>2020-03-27T12:43:03.419Z</time>
      </trkpt>
      <trkpt lat="43.92251" lon="6.50982">
        <ele>1275.257947</ele>
        <time>2020-03-27T12:43:08.802Z</time>
      </trkpt>
      <trkpt lat="43.92228" lon="6.50998">
        <ele>1274.513989</ele>
        <time>2020-03-27T12:43:13.823Z</time>
      </trkpt>
      <trkpt lat="43.92212" lon="6.51001">
        <ele>1274.019579</ele>
        <time>2020-03-27T12:43:17.128Z</time>
      </trkpt>
      <trkpt lat="43.922" lon="6.51002">
        <ele>1273.66219</ele>
        <time>2020-03-27T12:43:19.474Z</time>
      </trkpt>
      <trkpt lat="43.92136" lon="6.51004">
        <ele>1271.775721</ele>
        <time>2020-03-27T12:43:32.568Z</time>
      </trkpt>
      <trkpt lat="43.92106" lon="6.5098">
        <ele>1270.759874</ele>
        <time>2020-03-27T12:43:39.878Z</time>
      </trkpt>
      <trkpt lat="43.92027" lon="6.50934">
        <ele>1270.205953</ele>
        <time>2020-03-27T12:44:01.870Z</time>
      </trkpt>
      <trkpt lat="43.92014" lon="6.50928">
        <ele>1270.212193</ele>
        <time>2020-03-27T12:44:05.956Z</time>
      </trkpt>
      <trkpt lat="43.91978" lon="6.50932">
        <ele>1270.229197</ele>
        <time>2020-03-27T12:44:16.678Z</time>
      </trkpt>
      <trkpt lat="43.91947" lon="6.50898">
        <ele>1270.24743</ele>
        <time>2020-03-27T12:44:27.409Z</time>
      </trkpt>
      <trkpt lat="43.91935" lon="6.50892">
        <ele>1270.253786</ele>
        <time>2020-03-27T12:44:30.936Z</time>
      </trkpt>
      <trkpt lat="43.91864" lon="6.50877">
        <ele>1269.137936</ele>
        <time>2020-03-27T12:44:48.068Z</time>
      </trkpt>
      <trkpt lat="43.91793" lon="6.50875">
        <ele>1267.800989</ele>
        <time>2020-03-27T12:45:03.658Z</time>
      </trkpt>
      <trkpt lat="43.91658" lon="6.5089">
        <ele>1263.314833</ele>
        <time>2020-03-27T12:45:31.371Z</time>
      </trkpt>
      <trkpt lat="43.91646" lon="6.50898">
        <ele>1262.78163</ele>
        <time>2020-03-27T12:45:33.969Z</time>
      </trkpt>
      <trkpt lat="43.91636" lon="6.50897">
        <ele>1262.353332</ele>
        <time>2020-03-27T12:45:36.032Z</time>
      </trkpt>
      <trkpt lat="43.91618" lon="6.5092">
        <ele>1261.342591</ele>
        <time>2020-03-27T12:45:40.894Z</time>
      </trkpt>
      <trkpt lat="43.91605" lon="6.50925">
        <ele>1260.801806</ele>
        <time>2020-03-27T12:45:43.441Z</time>
      </trkpt>
      <trkpt lat="43.91549" lon="6.50935">
        <ele>1257.111745</ele>
        <time>2020-03-27T12:45:54.330Z</time>
      </trkpt>
      <trkpt lat="43.91517" lon="6.50921">
        <ele>1253.859087</ele>
        <time>2020-03-27T12:46:00.751Z</time>
      </trkpt>
      <trkpt lat="43.91455" lon="6.50927">
        <ele>1248.001982</ele>
        <time>2020-03-27T12:46:11.090Z</time>
      </trkpt>
      <trkpt lat="43.91384" lon="6.50947">
        <ele>1240.893095</ele>
        <time>2020-03-27T12:46:23.128Z</time>
      </trkpt>
      <trkpt lat="43.91372" lon="6.50958">
        <ele>1239.326145</ele>
        <time>2020-03-27T12:46:25.489Z</time>
      </trkpt>
      <trkpt lat="43.9135" lon="6.50963">
        <ele>1236.83647</ele>
        <time>2020-03-27T12:46:29.281Z</time>
      </trkpt>
      <trkpt lat="43.91334" lon="6.50976">
        <ele>1234.780684</ele>
        <time>2020-03-27T12:46:36.887Z</time>
      </trkpt>
      <trkpt lat="43.91302" lon="6.50985">
        <ele>1231.209466</ele>
        <time>2020-03-27T12:46:50.632Z</time>
      </trkpt>
      <trkpt lat="43.91293" lon="6.50993">
        <ele>1230.02133</ele>
        <time>2020-03-27T12:46:55.155Z</time>
      </trkpt>
      <trkpt lat="43.91278" lon="6.50991">
        <ele>1228.396671</ele>
        <time>2020-03-27T12:47:01.562Z</time>
      </trkpt>
      <trkpt lat="43.91242" lon="6.50942">
        <ele>1222.918898</ele>
        <time>2020-03-27T12:47:22.825Z</time>
      </trkpt>
      <trkpt lat="43.91221" lon="6.50934">
        <ele>1221.881682</ele>
        <time>2020-03-27T12:47:32.819Z</time>
      </trkpt>
      <trkpt lat="43.91205" lon="6.50917">
        <ele>1221.163548</ele>
        <time>2020-03-27T12:47:41.561Z</time>
      </trkpt>
      <trkpt lat="43.91165" lon="6.5089">
        <ele>1219.507138</ele>
        <time>2020-03-27T12:48:04.805Z</time>
      </trkpt>
      <trkpt lat="43.9115" lon="6.50886">
        <ele>1218.940677</ele>
        <time>2020-03-27T12:48:12.919Z</time>
      </trkpt>
      <trkpt lat="43.91142" lon="6.50924">
        <ele>1217.911837</ele>
        <time>2020-03-27T12:48:27.401Z</time>
      </trkpt>
      <trkpt lat="43.91129" lon="6.50946">
        <ele>1217.120749</ele>
        <time>2020-03-27T12:48:38.431Z</time>
      </trkpt>
      <trkpt lat="43.91086" lon="6.51075">
        <ele>1214.491507</ele>
        <time>2020-03-27T12:49:31.651Z</time>
      </trkpt>
      <trkpt lat="43.91061" lon="6.5112">
        <ele>1213.64144</ele>
        <time>2020-03-27T12:49:52.603Z</time>
      </trkpt>
      <trkpt lat="43.91048" lon="6.51159">
        <ele>1212.999656</ele>
        <time>2020-03-27T12:50:08.304Z</time>
      </trkpt>
      <trkpt lat="43.91047" lon="6.51199">
        <ele>1212.392513</ele>
        <time>2020-03-27T12:50:23.108Z</time>
      </trkpt>
      <trkpt lat="43.91042" lon="6.51231">
        <ele>1211.847277</ele>
        <time>2020-03-27T12:50:34.970Z</time>
      </trkpt>
      <trkpt lat="43.91019" lon="6.51276">
        <ele>1210.879984</ele>
        <time>2020-03-27T12:50:55.017Z</time>
      </trkpt>
      <trkpt lat="43.90994" lon="6.51308">
        <ele>1210.06698</ele>
        <time>2020-03-27T12:51:11.873Z</time>
      </trkpt>
      <trkpt lat="43.90951" lon="6.51338">
        <ele>1208.875571</ele>
        <time>2020-03-27T12:51:36.875Z</time>
      </trkpt>
      <trkpt lat="43.90941" lon="6.51371">
        <ele>1208.254416</ele>
        <time>2020-03-27T12:51:49.854Z</time>
      </trkpt>
      <trkpt lat="43.90901" lon="6.51449">
        <ele>1206.904762</ele>
        <time>2020-03-27T12:52:25.324Z</time>
      </trkpt>
      <trkpt lat="43.90828" lon="6.51529">
        <ele>1205.223953</ele>
        <time>2020-03-27T12:53:13.811Z</time>
      </trkpt>
      <trkpt lat="43.90778" lon="6.51569">
        <ele>1204.100639</ele>
        <time>2020-03-27T12:53:43.974Z</time>
      </trkpt>
      <trkpt lat="43.90735" lon="6.51592">
        <ele>1203.088945</ele>
        <time>2020-03-27T12:54:08.361Z</time>
      </trkpt>
      <trkpt lat="43.90655" lon="6.51608">
        <ele>1201.331013</ele>
        <time>2020-03-27T12:54:50.177Z</time>
      </trkpt>
      <trkpt lat="43.9064" lon="6.51616">
        <ele>1200.982844</ele>
        <time>2020-03-27T12:54:58.258Z</time>
      </trkpt>
      <trkpt lat="43.90637" lon="6.51628">
        <ele>1200.783407</ele>
        <time>2020-03-27T12:55:02.722Z</time>
      </trkpt>
      <trkpt lat="43.90642" lon="6.51658">
        <ele>1199.530068</ele>
        <time>2020-03-27T12:55:13.493Z</time>
      </trkpt>
      <trkpt lat="43.90638" lon="6.51714">
        <ele>1196.871887</ele>
        <time>2020-03-27T12:55:32.802Z</time>
      </trkpt>
      <trkpt lat="43.90561" lon="6.51868">
        <ele>1187.218989</ele>
        <time>2020-03-27T12:56:33.479Z</time>
      </trkpt>
      <trkpt lat="43.90526" lon="6.51972">
        <ele>1176.830729</ele>
        <time>2020-03-27T12:57:08.375Z</time>
      </trkpt>
      <trkpt lat="43.90511" lon="6.52044">
        <ele>1170.096548</ele>
        <time>2020-03-27T12:57:30.385Z</time>
      </trkpt>
      <trkpt lat="43.90492" lon="6.521">
        <ele>1163.961096</ele>
        <time>2020-03-27T12:57:48.434Z</time>
      </trkpt>
      <trkpt lat="43.90483" lon="6.52146">
        <ele>1158.528384</ele>
        <time>2020-03-27T12:58:02.040Z</time>
      </trkpt>
      <trkpt lat="43.90472" lon="6.52164">
        <ele>1155.752669</ele>
        <time>2020-03-27T12:58:08.934Z</time>
      </trkpt>
      <trkpt lat="43.90457" lon="6.52162">
        <ele>1153.385336</ele>
        <time>2020-03-27T12:58:14.814Z</time>
      </trkpt>
      <trkpt lat="43.90412" lon="6.52196">
        <ele>1145.145285</ele>
        <time>2020-03-27T12:58:35.337Z</time>
      </trkpt>
      <trkpt lat="43.90397" lon="6.52196">
        <ele>1142.82738</ele>
        <time>2020-03-27T12:58:41.106Z</time>
      </trkpt>
      <trkpt lat="43.90372" lon="6.52186">
        <ele>1138.61829</ele>
        <time>2020-03-27T12:58:51.579Z</time>
      </trkpt>
      <trkpt lat="43.90287" lon="6.52009">
        <ele>1115.258933</ele>
        <time>2020-03-27T12:59:53.433Z</time>
      </trkpt>
      <trkpt lat="43.90253" lon="6.51974">
        <ele>1108.884702</ele>
        <time>2020-03-27T13:00:10.714Z</time>
      </trkpt>
      <trkpt lat="43.90236" lon="6.51973">
        <ele>1106.499605</ele>
        <time>2020-03-27T13:00:17.332Z</time>
      </trkpt>
      <trkpt lat="43.90218" lon="6.51973">
        <ele>1103.840972</ele>
        <time>2020-03-27T13:00:20.341Z</time>
      </trkpt>
      <trkpt lat="43.90208" lon="6.51976">
        <ele>1102.376481</ele>
        <time>2020-03-27T13:00:21.985Z</time>
      </trkpt>
      <trkpt lat="43.90223" lon="6.51997">
        <ele>1099.276207</ele>
        <time>2020-03-27T13:00:25.477Z</time>
      </trkpt>
      <trkpt lat="43.9023" lon="6.52013">
        <ele>1097.336698</ele>
        <time>2020-03-27T13:00:27.678Z</time>
      </trkpt>
      <trkpt lat="43.90229" lon="6.5203">
        <ele>1095.499043</ele>
        <time>2020-03-27T13:00:29.744Z</time>
      </trkpt>
      <trkpt lat="43.90219" lon="6.52042">
        <ele>1093.545217</ele>
        <time>2020-03-27T13:00:31.973Z</time>
      </trkpt>
      <trkpt lat="43.90236" lon="6.52097">
        <ele>1087.357826</ele>
        <time>2020-03-27T13:00:38.938Z</time>
      </trkpt>
      <trkpt lat="43.90232" lon="6.5213">
        <ele>1083.9353</ele>
        <time>2020-03-27T13:00:42.824Z</time>
      </trkpt>
      <trkpt lat="43.90238" lon="6.52157">
        <ele>1081.251372</ele>
        <time>2020-03-27T13:00:46.222Z</time>
      </trkpt>
      <trkpt lat="43.90235" lon="6.52176">
        <ele>1079.504678</ele>
        <time>2020-03-27T13:00:48.441Z</time>
      </trkpt>
      <trkpt lat="43.90183" lon="6.52217">
        <ele>1071.681095</ele>
        <time>2020-03-27T13:00:58.435Z</time>
      </trkpt>
      <trkpt lat="43.90175" lon="6.5228">
        <ele>1065.734808</ele>
        <time>2020-03-27T13:01:06.060Z</time>
      </trkpt>
      <trkpt lat="43.90138" lon="6.52338">
        <ele>1059.168838</ele>
        <time>2020-03-27T13:01:15.493Z</time>
      </trkpt>
      <trkpt lat="43.90127" lon="6.52345">
        <ele>1058.124323</ele>
        <time>2020-03-27T13:01:17.402Z</time>
      </trkpt>
      <trkpt lat="43.90115" lon="6.52348">
        <ele>1056.998057</ele>
        <time>2020-03-27T13:01:19.466Z</time>
      </trkpt>
      <trkpt lat="43.90109" lon="6.52343">
        <ele>1056.353952</ele>
        <time>2020-03-27T13:01:20.620Z</time>
      </trkpt>
      <trkpt lat="43.90105" lon="6.52311">
        <ele>1054.196688</ele>
        <time>2020-03-27T13:01:24.665Z</time>
      </trkpt>
      <trkpt lat="43.90083" lon="6.52275">
        <ele>1051.045762</ele>
        <time>2020-03-27T13:01:30.654Z</time>
      </trkpt>
      <trkpt lat="43.90072" lon="6.52271">
        <ele>1050.047549</ele>
        <time>2020-03-27T13:01:32.597Z</time>
      </trkpt>
      <trkpt lat="43.90029" lon="6.52295">
        <ele>1045.786945</ele>
        <time>2020-03-27T13:01:41.113Z</time>
      </trkpt>
      <trkpt lat="43.90016" lon="6.52292">
        <ele>1044.582298</ele>
        <time>2020-03-27T13:01:43.431Z</time>
      </trkpt>
      <trkpt lat="43.90018" lon="6.5228">
        <ele>1044.490259</ele>
        <time>2020-03-27T13:01:44.389Z</time>
      </trkpt>
      <trkpt lat="43.9" lon="6.52204">
        <ele>1043.952627</ele>
        <time>2020-03-27T13:01:51.015Z</time>
      </trkpt>
      <trkpt lat="43.89983" lon="6.5216">
        <ele>1043.611207</ele>
        <time>2020-03-27T13:01:55.972Z</time>
      </trkpt>
      <trkpt lat="43.89982" lon="6.52127">
        <ele>1043.389386</ele>
        <time>2020-03-27T13:02:00.732Z</time>
      </trkpt>
      <trkpt lat="43.89976" lon="6.52111">
        <ele>1043.265802</ele>
        <time>2020-03-27T13:02:02.446Z</time>
      </trkpt>
      <trkpt lat="43.89939" lon="6.52093">
        <ele>1042.899642</ele>
        <time>2020-03-27T13:02:12.737Z</time>
      </trkpt>
      <trkpt lat="43.89911" lon="6.52067">
        <ele>1044.41205</ele>
        <time>2020-03-27T13:02:23.149Z</time>
      </trkpt>
      <trkpt lat="43.89896" lon="6.52037">
        <ele>1045.683923</ele>
        <time>2020-03-27T13:02:32.169Z</time>
      </trkpt>
      <trkpt lat="43.89894" lon="6.52018">
        <ele>1046.345259</ele>
        <time>2020-03-27T13:02:36.771Z</time>
      </trkpt>
      <trkpt lat="43.89905" lon="6.51987">
        <ele>1047.563642</ele>
        <time>2020-03-27T13:02:46.130Z</time>
      </trkpt>
      <trkpt lat="43.89909" lon="6.51928">
        <ele>1049.611661</ele>
        <time>2020-03-27T13:03:02.236Z</time>
      </trkpt>
      <trkpt lat="43.89918" lon="6.51896">
        <ele>1050.813085</ele>
        <time>2020-03-27T13:03:13.610Z</time>
      </trkpt>
      <trkpt lat="43.89905" lon="6.51827">
        <ele>1052.5332</ele>
        <time>2020-03-27T13:03:32.764Z</time>
      </trkpt>
      <trkpt lat="43.89915" lon="6.51743">
        <ele>1054.174899</ele>
        <time>2020-03-27T13:03:50.100Z</time>
      </trkpt>
      <trkpt lat="43.89903" lon="6.51727">
        <ele>1054.608341</ele>
        <time>2020-03-27T13:03:53.532Z</time>
      </trkpt>
      <trkpt lat="43.89884" lon="6.51724">
        <ele>1055.124779</ele>
        <time>2020-03-27T13:03:58.102Z</time>
      </trkpt>
      <trkpt lat="43.8987" lon="6.51724">
        <ele>1055.504715</ele>
        <time>2020-03-27T13:04:01.106Z</time>
      </trkpt>
      <trkpt lat="43.89863" lon="6.51729">
        <ele>1055.707308</ele>
        <time>2020-03-27T13:04:01.952Z</time>
      </trkpt>
      <trkpt lat="43.89853" lon="6.51755">
        <ele>1056.272439</ele>
        <time>2020-03-27T13:04:06.572Z</time>
      </trkpt>
      <trkpt lat="43.89797" lon="6.51774">
        <ele>1056.223504</ele>
        <time>2020-03-27T13:04:14.654Z</time>
      </trkpt>
      <trkpt lat="43.89766" lon="6.51801">
        <ele>1056.112689</ele>
        <time>2020-03-27T13:04:19.464Z</time>
      </trkpt>
      <trkpt lat="43.89744" lon="6.51805">
        <ele>1056.044455</ele>
        <time>2020-03-27T13:04:22.571Z</time>
      </trkpt>
      <trkpt lat="43.89718" lon="6.51818">
        <ele>1055.960149</ele>
        <time>2020-03-27T13:04:25.771Z</time>
      </trkpt>
      <trkpt lat="43.89679" lon="6.51797">
        <ele>1055.902038</ele>
        <time>2020-03-27T13:04:33.010Z</time>
      </trkpt>
      <trkpt lat="43.89636" lon="6.51726">
        <ele>1059.01298</ele>
        <time>2020-03-27T13:04:49.848Z</time>
      </trkpt>
      <trkpt lat="43.89599" lon="6.51688">
        <ele>1061.165012</ele>
        <time>2020-03-27T13:05:05.174Z</time>
      </trkpt>
      <trkpt lat="43.89584" lon="6.51657">
        <ele>1062.433397</ele>
        <time>2020-03-27T13:05:17.773Z</time>
      </trkpt>
      <trkpt lat="43.8951" lon="6.51557">
        <ele>1070.39351</ele>
        <time>2020-03-27T13:06:07.300Z</time>
      </trkpt>
      <trkpt lat="43.89497" lon="6.51534">
        <ele>1072.372614</ele>
        <time>2020-03-27T13:06:18.286Z</time>
      </trkpt>
      <trkpt lat="43.89489" lon="6.51513">
        <ele>1073.987893</ele>
        <time>2020-03-27T13:06:29.931Z</time>
      </trkpt>
      <trkpt lat="43.89487" lon="6.51488">
        <ele>1075.762828</ele>
        <time>2020-03-27T13:06:39.208Z</time>
      </trkpt>
      <trkpt lat="43.8944" lon="6.51401">
        <ele>1083.311521</ele>
        <time>2020-03-27T13:07:22.899Z</time>
      </trkpt>
      <trkpt lat="43.89438" lon="6.51382">
        <ele>1084.66013</ele>
        <time>2020-03-27T13:07:32.257Z</time>
      </trkpt>
      <trkpt lat="43.89436" lon="6.51348">
        <ele>1087.11792</ele>
        <time>2020-03-27T13:07:46.933Z</time>
      </trkpt>
      <trkpt lat="43.89436" lon="6.5134">
        <ele>1087.6718</ele>
        <time>2020-03-27T13:07:51.540Z</time>
      </trkpt>
      <trkpt lat="43.89424" lon="6.51286">
        <ele>1091.707318</ele>
        <time>2020-03-27T13:08:13.066Z</time>
      </trkpt>
      <trkpt lat="43.89381" lon="6.5123">
        <ele>1097.468706</ele>
        <time>2020-03-27T13:08:43.230Z</time>
      </trkpt>
      <trkpt lat="43.89374" lon="6.51222">
        <ele>1098.384368</ele>
        <time>2020-03-27T13:08:48.879Z</time>
      </trkpt>
      <trkpt lat="43.89359" lon="6.51203">
        <ele>1100.073436</ele>
        <time>2020-03-27T13:08:59.174Z</time>
      </trkpt>
      <trkpt lat="43.89347" lon="6.5118">
        <ele>1101.597533</ele>
        <time>2020-03-27T13:09:09.483Z</time>
      </trkpt>
      <trkpt lat="43.89335" lon="6.51123">
        <ele>1104.859138</ele>
        <time>2020-03-27T13:09:29.496Z</time>
      </trkpt>
      <trkpt lat="43.89328" lon="6.51115">
        <ele>1105.546271</ele>
        <time>2020-03-27T13:09:33.792Z</time>
      </trkpt>
      <trkpt lat="43.89304" lon="6.51106">
        <ele>1107.397933</ele>
        <time>2020-03-27T13:09:44.573Z</time>
      </trkpt>
      <trkpt lat="43.89279" lon="6.51068">
        <ele>1110.259534</ele>
        <time>2020-03-27T13:10:02.130Z</time>
      </trkpt>
      <trkpt lat="43.89254" lon="6.51048">
        <ele>1112.396597</ele>
        <time>2020-03-27T13:10:13.126Z</time>
      </trkpt>
      <trkpt lat="43.89251" lon="6.51032">
        <ele>1113.040357</ele>
        <time>2020-03-27T13:10:18.446Z</time>
      </trkpt>
      <trkpt lat="43.8925" lon="6.51024">
        <ele>1113.296541</ele>
        <time>2020-03-27T13:10:20.356Z</time>
      </trkpt>
      <trkpt lat="43.89249" lon="6.50979">
        <ele>1114.762224</ele>
        <time>2020-03-27T13:10:32.400Z</time>
      </trkpt>
      <trkpt lat="43.89227" lon="6.5091">
        <ele>1117.220135</ele>
        <time>2020-03-27T13:10:50.723Z</time>
      </trkpt>
      <trkpt lat="43.89198" lon="6.50776">
        <ele>1121.209938</ele>
        <time>2020-03-27T13:11:21.361Z</time>
      </trkpt>
      <trkpt lat="43.89225" lon="6.507">
        <ele>1122.381999</ele>
        <time>2020-03-27T13:11:35.207Z</time>
      </trkpt>
      <trkpt lat="43.89235" lon="6.50645">
        <ele>1123.150791</ele>
        <time>2020-03-27T13:11:43.673Z</time>
      </trkpt>
      <trkpt lat="43.89227" lon="6.50503">
        <ele>1124.913311</ele>
        <time>2020-03-27T13:12:04.538Z</time>
      </trkpt>
      <trkpt lat="43.89238" lon="6.50455">
        <ele>1125.468859</ele>
        <time>2020-03-27T13:12:12.325Z</time>
      </trkpt>
      <trkpt lat="43.89241" lon="6.50408">
        <ele>1125.98317</ele>
        <time>2020-03-27T13:12:22.020Z</time>
      </trkpt>
      <trkpt lat="43.89233" lon="6.50316">
        <ele>1126.785532</ele>
        <time>2020-03-27T13:12:37.400Z</time>
      </trkpt>
      <trkpt lat="43.89239" lon="6.50293">
        <ele>1126.188455</ele>
        <time>2020-03-27T13:12:39.808Z</time>
      </trkpt>
      <trkpt lat="43.89277" lon="6.50261">
        <ele>1124.728924</ele>
        <time>2020-03-27T13:12:45.328Z</time>
      </trkpt>
      <trkpt lat="43.89278" lon="6.50256">
        <ele>1124.61548</ele>
        <time>2020-03-27T13:12:47.648Z</time>
      </trkpt>
      <trkpt lat="43.89281" lon="6.50249">
        <ele>1124.419137</ele>
        <time>2020-03-27T13:12:48.862Z</time>
      </trkpt>
      <trkpt lat="43.89278" lon="6.5024">
        <ele>1124.170816</ele>
        <time>2020-03-27T13:12:50.498Z</time>
      </trkpt>
      <trkpt lat="43.89273" lon="6.50237">
        <ele>1124.007278</ele>
        <time>2020-03-27T13:12:51.683Z</time>
      </trkpt>
      <trkpt lat="43.89263" lon="6.50228">
        <ele>1123.610098</ele>
        <time>2020-03-27T13:12:52.934Z</time>
      </trkpt>
      <trkpt lat="43.89237" lon="6.50202">
        <ele>1122.539646</ele>
        <time>2020-03-27T13:12:56.818Z</time>
      </trkpt>
      <trkpt lat="43.89219" lon="6.50192">
        <ele>1121.881031</ele>
        <time>2020-03-27T13:12:58.838Z</time>
      </trkpt>
      <trkpt lat="43.89209" lon="6.50187">
        <ele>1121.548627</ele>
        <time>2020-03-27T13:12:59.847Z</time>
      </trkpt>
      <trkpt lat="43.89187" lon="6.50176">
        <ele>1120.295014</ele>
        <time>2020-03-27T13:13:03.997Z</time>
      </trkpt>
      <trkpt lat="43.8918" lon="6.50176">
        <ele>1119.546386</ele>
        <time>2020-03-27T13:13:05.198Z</time>
      </trkpt>
      <trkpt lat="43.89157" lon="6.50197">
        <ele>1116.459025</ele>
        <time>2020-03-27T13:13:09.983Z</time>
      </trkpt>
      <trkpt lat="43.89145" lon="6.50185">
        <ele>1114.713065</ele>
        <time>2020-03-27T13:13:12.643Z</time>
      </trkpt>
      <trkpt lat="43.89108" lon="6.50168">
        <ele>1110.359083</ele>
        <time>2020-03-27T13:13:19.135Z</time>
      </trkpt>
      <trkpt lat="43.89094" lon="6.50164">
        <ele>1108.786663</ele>
        <time>2020-03-27T13:13:21.422Z</time>
      </trkpt>
      <trkpt lat="43.89075" lon="6.50159">
        <ele>1106.595651</ele>
        <time>2020-03-27T13:13:29.579Z</time>
      </trkpt>
      <trkpt lat="43.89028" lon="6.50135">
        <ele>1101.098974</ele>
        <time>2020-03-27T13:13:50.104Z</time>
      </trkpt>
      <trkpt lat="43.8898" lon="6.50171">
        <ele>1095.800301</ele>
        <time>2020-03-27T13:14:12.930Z</time>
      </trkpt>
      <trkpt lat="43.88956" lon="6.50198">
        <ele>1092.771545</ele>
        <time>2020-03-27T13:14:26.021Z</time>
      </trkpt>
      <trkpt lat="43.88928" lon="6.50215">
        <ele>1089.853736</ele>
        <time>2020-03-27T13:14:39.074Z</time>
      </trkpt>
      <trkpt lat="43.88903" lon="6.50223">
        <ele>1087.324872</ele>
        <time>2020-03-27T13:14:50.743Z</time>
      </trkpt>
      <trkpt lat="43.88869" lon="6.50211">
        <ele>1083.930135</ele>
        <time>2020-03-27T13:15:06.556Z</time>
      </trkpt>
      <trkpt lat="43.88856" lon="6.50181">
        <ele>1082.616743</ele>
        <time>2020-03-27T13:15:17.902Z</time>
      </trkpt>
      <trkpt lat="43.8884" lon="6.50179">
        <ele>1081.904292</ele>
        <time>2020-03-27T13:15:25.341Z</time>
      </trkpt>
      <trkpt lat="43.88831" lon="6.50184">
        <ele>1081.476117</ele>
        <time>2020-03-27T13:15:29.865Z</time>
      </trkpt>
      <trkpt lat="43.88807" lon="6.50215">
        <ele>1080.029243</ele>
        <time>2020-03-27T13:15:45.186Z</time>
      </trkpt>
      <trkpt lat="43.88758" lon="6.50241">
        <ele>1077.72882</ele>
        <time>2020-03-27T13:16:10.464Z</time>
      </trkpt>
      <trkpt lat="43.88703" lon="6.50211">
        <ele>1075.632862</ele>
        <time>2020-03-27T13:16:40.764Z</time>
      </trkpt>
      <trkpt lat="43.88687" lon="6.50196">
        <ele>1075.655533</ele>
        <time>2020-03-27T13:16:50.886Z</time>
      </trkpt>
      <trkpt lat="43.88671" lon="6.50213">
        <ele>1075.679732</ele>
        <time>2020-03-27T13:16:56.014Z</time>
      </trkpt>
      <trkpt lat="43.88611" lon="6.50238">
        <ele>1075.754457</ele>
        <time>2020-03-27T13:17:13.099Z</time>
      </trkpt>
      <trkpt lat="43.88588" lon="6.50264">
        <ele>1075.788976</ele>
        <time>2020-03-27T13:17:21.869Z</time>
      </trkpt>
      <trkpt lat="43.88553" lon="6.50281">
        <ele>1075.834034</ele>
        <time>2020-03-27T13:17:33.571Z</time>
      </trkpt>
      <trkpt lat="43.88471" lon="6.50368">
        <ele>1076.13898</ele>
        <time>2020-03-27T13:18:05.897Z</time>
      </trkpt>
      <trkpt lat="43.88417" lon="6.50447">
        <ele>1076.199347</ele>
        <time>2020-03-27T13:18:24.957Z</time>
      </trkpt>
      <trkpt lat="43.88377" lon="6.50525">
        <ele>1071.117939</ele>
        <time>2020-03-27T13:18:39.320Z</time>
      </trkpt>
      <trkpt lat="43.88368" lon="6.50557">
        <ele>1069.307714</ele>
        <time>2020-03-27T13:18:43.808Z</time>
      </trkpt>
      <trkpt lat="43.8831" lon="6.50652">
        <ele>1062.119212</ele>
        <time>2020-03-27T13:18:59.056Z</time>
      </trkpt>
      <trkpt lat="43.88292" lon="6.50674">
        <ele>1057.941839</ele>
        <time>2020-03-27T13:19:02.888Z</time>
      </trkpt>
      <trkpt lat="43.88289" lon="6.50679">
        <ele>1057.110269</ele>
        <time>2020-03-27T13:19:03.316Z</time>
      </trkpt>
      <trkpt lat="43.88284" lon="6.50684">
        <ele>1056.008573</ele>
        <time>2020-03-27T13:19:03.939Z</time>
      </trkpt>
      <trkpt lat="43.88277" lon="6.50688">
        <ele>1054.634203</ele>
        <time>2020-03-27T13:19:04.679Z</time>
      </trkpt>
      <trkpt lat="43.88272" lon="6.50675">
        <ele>1052.850263</ele>
        <time>2020-03-27T13:19:08.584Z</time>
      </trkpt>
      <trkpt lat="43.88262" lon="6.50671">
        <ele>1050.897496</ele>
        <time>2020-03-27T13:19:13.046Z</time>
      </trkpt>
      <trkpt lat="43.88257" lon="6.5068">
        <ele>1049.452027</ele>
        <time>2020-03-27T13:19:16.588Z</time>
      </trkpt>
      <trkpt lat="43.8825" lon="6.50678">
        <ele>1048.196829</ele>
        <time>2020-03-27T13:19:19.539Z</time>
      </trkpt>
      <trkpt lat="43.88249" lon="6.50676">
        <ele>1047.832429</ele>
        <time>2020-03-27T13:19:20.341Z</time>
      </trkpt>
      <trkpt lat="43.88233" lon="6.50685">
        <ele>1044.725119</ele>
        <time>2020-03-27T13:19:32.821Z</time>
      </trkpt>
      <trkpt lat="43.88225" lon="6.50678">
        <ele>1043.145421</ele>
        <time>2020-03-27T13:19:39.124Z</time>
      </trkpt>
      <trkpt lat="43.88207" lon="6.50695">
        <ele>1039.343652</ele>
        <time>2020-03-27T13:19:54.403Z</time>
      </trkpt>
      <trkpt lat="43.88196" lon="6.50691">
        <ele>1037.327174</ele>
        <time>2020-03-27T13:20:02.484Z</time>
      </trkpt>
      <trkpt lat="43.88175" lon="6.50701">
        <ele>1033.526968</ele>
        <time>2020-03-27T13:20:17.954Z</time>
      </trkpt>
      <trkpt lat="43.88163" lon="6.507">
        <ele>1031.182217</ele>
        <time>2020-03-27T13:20:27.129Z</time>
      </trkpt>
      <trkpt lat="43.88157" lon="6.50693">
        <ele>1029.485606</ele>
        <time>2020-03-27T13:20:32.364Z</time>
      </trkpt>
      <trkpt lat="43.8818" lon="6.50679">
        <ele>1023.641189</ele>
        <time>2020-03-27T13:20:50.702Z</time>
      </trkpt>
      <trkpt lat="43.88187" lon="6.50664">
        <ele>1020.713192</ele>
        <time>2020-03-27T13:20:59.758Z</time>
      </trkpt>
      <trkpt lat="43.88155" lon="6.50679">
        <ele>1013.080942</ele>
        <time>2020-03-27T13:21:23.582Z</time>
      </trkpt>
      <trkpt lat="43.88141" lon="6.50673">
        <ele>1009.641389</ele>
        <time>2020-03-27T13:21:34.261Z</time>
      </trkpt>
      <trkpt lat="43.88129" lon="6.50681">
        <ele>1006.585402</ele>
        <time>2020-03-27T13:21:43.786Z</time>
      </trkpt>
      <trkpt lat="43.88111" lon="6.5069">
        <ele>1002.326053</ele>
        <time>2020-03-27T13:21:56.996Z</time>
      </trkpt>
      <trkpt lat="43.88109" lon="6.50683">
        <ele>1001.078105</ele>
        <time>2020-03-27T13:22:00.849Z</time>
      </trkpt>
      <trkpt lat="43.88099" lon="6.50687">
        <ele>998.598186</ele>
        <time>2020-03-27T13:22:08.577Z</time>
      </trkpt>
      <trkpt lat="43.8807" lon="6.50697">
        <ele>991.849975</ele>
        <time>2020-03-27T13:22:29.462Z</time>
      </trkpt>
      <trkpt lat="43.88027" lon="6.50728">
        <ele>984.227035</ele>
        <time>2020-03-27T13:23:03.488Z</time>
      </trkpt>
      <trkpt lat="43.88008" lon="6.50743">
        <ele>980.965164</ele>
        <time>2020-03-27T13:23:19.077Z</time>
      </trkpt>
      <trkpt lat="43.88009" lon="6.5074">
        <ele>980.626524</ele>
        <time>2020-03-27T13:23:19.288Z</time>
      </trkpt>
      <trkpt lat="43.88042" lon="6.50647">
        <ele>969.470067</ele>
        <time>2020-03-27T13:23:26.218Z</time>
      </trkpt>
      <trkpt lat="43.88075" lon="6.50614">
        <ele>963.772211</ele>
        <time>2020-03-27T13:23:30.136Z</time>
      </trkpt>
      <trkpt lat="43.8808" lon="6.50599">
        <ele>963.081096</ele>
        <time>2020-03-27T13:23:31.309Z</time>
      </trkpt>
      <trkpt lat="43.88058" lon="6.5057">
        <ele>961.285722</ele>
        <time>2020-03-27T13:23:34.490Z</time>
      </trkpt>
      <trkpt lat="43.88022" lon="6.5049">
        <ele>957.399867</ele>
        <time>2020-03-27T13:23:41.880Z</time>
      </trkpt>
      <trkpt lat="43.88018" lon="6.50445">
        <ele>955.50945</ele>
        <time>2020-03-27T13:23:45.489Z</time>
      </trkpt>
      <trkpt lat="43.88021" lon="6.50336">
        <ele>951.198195</ele>
        <time>2020-03-27T13:23:53.917Z</time>
      </trkpt>
      <trkpt lat="43.88018" lon="6.50295">
        <ele>949.622688</ele>
        <time>2020-03-27T13:23:57.034Z</time>
      </trkpt>
      <trkpt lat="43.88011" lon="6.50273">
        <ele>948.678346</ele>
        <time>2020-03-27T13:23:58.871Z</time>
      </trkpt>
      <trkpt lat="43.88005" lon="6.50265">
        <ele>948.224475</ele>
        <time>2020-03-27T13:23:59.801Z</time>
      </trkpt>
      <trkpt lat="43.8795" lon="6.50222">
        <ele>944.863686</ele>
        <time>2020-03-27T13:24:06.405Z</time>
      </trkpt>
      <trkpt lat="43.87936" lon="6.50218">
        <ele>944.107292</ele>
        <time>2020-03-27T13:24:07.972Z</time>
      </trkpt>
      <trkpt lat="43.87931" lon="6.50219">
        <ele>943.818086</ele>
        <time>2020-03-27T13:24:08.486Z</time>
      </trkpt>
      <trkpt lat="43.8792" lon="6.50228">
        <ele>943.075172</ele>
        <time>2020-03-27T13:24:09.824Z</time>
      </trkpt>
      <trkpt lat="43.87871" lon="6.50304">
        <ele>938.853991</ele>
        <time>2020-03-27T13:24:17.491Z</time>
      </trkpt>
      <trkpt lat="43.87836" lon="6.50338">
        <ele>936.36255</ele>
        <time>2020-03-27T13:24:21.966Z</time>
      </trkpt>
      <trkpt lat="43.87803" lon="6.50387">
        <ele>933.576813</ele>
        <time>2020-03-27T13:24:26.965Z</time>
      </trkpt>
      <trkpt lat="43.87776" lon="6.50432">
        <ele>931.234728</ele>
        <time>2020-03-27T13:24:31.348Z</time>
      </trkpt>
      <trkpt lat="43.87772" lon="6.5044">
        <ele>930.846722</ele>
        <time>2020-03-27T13:24:32.079Z</time>
      </trkpt>
      <trkpt lat="43.87708" lon="6.50556">
        <ele>924.932356</ele>
        <time>2020-03-27T13:24:43.131Z</time>
      </trkpt>
      <trkpt lat="43.87665" lon="6.50647">
        <ele>920.982342</ele>
        <time>2020-03-27T13:24:51.356Z</time>
      </trkpt>
      <trkpt lat="43.87645" lon="6.50729">
        <ele>917.996996</ele>
        <time>2020-03-27T13:24:58.118Z</time>
      </trkpt>
      <trkpt lat="43.87629" lon="6.50774">
        <ele>916.27708</ele>
        <time>2020-03-27T13:25:02.152Z</time>
      </trkpt>
      <trkpt lat="43.87614" lon="6.50809">
        <ele>914.893171</ele>
        <time>2020-03-27T13:25:05.405Z</time>
      </trkpt>
      <trkpt lat="43.87594" lon="6.50837">
        <ele>913.729759</ele>
        <time>2020-03-27T13:25:08.555Z</time>
      </trkpt>
      <trkpt lat="43.87583" lon="6.50845">
        <ele>913.218985</ele>
        <time>2020-03-27T13:25:09.906Z</time>
      </trkpt>
      <trkpt lat="43.8758" lon="6.50846">
        <ele>913.094055</ele>
        <time>2020-03-27T13:25:10.245Z</time>
      </trkpt>
      <trkpt lat="43.8757" lon="6.50846">
        <ele>912.689129</ele>
        <time>2020-03-27T13:25:11.347Z</time>
      </trkpt>
      <trkpt lat="43.87562" lon="6.50845">
        <ele>912.341384</ele>
        <time>2020-03-27T13:25:12.290Z</time>
      </trkpt>
      <trkpt lat="43.87527" lon="6.50828">
        <ele>910.846557</ele>
        <time>2020-03-27T13:25:16.297Z</time>
      </trkpt>
      <trkpt lat="43.87515" lon="6.50829">
        <ele>910.347018</ele>
        <time>2020-03-27T13:25:17.618Z</time>
      </trkpt>
      <trkpt lat="43.87506" lon="6.50838">
        <ele>909.870055</ele>
        <time>2020-03-27T13:25:18.932Z</time>
      </trkpt>
      <trkpt lat="43.87468" lon="6.50901">
        <ele>907.477851</ele>
        <time>2020-03-27T13:25:25.503Z</time>
      </trkpt>
      <trkpt lat="43.87407" lon="6.51003">
        <ele>904.003284</ele>
        <time>2020-03-27T13:25:36.084Z</time>
      </trkpt>
      <trkpt lat="43.87379" lon="6.51031">
        <ele>902.744697</ele>
        <time>2020-03-27T13:25:39.924Z</time>
      </trkpt>
      <trkpt lat="43.87323" lon="6.51063">
        <ele>900.914229</ele>
        <time>2020-03-27T13:25:46.760Z</time>
      </trkpt>
      <trkpt lat="43.87207" lon="6.5111">
        <ele>899.456635</ele>
        <time>2020-03-27T13:26:03.081Z</time>
      </trkpt>
      <trkpt lat="43.87174" lon="6.51128">
        <ele>899.02812</ele>
        <time>2020-03-27T13:26:09.587Z</time>
      </trkpt>
      <trkpt lat="43.87141" lon="6.51137">
        <ele>898.483105</ele>
        <time>2020-03-27T13:26:14.350Z</time>
      </trkpt>
      <trkpt lat="43.87127" lon="6.51141">
        <ele>898.228797</ele>
        <time>2020-03-27T13:26:16.286Z</time>
      </trkpt>
      <trkpt lat="43.87114" lon="6.51143">
        <ele>898.004</ele>
        <time>2020-03-27T13:26:17.807Z</time>
      </trkpt>
      <trkpt lat="43.87108" lon="6.51143">
        <ele>897.905703</ele>
        <time>2020-03-27T13:26:19.048Z</time>
      </trkpt>
      <trkpt lat="43.87091" lon="6.51158">
        <ele>897.549846</ele>
        <time>2020-03-27T13:26:21.562Z</time>
      </trkpt>
      <trkpt lat="43.87087" lon="6.51165">
        <ele>897.448407</ele>
        <time>2020-03-27T13:26:22.237Z</time>
      </trkpt>
      <trkpt lat="43.87084" lon="6.51169">
        <ele>897.369477</ele>
        <time>2020-03-27T13:26:22.768Z</time>
      </trkpt>
      <trkpt lat="43.87077" lon="6.51175">
        <ele>897.230658</ele>
        <time>2020-03-27T13:26:23.675Z</time>
      </trkpt>
      <trkpt lat="43.87073" lon="6.51185">
        <ele>897.072896</ele>
        <time>2020-03-27T13:26:24.583Z</time>
      </trkpt>
      <trkpt lat="43.87073" lon="6.5119">
        <ele>897.012376</ele>
        <time>2020-03-27T13:26:25.260Z</time>
      </trkpt>
      <trkpt lat="43.87069" lon="6.51187">
        <ele>896.939831</ele>
        <time>2020-03-27T13:26:25.721Z</time>
      </trkpt>
      <trkpt lat="43.87025" lon="6.51144">
        <ele>895.998172</ele>
        <time>2020-03-27T13:26:32.483Z</time>
      </trkpt>
      <trkpt lat="43.86971" lon="6.51094">
        <ele>894.20607</ele>
        <time>2020-03-27T13:26:40.953Z</time>
      </trkpt>
      <trkpt lat="43.86956" lon="6.51076">
        <ele>893.603426</ele>
        <time>2020-03-27T13:26:43.687Z</time>
      </trkpt>
      <trkpt lat="43.86947" lon="6.51078">
        <ele>893.319158</ele>
        <time>2020-03-27T13:26:45.315Z</time>
      </trkpt>
      <trkpt lat="43.86933" lon="6.51088">
        <ele>892.846034</ele>
        <time>2020-03-27T13:26:48.274Z</time>
      </trkpt>
      <trkpt lat="43.86906" lon="6.51135">
        <ele>891.525486</ele>
        <time>2020-03-27T13:26:57.173Z</time>
      </trkpt>
      <trkpt lat="43.86876" lon="6.51151">
        <ele>890.552932</ele>
        <time>2020-03-27T13:27:03.535Z</time>
      </trkpt>
      <trkpt lat="43.86869" lon="6.5115">
        <ele>890.35222</ele>
        <time>2020-03-27T13:27:06.331Z</time>
      </trkpt>
      <trkpt lat="43.86862" lon="6.51143">
        <ele>890.032948</ele>
        <time>2020-03-27T13:27:07.804Z</time>
      </trkpt>
      <trkpt lat="43.86847" lon="6.51131">
        <ele>889.346748</ele>
        <time>2020-03-27T13:27:11.563Z</time>
      </trkpt>
      <trkpt lat="43.86821" lon="6.51097">
        <ele>887.976356</ele>
        <time>2020-03-27T13:27:19.307Z</time>
      </trkpt>
      <trkpt lat="43.868" lon="6.51084">
        <ele>887.07907</ele>
        <time>2020-03-27T13:27:24.566Z</time>
      </trkpt>
      <trkpt lat="43.86781" lon="6.51084">
        <ele>886.381911</ele>
        <time>2020-03-27T13:27:28.971Z</time>
      </trkpt>
      <trkpt lat="43.86689" lon="6.5111">
        <ele>882.337056</ele>
        <time>2020-03-27T13:27:46.786Z</time>
      </trkpt>
      <trkpt lat="43.86636" lon="6.51104">
        <ele>879.036387</ele>
        <time>2020-03-27T13:27:56.493Z</time>
      </trkpt>
      <trkpt lat="43.86574" lon="6.51114">
        <ele>875.174612</ele>
        <time>2020-03-27T13:28:07.958Z</time>
      </trkpt>
      <trkpt lat="43.86522" lon="6.51123">
        <ele>872.020542</ele>
        <time>2020-03-27T13:28:17.681Z</time>
      </trkpt>
      <trkpt lat="43.86419" lon="6.51186">
        <ele>867.178908</ele>
        <time>2020-03-27T13:28:39.261Z</time>
      </trkpt>
      <trkpt lat="43.86393" lon="6.51239">
        <ele>865.163891</ele>
        <time>2020-03-27T13:28:48.898Z</time>
      </trkpt>
      <trkpt lat="43.86329" lon="6.51295">
        <ele>863.647343</ele>
        <time>2020-03-27T13:29:05.677Z</time>
      </trkpt>
      <trkpt lat="43.86273" lon="6.51367">
        <ele>862.595805</ele>
        <time>2020-03-27T13:29:23.602Z</time>
      </trkpt>
      <trkpt lat="43.86154" lon="6.51432">
        <ele>860.56592</ele>
        <time>2020-03-27T13:29:53.776Z</time>
      </trkpt>
      <trkpt lat="43.86066" lon="6.51557">
        <ele>857.408679</ele>
        <time>2020-03-27T13:30:21.283Z</time>
      </trkpt>
      <trkpt lat="43.86038" lon="6.5157">
        <ele>855.886566</ele>
        <time>2020-03-27T13:30:27.076Z</time>
      </trkpt>
      <trkpt lat="43.85957" lon="6.5147">
        <ele>850.296373</ele>
        <time>2020-03-27T13:30:47.496Z</time>
      </trkpt>
      <trkpt lat="43.85898" lon="6.51441">
        <ele>845.218044</ele>
        <time>2020-03-27T13:30:58.835Z</time>
      </trkpt>
      <trkpt lat="43.85874" lon="6.51431">
        <ele>843.026151</ele>
        <time>2020-03-27T13:31:03.220Z</time>
      </trkpt>
      <trkpt lat="43.85846" lon="6.51406">
        <ele>840.080274</ele>
        <time>2020-03-27T13:31:09.035Z</time>
      </trkpt>
      <trkpt lat="43.85819" lon="6.51382">
        <ele>837.256844</ele>
        <time>2020-03-27T13:31:14.571Z</time>
      </trkpt>
      <trkpt lat="43.85817" lon="6.5135">
        <ele>835.219916</ele>
        <time>2020-03-27T13:31:16.879Z</time>
      </trkpt>
      <trkpt lat="43.85802" lon="6.51325">
        <ele>832.950877</ele>
        <time>2020-03-27T13:31:19.273Z</time>
      </trkpt>
      <trkpt lat="43.85786" lon="6.51294">
        <ele>829.848613</ele>
        <time>2020-03-27T13:31:22.104Z</time>
      </trkpt>
      <trkpt lat="43.85784" lon="6.51278">
        <ele>828.5193</ele>
        <time>2020-03-27T13:31:23.261Z</time>
      </trkpt>
      <trkpt lat="43.85778" lon="6.51255">
        <ele>826.503984</ele>
        <time>2020-03-27T13:31:25.109Z</time>
      </trkpt>
      <trkpt lat="43.85735" lon="6.51178">
        <ele>818.478533</ele>
        <time>2020-03-27T13:31:32.170Z</time>
      </trkpt>
      <trkpt lat="43.85695" lon="6.51191">
        <ele>813.765096</ele>
        <time>2020-03-27T13:31:36.221Z</time>
      </trkpt>
      <trkpt lat="43.85681" lon="6.51185">
        <ele>811.959601</ele>
        <time>2020-03-27T13:31:37.556Z</time>
      </trkpt>
      <trkpt lat="43.85644" lon="6.51141">
        <ele>805.383496</ele>
        <time>2020-03-27T13:31:42.348Z</time>
      </trkpt>
      <trkpt lat="43.85625" lon="6.51126">
        <ele>802.439173</ele>
        <time>2020-03-27T13:31:44.506Z</time>
      </trkpt>
      <trkpt lat="43.85591" lon="6.51129">
        <ele>797.952975</ele>
        <time>2020-03-27T13:31:47.793Z</time>
      </trkpt>
      <trkpt lat="43.85583" lon="6.5113">
        <ele>796.857642</ele>
        <time>2020-03-27T13:31:48.555Z</time>
      </trkpt>
      <trkpt lat="43.8553" lon="6.51119">
        <ele>789.658456</ele>
        <time>2020-03-27T13:31:53.878Z</time>
      </trkpt>
      <trkpt lat="43.85476" lon="6.51114">
        <ele>783.834507</ele>
        <time>2020-03-27T13:31:59.169Z</time>
      </trkpt>
      <trkpt lat="43.85454" lon="6.51111">
        <ele>781.489237</ele>
        <time>2020-03-27T13:32:01.386Z</time>
      </trkpt>
      <trkpt lat="43.85408" lon="6.51094">
        <ele>776.406329</ele>
        <time>2020-03-27T13:32:06.132Z</time>
      </trkpt>
      <trkpt lat="43.85394" lon="6.51088">
        <ele>774.852858</ele>
        <time>2020-03-27T13:32:07.682Z</time>
      </trkpt>
      <trkpt lat="43.85383" lon="6.51076">
        <ele>773.329185</ele>
        <time>2020-03-27T13:32:09.147Z</time>
      </trkpt>
      <trkpt lat="43.85352" lon="6.51054">
        <ele>769.873698</ele>
        <time>2020-03-27T13:32:12.824Z</time>
      </trkpt>
      <trkpt lat="43.85323" lon="6.51023">
        <ele>767.552942</ele>
        <time>2020-03-27T13:32:16.792Z</time>
      </trkpt>
      <trkpt lat="43.85288" lon="6.50997">
        <ele>764.983074</ele>
        <time>2020-03-27T13:32:21.264Z</time>
      </trkpt>
      <trkpt lat="43.85277" lon="6.5099">
        <ele>764.21878</ele>
        <time>2020-03-27T13:32:22.654Z</time>
      </trkpt>
      <trkpt lat="43.85265" lon="6.50978">
        <ele>763.280803</ele>
        <time>2020-03-27T13:32:24.224Z</time>
      </trkpt>
      <trkpt lat="43.85255" lon="6.5097">
        <ele>762.553856</ele>
        <time>2020-03-27T13:32:25.470Z</time>
      </trkpt>
      <trkpt lat="43.85222" lon="6.50933">
        <ele>759.856644</ele>
        <time>2020-03-27T13:32:30.121Z</time>
      </trkpt>
      <trkpt lat="43.85207" lon="6.50915">
        <ele>758.598615</ele>
        <time>2020-03-27T13:32:32.192Z</time>
      </trkpt>
      <trkpt lat="43.85182" lon="6.50884">
        <ele>756.500995</ele>
        <time>2020-03-27T13:32:35.916Z</time>
      </trkpt>
      <trkpt lat="43.85163" lon="6.50861">
        <ele>754.901072</ele>
        <time>2020-03-27T13:32:38.825Z</time>
      </trkpt>
      <trkpt lat="43.85142" lon="6.50836">
        <ele>753.174288</ele>
        <time>2020-03-27T13:32:42.019Z</time>
      </trkpt>
      <trkpt lat="43.8514" lon="6.50833">
        <ele>752.992634</ele>
        <time>2020-03-27T13:32:42.312Z</time>
      </trkpt>
      <trkpt lat="43.85144" lon="6.50825">
        <ele>752.537688</ele>
        <time>2020-03-27T13:32:43.048Z</time>
      </trkpt>
      <trkpt lat="43.8514" lon="6.50821">
        <ele>752.228113</ele>
        <time>2020-03-27T13:32:46.523Z</time>
      </trkpt>
      <trkpt lat="43.85118" lon="6.50809">
        <ele>750.759048</ele>
        <time>2020-03-27T13:33:02.807Z</time>
      </trkpt>
      <trkpt lat="43.85116" lon="6.50803">
        <ele>750.466375</ele>
        <time>2020-03-27T13:33:06.087Z</time>
      </trkpt>
      <trkpt lat="43.85109" lon="6.50806">
        <ele>749.997719</ele>
        <time>2020-03-27T13:33:06.819Z</time>
      </trkpt>
      <trkpt lat="43.85096" lon="6.50812">
        <ele>749.131666</ele>
        <time>2020-03-27T13:33:08.319Z</time>
      </trkpt>
      <trkpt lat="43.85072" lon="6.50825">
        <ele>747.541511</ele>
        <time>2020-03-27T13:33:10.837Z</time>
      </trkpt>
      <trkpt lat="43.85063" lon="6.5083">
        <ele>746.950592</ele>
        <time>2020-03-27T13:33:11.812Z</time>
      </trkpt>
      <trkpt lat="43.85026" lon="6.50849">
        <ele>744.559522</ele>
        <time>2020-03-27T13:33:15.775Z</time>
      </trkpt>
      <trkpt lat="43.85019" lon="6.50852">
        <ele>744.129809</ele>
        <time>2020-03-27T13:33:16.499Z</time>
      </trkpt>
      <trkpt lat="43.84939" lon="6.50895">
        <ele>738.885891</ele>
        <time>2020-03-27T13:33:25.415Z</time>
      </trkpt>
      <trkpt lat="43.84929" lon="6.509">
        <ele>738.252534</ele>
        <time>2020-03-27T13:33:26.457Z</time>
      </trkpt>
      <trkpt lat="43.84894" lon="6.50923">
        <ele>736.14506</ele>
        <time>2020-03-27T13:33:30.528Z</time>
      </trkpt>
      <trkpt lat="43.84869" lon="6.50963">
        <ele>734.807714</ele>
        <time>2020-03-27T13:33:34.655Z</time>
      </trkpt>
      <trkpt lat="43.84825" lon="6.51051">
        <ele>732.106106</ele>
        <time>2020-03-27T13:33:43.539Z</time>
      </trkpt>
      <trkpt lat="43.8482" lon="6.51062">
        <ele>731.773992</ele>
        <time>2020-03-27T13:33:44.795Z</time>
      </trkpt>
      <trkpt lat="43.84802" lon="6.51096">
        <ele>730.694621</ele>
        <time>2020-03-27T13:33:48.451Z</time>
      </trkpt>
      <trkpt lat="43.84797" lon="6.51111">
        <ele>730.284856</ele>
        <time>2020-03-27T13:33:49.999Z</time>
      </trkpt>
      <trkpt lat="43.8479" lon="6.51133">
        <ele>729.863186</ele>
        <time>2020-03-27T13:33:52.015Z</time>
      </trkpt>
      <trkpt lat="43.84776" lon="6.51181">
        <ele>729.056893</ele>
        <time>2020-03-27T13:33:56.524Z</time>
      </trkpt>
      <trkpt lat="43.84774" lon="6.51188">
        <ele>728.946709</ele>
        <time>2020-03-27T13:33:57.146Z</time>
      </trkpt>
      <trkpt lat="43.84772" lon="6.51195">
        <ele>728.832845</ele>
        <time>2020-03-27T13:33:57.855Z</time>
      </trkpt>
      <trkpt lat="43.8477" lon="6.51197">
        <ele>728.778661</ele>
        <time>2020-03-27T13:33:58.185Z</time>
      </trkpt>
      <trkpt lat="43.84768" lon="6.51199">
        <ele>728.727875</ele>
        <time>2020-03-27T13:33:58.509Z</time>
      </trkpt>
      <trkpt lat="43.84763" lon="6.51199">
        <ele>728.613918</ele>
        <time>2020-03-27T13:33:59.159Z</time>
      </trkpt>
      <trkpt lat="43.84726" lon="6.51204">
        <ele>727.822268</ele>
        <time>2020-03-27T13:34:03.680Z</time>
      </trkpt>
      <trkpt lat="43.84721" lon="6.51207">
        <ele>727.69547</ele>
        <time>2020-03-27T13:34:04.351Z</time>
      </trkpt>
      <trkpt lat="43.84718" lon="6.51208">
        <ele>727.639081</ele>
        <time>2020-03-27T13:34:04.635Z</time>
      </trkpt>
      <trkpt lat="43.84683" lon="6.51239">
        <ele>726.734895</ele>
        <time>2020-03-27T13:34:10.022Z</time>
      </trkpt>
      <trkpt lat="43.84678" lon="6.51246">
        <ele>726.592179</ele>
        <time>2020-03-27T13:34:10.844Z</time>
      </trkpt>
      <trkpt lat="43.84676" lon="6.51248">
        <ele>726.542589</ele>
        <time>2020-03-27T13:34:11.151Z</time>
      </trkpt>
      <trkpt lat="43.84672" lon="6.51252">
        <ele>726.431955</ele>
        <time>2020-03-27T13:34:11.834Z</time>
      </trkpt>
      <trkpt lat="43.84666" lon="6.51255">
        <ele>726.294591</ele>
        <time>2020-03-27T13:34:12.641Z</time>
      </trkpt>
      <trkpt lat="43.84662" lon="6.51256">
        <ele>726.294312</ele>
        <time>2020-03-27T13:34:13.130Z</time>
      </trkpt>
      <trkpt lat="43.84657" lon="6.51256">
        <ele>726.294312</ele>
        <time>2020-03-27T13:34:13.676Z</time>
      </trkpt>
      <trkpt lat="43.8465" lon="6.51256">
        <ele>726.294312</ele>
        <time>2020-03-27T13:34:14.684Z</time>
      </trkpt>
      <trkpt lat="43.84643" lon="6.51254">
        <ele>726.294312</ele>
        <time>2020-03-27T13:34:15.514Z</time>
      </trkpt>
      <trkpt lat="43.84623" lon="6.51247">
        <ele>726.294312</ele>
        <time>2020-03-27T13:34:18.052Z</time>
      </trkpt>
      <trkpt lat="43.84615" lon="6.51243">
        <ele>726.294312</ele>
        <time>2020-03-27T13:34:19.113Z</time>
      </trkpt>
      <trkpt lat="43.84612" lon="6.51241">
        <ele>726.294312</ele>
        <time>2020-03-27T13:34:19.512Z</time>
      </trkpt>
      <trkpt lat="43.8461" lon="6.51242">
        <ele>726.294312</ele>
        <time>2020-03-27T13:34:19.777Z</time>
      </trkpt>
      <trkpt lat="43.84606" lon="6.51244">
        <ele>726.294312</ele>
        <time>2020-03-27T13:34:20.344Z</time>
      </trkpt>
      <trkpt lat="43.84604" lon="6.51247">
        <ele>726.294312</ele>
        <time>2020-03-27T13:34:20.636Z</time>
      </trkpt>
      <trkpt lat="43.84604" lon="6.5125">
        <ele>726.294312</ele>
        <time>2020-03-27T13:34:20.927Z</time>
      </trkpt>
      <trkpt lat="43.84604" lon="6.51253">
        <ele>726.294312</ele>
        <time>2020-03-27T13:34:21.215Z</time>
      </trkpt>
      <trkpt lat="43.846" lon="6.51267">
        <ele>726.294312</ele>
        <time>2020-03-27T13:34:22.463Z</time>
      </trkpt>
      <trkpt lat="43.84599" lon="6.51277">
        <ele>726.294312</ele>
        <time>2020-03-27T13:34:23.498Z</time>
      </trkpt>
      <trkpt lat="43.84592" lon="6.51321">
        <ele>726.294312</ele>
        <time>2020-03-27T13:34:27.797Z</time>
      </trkpt>
      <trkpt lat="43.84591" lon="6.51326">
        <ele>726.294312</ele>
        <time>2020-03-27T13:34:28.442Z</time>
      </trkpt>
      <trkpt lat="43.84604" lon="6.51328">
        <ele>726.294312</ele>
        <time>2020-03-27T13:34:30.826Z</time>
      </trkpt>
      <trkpt lat="43.84607" lon="6.51328">
        <ele>726.294312</ele>
        <time>2020-03-27T13:34:31.396Z</time>
      </trkpt>
      <trkpt lat="43.84618" lon="6.51333">
        <ele>726.294312</ele>
        <time>2020-03-27T13:34:33.499Z</time>
      </trkpt>
      <trkpt lat="43.84618" lon="6.51333">
        <ele>726.294312</ele>
        <time>2020-03-27T13:34:33.500Z</time>
      </trkpt>
    </trkseg>
  </trk>
</gpx>